BCO-DMO ERDDAP
Accessing BCO-DMO data
log in    
Brought to you by BCO-DMO    
 
 
cruiseid year month_gmt day_gmt time_gmt latitude longitude ConT OpnWtrCode TrackDist IceCon1 IType1Code IThkns1 Flo1SzCode Topo1Code SnoTyp1Code SnoThkns1 IceCon2 IType2Code IThkns2 Flo2SzCode Topo2Code SnoTyp2Code SnoThkns2 IceCon3 IType3Code IThkns3 Flo3SzCode Topo3Code SnoTyp3Code SnoThkns3 temp temp_air wind_speed_kts wind_dir frame visib cldcvr wx Comments
unitless unitless degrees_north degrees_east
LMG0106 2001 07 27 0:00 -64.917 -64.6 9 1 6 50 30 400 100 3 5 3 90 10 300 0 1 0 -1.8 -9.2
LMG0106 2001 07 27 1:00 -64.933 -64.8 8 2 4 50 30 400 100 3 5 3 30 15 100 300 2 2 1 90 10 300 0 1 0 -1.8 -9.6
LMG0106 2001 07 27 2:00 -65.0 -65.05 8 2 6 50 30 400 100 3 5 2 40 15 400 100 1 0 -1.8 -10.8
LMG0106 2001 07 27 3:00 -65.05 -65.233 7 2 4 60 35 400 100 3 5 2 50 20 400 100 2 1 1 40 10 400 100 1 0 -1.8 -11.6
LMG0106 2001 07 27 4:00 -65.1 -65.417 6 3 2 60 35 400 100 3 10 2 50 20 400 100 3 5 2 40 10 400 100 1 0 -1.8 -11.4
LMG0106 2001 07 27 5:00 -65.15 -65.6 7 2 2 60 35 400 100 3 10 4 50 20 400 100 3 5 1 40 10 400 100 1 0 -1.8 -10.7
LMG0106 2001 07 27 6:00 -65.183 -65.767 9 2 2 60 50 400 100 3 10 7 90 35 300 0 1 0 -1.8 -11.0
LMG0106 2001 07 27 7:00 -65.217 -65.883 9 2 5 60 35 400 100 3 10 4 90 20 300 0 1 0 -1.8 -11.2
LMG0106 2001 07 27 8:00 -65.233 -65.967 9 2 5 60 40 400 100 3 10 3 90 20 300 0 1 0 1 40 10 400 100 1 0 -1.8 -10.6
LMG0106 2001 07 27 9:00 -65.283 -66.167 9 1 2 60 50 400 621 3 15 5 60 35 400 100 3 15 2 40 15 400 100 2 1 -1.8 -9.6
LMG0106 2001 07 27 10:00 -65.333 -66.333 9 2 2 60 40 500 621 4 20 6 60 30 400 100 3 10 1 40 15 400 100 1 0 -1.8 -10.6
LMG0106 2001 07 27 11:00 -65.367 -66.483 9 1 7 60 35 400 100 3 15 2 90 15 300 0 1 0 -1.8 -9.4
LMG0106 2001 07 27 12:00 -65.417 -66.65 9 1 6 60 40 400 100 4 10 1 50 20 400 100 3 5 2 40 10 400 100 1 0 -1.8 -10.5
LMG0106 2001 07 27 13:00 -65.467 -66.85 9 2 5 60 45 400 100 4 10 2 50 15 400 100 3 5 2 40 10 400 100 1 0 -1.8 -10.1
LMG0106 2001 07 27 14:00 -65.5 -67.117 8 2 5 50 30 400 100 4 5 3 40 10 200 100 2 1 -1.85 -9.8
LMG0106 2001 07 27 15:00 -65.583 -67.3 1 6 1 10 5 0 0 1 0 -1.74 -10.4
LMG0106 2001 07 27 16:00 -65.65 -67.6 7 3 5 50 25 400 100 3 3 1 30 10 100 300 1 0 1 90 5 300 0 1 0 -1.83 -8.8
LMG0106 2001 07 27 17:00 -65.75 -67.867 7 4 4 50 15 400 100 3 3 3 30 10 100 300 1 0 -1.82 -10.1
LMG0106 2001 07 27 18:00 -65.783 -68.083 8 3 6 40 15 200 100 1 0 2 30 15 100 300 1 0 -1.81 -9.2
LMG0106 2001 07 27 19:00 -65.833 -68.367 6 4 4 40 15 200 100 1 0 1 30 10 100 100 1 0 1 12 5 0 0 1 0 -1.83 -9.7
LMG0106 2001 07 27 20:00 -65.917 -68.7 9 1 3 60 40 400 100 4 5 3 30 15 100 300 1 0 3 10 5 0 0 1 0 -1.8 -9.2
LMG0106 2001 07 27 21:00 -65.95 -68.933 1 6 1 10 5 0 0 1 0 -1.8 -9.3
LMG0106 2001 07 28 0:00 -65.967 -68.967 9 2 3 60 35 400 100 3 10 5 50 25 400 100 3 5 1 40 10 400 100 2 1 -1.8 -12.2
LMG0106 2001 07 28 1:00 -66.017 -69.15 8 3 3 60 35 400 100 3 10 4 50 20 400 100 3 5 1 20 5 200 100 1 0 -1.8 -11.3
LMG0106 2001 07 28 2:00 -66.083 -69.383 9 2 4 60 60 400 611 3 20 3 60 40 400 100 3 5 2 40 15 400 100 1 0 -1.8 -11.4
LMG0106 2001 07 28 3:00 -66.117 -69.533 6 4 3 60 50 500 100 3 5 2 40 15 400 100 1 0 1 20 5 200 100 1 0 -1.8 -12.6
LMG0106 2001 07 28 4:00 -66.2 -69.75 7 3 3 60 60 500 601 3 20 2 60 35 400 100 3 10 2 90 10 300 0 1 0 -1.8 -12.1
LMG0106 2001 07 28 5:00 -66.217 -69.967 8 4 2 60 40 500 100 3 20 2 90 10 300 0 1 0 4 40 10 200 100 1 0 -1.8 -12.4
LMG0106 2001 07 28 6:00 -66.283 -70.233 5 4 1 60 40 500 100 3 20 4 20 5 200 100 1 0 -1.8 -12.0
LMG0106 2001 07 28 7:00 -66.333 -70.383 9 2 7 60 50 400 100 4 10 2 50 15 200 100 1 0 -1.8 -11.4
LMG0106 2001 07 28 8:00 -66.367 -70.6 9 2 6 60 50 500 601 4 10 3 50 15 200 100 1 0 -1.8 -11.0
LMG0106 2001 07 28 9:00 -66.4 -70.8 9 2 8 60 45 400 601 4 15 1 50 15 200 100 3 2 -1.8 -11.0
LMG0106 2001 07 28 9:30 -66.35 -70.717 9 1 4 60 50 400 601 4 20 4 60 32 500 100 3 5 1 40 10 200 100 1 0 -1.8 -11.5
LMG0106 2001 07 28 23:00 -66.367 -70.517 9 2 2 60 50 400 611 4 25 6 60 30 500 100 3 5 1 40 10 200 100 1 0 -1.8 -16.1
LMG0106 2001 07 29 0:00 -66.433 -70.217 7 2 1 60 40 500 100 3 10 3 50 20 200 100 3 5 3 40 10 200 100 1 0 -1.8 -16.0
LMG0106 2001 07 29 1:00 -66.45 -69.983 8 3 2 70 100 500 621 3 8 4 60 60 500 100 3 8 2 40 10 200 100 1 0 -1.79 -15.8
LMG0106 2001 07 29 2:00 -66.517 -69.783 8 3 5 40 10 400 100 2 1 2 20 7 200 100 1 0 1 12 3 0 0 1 0 -1.8 -14.6
LMG0106 2001 07 29 3:00 -66.533 -69.5 7 4 2 40 10 400 100 2 1 3 30 7 100 200 1 0 2 20 5 200 100 1 0 -1.8 -14.6
LMG0106 2001 07 29 4:00 -66.583 -69.167 8 3 3 60 60 500 622 4 10 3 50 15 500 100 1 0 2 40 12 400 100 1 0 -1.79 -15.6
LMG0106 2001 07 29 5:00 -66.633 -68.917 9 2 3 60 40 500 100 4 10 4 60 40 400 601 4 10 2 40 15 200 100 2 2 -1.77 -14.3
LMG0106 2001 07 29 6:00 -66.65 -68.883 9 2 4 60 50 500 611 4 10 3 60 40 400 100 4 10 2 50 30 200 100 1 0 -1.74 -14.3
LMG0106 2001 07 29 10:00 -66.75 -69.033 9 1 3 60 40 500 100 3 8 4 60 30 500 100 3 5 2 90 30 300 0 1 0 -1.8 -12.3
LMG0106 2001 07 29 11:00 -66.833 -69.133 10 1 5 60 35 500 601 4 15 4 50 25 500 100 4 5 1 40 15 200 100 1 0 -1.8 -15.9
LMG0106 2001 07 29 12:00 -66.917 -69.233 9 2 2 60 50 500 601 3 20 6 60 30 500 100 4 10 1 50 15 500 100 2 5 -1.8 -15.6
LMG0106 2001 07 29 13:00 67.0 -69.283 10 1 4 70 90 500 621 4 15 5 60 50 500 100 4 15 1 40 10 200 100 1 0 -1.8 -15.6
LMG0106 2001 07 29 14:00 -67.083 -69.367 10 1 5 60 40 400 611 3 10 1 90 40 300 0 1 0 4 40 10 200 100 1 0 -1.8 -15.2
LMG0106 2001 07 29 15:00 -67.3 -69.417 10 0 8 70 100 500 723 4 15 1 40 10 200 100 1 0 1 20 5 200 100 1 0 -1.8 -14.4
LMG0106 2001 07 29 16:00 -67.217 -69.417 9 1 6 70 100 500 753 4 20 2 60 50 500 100 3 10 1 20 5 200 100 1 0 -1.8 -17.9
LMG0106 2001 07 29 19:00 -67.233 -69.483 9 1 1 60 50 500 631 4 20 6 90 40 300 0 1 0 2 20 10 200 400 1 0 -1.8 -12.3
LMG0106 2001 07 29 20:00 -67.333 -69.483 8 2 1 50 30 200 100 3 5 5 40 15 200 100 1 0 2 20 5 200 400 1 0 -1.8 -9.8
LMG0106 2001 07 29 21:00 -67.517 -69.417 6 3 1 70 70 500 862 3 15 3 40 10 200 100 1 0 2 12 10 0 0 1 0 -1.8 -7.4
LMG0106 2001 07 29 22:00 -67.6 -69.35 7 3 2 60 70 500 602 3 20 5 40 10 200 100 1 0 -1.8 -9.3
LMG0106 2001 07 29 23:00 -67.583 -69.367 8 2 8 20 10 200 400 1 0 -1.8 -8.8
LMG0106 2001 07 30 23:00 -67.7 -69.383 10 0 3 60 60 500 631 4 15 4 60 40 500 100 3 10 3 90 40 300 0 1 0 -1.7 -1.6
LMG0106 2001 07 31 0:00 -67.7 -69.367 1 8 1 90 20 300 0 1 0 -1.7 -1.4
LMG0106 2001 07 31 1:00 -67.683 -69.333 8 2 3 60 50 500 100 4 15 2 90 20 300 0 1 0 3 40 10 500 100 2 5 -1.7 -1.9
LMG0106 2001 07 31 13:00 -67.767 -69.267 1 7 1 90 20 300 0 1 0 -1.45 -1.5
LMG0106 2001 07 31 14:00 -67.833 -68.983 9 1 2 50 25 500 100 2 1 4 50 25 400 100 2 1 3 90 5 300 0 1 0 -1.8 -1.4
LMG0106 2001 07 31 15:00 -67.817 -68.817 0 7 -1.54 -1.1
LMG0106 2001 07 31 16:00 -67.85 -68.95 7 4 3 50 30 400 100 2 5 4 90 10 300 0 1 0 -1.66 -1.2
LMG0106 2001 07 31 16:30 -67.717 -69.1 6 4 4 50 30 400 100 3 5 2 90 10 300 0 1 0 -1.77 -1.5
LMG0106 2001 07 31 17:00 -67.883 -69.067 10 1 3 60 70 500 611 2 30 4 60 30 500 100 2 10 3 90 30 300 0 1 0 -1.77 -1.4
LMG0106 2001 07 31 18:00 -67.883 -69.117 9 1 8 60 40 600 612 2 30 1 90 40 300 0 1 0 -1.78 -1.5
LMG0106 2001 07 31 19:00 -67.9 -69.133 10 0 8 60 60 700 100 2 20 2 90 40 300 0 1 0 -1.65 -1.6
LMG0106 2001 07 31 22:00 -67.883 -69.183 10 1 10 90 40 300 0 1 0 -1.78 -2.0
LMG0106 2001 07 31 22:30 -67.85 -69.017 1 8 1 90 30 300 0 1 0 -1.6 -1.9
LMG0106 2001 07 31 23:00 -67.817 -68.833 1 7 1 90 30 300 0 1 0 -1.64 -2.0
LMG0106 2001 08 01 13:00 -67.783 -68.533 0 9 -1.64 -7.7
LMG0106 2001 08 01 14:00 -67.75 -68.2 0 9 -1.74 -5.6
LMG0106 2001 08 01 15:00 -67.7 -67.967 7 5 3 50 20 400 100 3 2 4 30 10 100 200 1 0 -1.7 0.6
LMG0106 2001 08 01 18:00 -67.8 -67.683 8 3 6 60 40 500 100 3 2 1 60 40 400 100 3 2 1 90 15 300 0 1 0 -1.76 -7.0
LMG0106 2001 08 01 20:00 -67.817 -67.733 8 2 3 60 50 400 661 3 5 3 50 20 400 100 3 2 2 90 20 300 0 1 0 -1.78 -7.6
LMG0106 2001 08 02 0:00 -67.783 -67.917 10 0 7 20 5 200 400 1 0 1 12 2 0 0 1 0 2 10 1 0 0 1 0 -1.7 -8.2
LMG0106 2001 08 02 1:00 -67.767 -68.4 10 0 8 20 5 200 400 1 0 2 12 2 0 0 1 0 -1.6 -7.1
LMG0106 2001 08 02 2:00 -67.8 -68.65 9 2 5 60 30 400 601 3 10 4 90 10 300 0 1 0 -1.56 -7.3
LMG0106 2001 08 02 3:00 -67.817 -68.95 8 2 2 60 40 400 601 3 10 3 60 30 500 100 3 5 3 90 30 300 0 1 0 -1.54 -8.8
LMG0106 2001 08 02 4:00 -67.767 -69.233 7 3 4 60 30 500 601 3 10 2 90 10 300 0 1 0 1 20 5 200 100 1 0 -1.74 -8.2
LMG0106 2001 08 02 5:00 -67.633 -69.367 4 4 2 60 30 500 100 3 10 1 60 30 400 100 3 10 1 90 30 300 0 1 0 -1.6 -8.2
LMG0106 2001 08 02 16:15 -67.633 -69.317 4 5 3 60 30 400 611 3 10 1 90 20 300 0 1 0 -1.8 -7.4
LMG0106 2001 08 02 17:00 -67.683 -69.267 9 2 8 60 40 500 621 3 10 1 90 20 300 0 1 0 -1.8 -7.3
LMG0106 2001 08 02 18:00 -67.65 -69.25 9 2 8 60 40 500 621 3 10 1 90 20 300 0 1 0 -1.8 -7.1
LMG0106 2001 08 02 19:00 -67.717 -69.3 8 3 5 60 35 500 601 3 10 1 90 20 300 0 1 0 2 20 5 200 400 1 0 -1.7 -7.5
LMG0106 2001 08 02 22:00 -67.75 -69.317 9 2 6 60 35 500 601 4 15 1 90 20 300 0 1 0 2 20 5 200 400 1 0 -1.8 -6.3
LMG0106 2001 08 03 1:00 -67.8 -69.117 9 1 9 60 40 500 611 4 10 -1.8 -3.0
LMG0106 2001 08 03 2:00 -67.817 -68.75 0 7 -1.6 -0.8
LMG0106 2001 08 03 13:00 -67.85 -68.733 0 7 -1.54 -1.4
LMG0106 2001 08 03 14:00 -67.85 -68.75 0 7 -1.57 -1.5
LMG0106 2001 08 03 17:00 -67.8 -68.683 0 7 -1.56 -0.5
LMG0106 2001 08 03 18:00 -67.833 -68.95 7 3 4 60 30 400 100 3 15 3 90 15 300 0 1 0 -1.78 -2.8
LMG0106 2001 08 03 19:00 -67.783 -69.183 7 2 5 60 40 500 621 3 20 2 90 15 300 0 1 0 -1.8 -1.7
LMG0106 2001 08 03 20:00 -67.767 -69.25 8 2 4 60 30 400 622 3 15 2 90 20 300 0 1 0 2 40 10 500 100 3 2 -1.8 -3.3
LMG0106 2001 08 05 3:00 -67.85 -68.983 0 7 -1.66 0.2
LMG0106 2001 08 05 4:00 -67.883 -69.283 7 3 2 70 80 500 100 2 5 3 90 50 300 0 1 0 2 60 50 500 100 2 5 -1.9 -0.3
LMG0106 2001 08 05 5:00 -67.917 -69.517 10 0 10 60 30 800 601 2 10 -1.78 -0.5
LMG0106 2001 08 05 6:00 -67.95 -69.7 9 1 5 60 40 500 621 2 10 4 60 30 500 100 2 5 -1.8 -0.6
LMG0106 2001 08 05 7:00 -67.967 -69.983 9 2 9 60 50 600 100 2 10 -1.8 -0.9
LMG0106 2001 08 05 8:00 -68.0 -69.967 10 0 10 60 60 600 601 2 10 -1.8 -1.1
LMG0106 2001 08 05 9:00 -68.017 -70.05 10 0 10 60 50 600 601 2 10 -1.8 -1.1
LMG0106 2001 08 05 10:00 -68.033 -70.183 10 0 10 60 60 600 612 2 20 -1.8 -2.1
LMG0106 2001 08 05 11:00 -68.05 -70.217 10 0 10 60 50 600 712 2 20 -1.8 -2.4
LMG0106 2001 08 05 12:00 -68.033 -70.317 10 0 10 60 30 600 501 2 10 -1.8 -1.0
LMG0106 2001 08 11 20:00 -68.133 -69.667 9 1 9 60 45 600 601 2 20 -1.7 -0.2
LMG0106 2001 08 12 14:00 -68.2 -69.517 10 1 6 60 50 500 612 4 20 4 60 40 600 100 4 20 -1.7 -6.6
LMG0106 2001 08 13 14:00 -68.267 -69.533 10 1 4 60 60 600 613 4 20 6 60 40 600 100 4 15 -1.75 -17.0
LMG0106 2001 08 13 15:00 -68.233 -69.517 10 1 4 60 60 600 674 4 20 6 60 40 600 100 4 15 -1.77 -20.4
LMG0106 2001 08 13 16:00 -68.233 -69.533 10 1 2 60 50 600 601 4 15 8 60 50 500 502 4 20 -1.76 -18.4
LMG0106 2001 08 13 17:00 -68.2 -69.567 10 1 2 60 50 500 601 4 20 8 60 50 400 503 4 20 -1.65 -19.7
LMG0106 2001 08 13 18:00 -68.167 -69.633 10 1 2 60 50 500 602 4 20 8 60 40 600 100 4 15 -1.77 -18.5
LMG0106 2001 08 13 19:00 -68.05 -69.7 10 1 2 60 50 500 723 4 20 8 60 40 500 601 4 15 -1.79 -19.2
LMG0106 2001 08 13 21:00 -67.983 -69.783 10 1 10 60 50 700 711 4 20 -1.78 -15.9
LMG0106 2001 08 13 22:00 -67.967 -69.767 10 1 10 60 50 700 711 4 20 -1.78 -15.9
LMG0106 2001 08 13 23:00 -67.967 -69.733 10 1 10 60 50 700 711 4 5 -1.79 -10.3
LMG0106 2001 08 14 0:00 -67.967 -69.717 10 0 10 60 50 700 711 4 25 -1.78 -10.7
LMG0106 2001 08 14 1:00 -67.95 -69.733 10 0 10 60 70 700 701 4 20 -1.11 -10.2
LMG0106 2001 08 14 2:00 -67.933 -69.75 0 0 0 0 0 0 0 0 0 0 0 0 0 0 0 0 0 0 0 0 0 -1.78 -12.5
LMG0106 2001 08 14 6:00 -67.883 -69.867 0 0 0 0 0 0 0 0 0 0 0 0 0 0 0 0 0 0 0 0 0 -1.75 -15.3
LMG0106 2001 08 14 7:00 -67.883 -69.883 0 0 0 0 0 0 0 0 0 0 0 0 0 0 0 0 0 0 0 0 0 -1.75 -15.4
LMG0106 2001 08 14 12:00 -67.867 -69.817 0 0 0 0 0 0 0 0 0 0 0 0 0 0 0 0 0 0 0 0 0 -1.73 -25.6
LMG0106 2001 08 14 14:00 -67.867 -69.75 10 0 10 60 40 700 612 4 20 -1.77 -28.2
LMG0106 2001 08 14 15:00 -67.8 -69.733 10 0 10 60 60 700 721 4 20 -1.78 -27.7
LMG0106 2001 08 14 16:00 -67.733 -69.75 10 0 4 60 50 500 722 4 25 6 60 50 500 711 4 25 -1.78 -26.4
LMG0106 2001 08 14 17:00 -67.717 -69.833 10 0 4 60 50 500 722 4 25 6 60 50 500 711 4 25 -1.78 -26.4
LMG0106 2001 08 14 18:20 -67.683 -69.9 10 1 8 60 50 500 732 4 20 2 60 50 400 721 4 20 -1.78 -24.4
LMG0106 2001 08 14 19:00 -67.633 -69.983 10 1 8 60 60 400 732 4 25 2 60 60 500 100 4 15 -1.79 -23.5
LMG0106 2001 08 14 20:00 -67.617 -70.1 10 1 5 60 50 400 100 4 25 5 60 50 400 683 4 30 -1.79 -23.3
LMG0106 2001 08 14 21:00 -67.567 -70.2 10 2 3 60 60 500 701 4 20 6 60 60 400 653 4 30 1 12 3 0 0 1 0 -1.79 -22.4
LMG0106 2001 08 14 22:00 -67.467 -70.167 10 1 3 60 50 400 601 4 20 4 90 40 300 0 1 0 3 20 10 200 100 2 1 -1.79 -22.5
LMG0106 2001 08 14 23:00 -67.383 -70.117 10 1 3 60 50 400 601 4 20 3 90 40 300 0 1 0 4 50 20 400 100 2 5 -1.78 -23.4
LMG0106 2001 08 15 0:00 -67.267 -70.133 10 1 9 60 40 500 701 3 15 1 90 30 300 0 1 0 -1.7 -23.6
LMG0106 2001 08 15 1:00 -67.2 -70.15 10 1 1 60 50 500 702 4 20 7 60 40 400 501 4 15 2 90 40 300 0 1 0 -1.69 -22.8
LMG0106 2001 08 15 2:00 -67.167 -70.15 10 1 9 60 50 500 701 4 15 1 90 30 300 0 1 0 -1.78 -22.3
LMG0106 2001 08 20 13:47 -67.283 -70.833 9 2 3 60 70 400 653 4 30 4 60 50 500 601 4 15 2 60 30 500 100 4 10 -1.76 -11.5
LMG0106 2001 08 20 15:00 -67.25 -70.7 10 1 5 60 50 500 632 4 25 3 60 40 400 611 4 20 2 90 40 300 0 1 0 -1.79 -10.7
LMG0106 2001 08 20 16:00 -67.25 -70.683 10 1 7 60 60 400 632 4 25 2 60 50 500 611 4 15 1 90 50 300 0 1 0 -1.78 -14.5
LMG0106 2001 08 20 17:00 -67.233 -70.667 10 1 6 60 60 500 611 4 20 1 90 50 300 0 1 0 3 60 40 500 601 4 15 -1.78 -9.3
LMG0106 2001 08 20 18:00 -67.233 -70.667 10 1 6 60 60 500 621 4 20 1 90 50 300 0 1 0 3 60 40 500 601 4 15 -1.7 -8.2
LMG0106 2001 08 20 19:00 -67.217 -70.667 10 1 4 60 60 500 721 4 30 5 60 50 500 611 4 15 1 90 50 300 0 1 0 -1.75 -7.0
LMG0106 2001 08 20 20:00 -67.2 -70.683 10 1 6 60 60 500 721 4 40 3 60 50 500 611 4 40 1 90 50 300 0 1 0 -1.77 -6.5
LMG0106 2001 08 20 21:00 -67.2 -70.7 10 1 5 60 60 500 711 4 30 4 60 50 500 611 4 10 1 90 40 300 0 1 0 -1.77 -8.0
LMG0106 2001 08 20 22:00 -67.183 -70.7 10 1 4 60 50 400 722 4 40 4 60 40 400 641 4 30 2 90 40 300 0 1 0 -1.77 -5.3
LMG0106 2001 08 21 13:00 -67.317 -71.05 10 1 7 60 40 600 711 4 15 2 50 15 200 100 1 0 1 40 10 200 100 1 0 -1.79 -8.2
LMG0106 2001 08 21 14:00 -67.283 -71.067 10 1 8 60 45 700 701 4 20 1 50 20 400 100 1 0 1 50 15 200 100 1 0 -1.77 -7.9
LMG0106 2001 08 21 15:15 -67.267 -71.05 10 1 6 60 50 600 701 4 20 4 60 50 500 701 4 20 -1.77 -7.4
LMG0106 2001 08 21 16:00 -67.283 -71.05 10 1 5 60 50 600 701 4 20 5 60 50 500 701 4 20 -1.65 -7.5
LMG0106 2001 08 21 19:00 -67.367 -70.917 9 1 5 60 50 500 732 4 30 1 90 50 300 0 1 0 3 60 40 400 621 4 20 -1.77 -7.0
LMG0106 2001 08 21 20:00 -67.383 -70.883 9 2 4 60 50 500 731 4 15 3 60 50 400 601 4 20 2 90 25 300 0 1 0 -1.76 -7.3
LMG0106 2001 08 21 21:00 -67.4 -70.833 10 1 6 60 50 500 731 4 30 3 60 40 500 601 4 20 1 90 40 300 0 1 0 -1.78 -6.7
LMG0106 2001 08 21 22:00 -67.4 -70.817 10 1 4 60 60 500 731 4 30 5 60 50 500 601 4 20 1 0 0 0 0 0 0 -1.77 -7.0
LMG0106 2001 08 22 13:52 -67.333 -70.983 10 1 5 60 60 500 721 4 20 5 60 50 500 601 4 15 -1.71 -14.0
LMG0106 2001 08 22 15:00 -67.333 -70.85 9 2 5 60 60 500 711 4 20 3 60 50 500 601 4 10 1 90 10 300 0 1 0 -1.78 -13.4
LMG0106 2001 08 22 16:00 -67.333 -70.7 9 2 5 60 60 500 721 4 15 3 60 50 500 611 4 10 1 90 10 300 0 1 0 -1.78 -15.2
LMG0106 2001 08 22 17:00 -67.333 -70.583 9 1 7 60 40 500 721 4 15 1 50 15 400 100 1 0 1 40 10 200 100 1 0 -1.78 -15.8
LMG0106 2001 08 22 18:00 -67.333 -70.483 9 1 7 60 60 700 731 4 25 1 90 15 300 0 1 0 1 20 10 200 400 1 0 -1.77 -16.1
LMG0106 2001 08 22 19:00 -67.367 -70.383 9 1 6 60 60 600 742 4 20 3 60 60 500 731 4 20 -1.79 -16.6
LMG0106 2001 08 22 20:00 -67.4 -70.283 9 1 5 60 50 600 742 4 15 3 60 50 500 731 4 15 1 90 50 300 0 1 0 -1.78 -16.1
LMG0106 2001 08 22 21:00 -67.417 -70.233 9 2 3 60 60 500 721 4 15 1 90 50 300 0 1 0 5 60 50 600 100 4 15 -1.78 -15.8
LMG0106 2001 08 22 22:00 -67.367 -70.2 10 1 2 60 50 500 711 4 15 7 60 50 500 100 4 20 1 90 50 300 0 1 0 -1.73 -15.1
LMG0106 2001 08 22 23:00 -67.417 -70.15 10 1 1 60 50 500 711 4 30 5 60 50 400 732 4 40 4 90 40 300 0 1 0
LMG0106 2001 08 23 0:00 -67.417 -70.167 10 1 2 60 50 500 710 4 30 4 60 50 400 732 4 40 4 90 40 300 0 1 0 -1.77 -15.7
LMG0106 2001 08 23 1:00 -67.383 -70.217 10 1 3 70 70 400 723 4 30 6 60 50 500 701 4 20 1 90 40 300 0 1 0 -1.77 -16.5
LMG0106 2001 08 23 1:30 -67.383 -70.233 10 1 2 70 70 400 723 4 30 7 60 50 600 701 4 20 1 90 40 300 0 1 0 -1.78 -15.2
LMG0106 2001 08 23 13:20 -67.35 -70.133 9 1 6 60 70 500 713 4 20 1 60 60 400 631 4 30 2 90 30 300 0 1 0 -1.78 -15.9
LMG0106 2001 08 23 14:00 -67.317 -70.1 9 2 5 60 50 500 722 4 20 3 60 40 400 621 4 15 1 90 30 300 0 1 0 -1.79 -16.3
LMG0106 2001 08 23 15:00 -67.283 -70.067 10 2 6 60 50 500 733 4 30 3 60 40 500 701 4 15 1 20 5 200 400 1 0 -1.78 -16.3
LMG0106 2001 08 23 16:00 -67.233 -70.017 9 2 3 70 70 500 721 4 30 5 60 50 500 601 4 20 1 20 10 200 400 1 0 -1.78 -16.0
LMG0106 2001 08 23 17:00 -67.183 -69.85 9 2 3 70 70 400 701 4 30 5 60 50 400 601 4 20 1 40 15 200 100 1 0 -1.78 -15.3
LMG0106 2001 08 23 17:30 -67.117 -69.9 9 2 3 60 60 500 701 4 30 5 60 40 400 601 4 15 1 40 15 200 100 1 0 -1.78 -14.8
LMG0106 2001 08 23 19:00 -67.1 -69.883 10 2 2 60 60 500 711 4 30 7 60 50 400 601 4 20 1 90 20 300 0 1 0 -1.77 -14.0
LMG0106 2001 08 23 21:00 -67.0 -69.783 9 1 6 60 50 500 701 4 20 2 60 40 400 100 4 20 1 90 20 300 0 1 0 -1.78 -16.5
LMG0106 2001 08 23 22:00 -66.933 -69.733 10 1 8 60 60 500 701 4 30 1 60 40 400 100 4 30 1 90 20 300 0 1 0 -1.76 -16.5
LMG0106 2001 08 24 0:00 -66.8 -69.633 10 2 7 60 35 400 711 3 15 3 90 15 300 0 1 0 -1.77 -16.7
LMG0106 2001 08 24 1:00 -66.717 -69.567 10 2 7 60 30 400 711 3 10 3 90 10 300 0 1 0 -1.77 -16.5
LMG0106 2001 08 24 2:00 -66.65 -69.5 10 1 8 60 50 400 701 3 20 2 90 20 300 0 1 0 -1.76 -17.2
LMG0106 2001 08 24 3:00 -66.583 -69.45 10 1 8 60 50 400 701 3 10 2 90 40 300 0 1 0 -1.76 -17.6
LMG0106 2001 08 24 4:00 -66.517 -69.4 10 0 7 60 50 400 701 3 15 3 90 20 300 0 1 0 -1.77 -17.9
LMG0106 2001 08 24 5:00 -66.45 -69.35 10 1 6 60 50 400 711 3 20 4 90 20 300 0 1 0 -1.76 -17.7
LMG0106 2001 08 24 6:00 -66.35 -69.283 10 1 6 60 50 400 711 3 20 4 90 40 300 0 1 0 -1.77 -17.2
LMG0106 2001 08 24 7:00 -66.233 -69.167 10 1 5 60 50 400 711 3 20 5 90 30 300 0 1 0 -1.77 -17.1
LMG0106 2001 08 24 8:00 -66.15 -69.117 10 1 4 60 50 400 701 3 15 5 50 20 400 100 2 5 1 90 20 300 0 1 0 -1.75 -16.9
LMG0106 2001 08 24 9:00 -66.017 -69.017 10 1 9 30 20 400 300 2 5 1 30 20 300 0 1 0 -1.77 -16.7
LMG0106 2001 08 24 10:00 -65.917 -68.85 9 2 2 30 20 400 300 3 5 7 30 15 400 300 1 0 -1.77 -16.1
LMG0106 2001 08 24 11:00 -65.8 -68.65 9 1 2 30 20 400 300 3 5 7 30 10 400 300 1 0 -1.77 -15.8
LMG0106 2001 08 24 12:00 -65.683 -68.583 10 0 5 90 30 300 0 1 0 5 30 20 400 300 3 15 -1.77 -15.6
LMG0106 2001 08 24 13:00 -65.567 -68.5 10 0 5 90 30 300 0 1 0 5 30 20 400 300 3 15 -1.77 -15.1
LMG0106 2001 08 24 14:00 -65.5 -68.217 10 0 6 30 15 400 300 2 10 4 30 10 400 200 1 0 -1.77 -14.7
LMG0106 2001 08 24 15:00 -65.467 -67.85 9 3 5 30 15 400 300 2 10 4 30 10 400 200 1 0 -1.43 -14.8
LMG0106 2001 08 24 16:00 -65.433 -67.483 5 6 3 60 40 400 100 3 5 2 30 10 100 200 1 0 -1.73 -14.8
LMG0106 2001 08 24 17:00 -65.417 -67.2 10 2 5 60 50 400 100 3 3 5 30 10 100 300 1 0 -1.67 -14.8
LMG0106 2001 08 24 18:00 -65.4 -67.017 10 1 6 60 35 400 721 3 5 4 90 20 300 0 1 0 -1.74 -16.4
LMG0106 2001 08 24 20:00 -65.383 -66.883 10 1 4 70 100 400 721 3 20 5 90 50 300 0 1 0 1 10 10 0 0 1 0 -1.79 -16.1
LMG0106 2001 08 24 21:00 -65.333 -66.7 10 1 5 70 100 400 721 3 30 4 90 50 300 0 1 0 1 10 10 0 0 1 0 -1.78 -15.9
LMG0106 2001 08 24 22:00 -65.267 -66.583 10 1 4 70 100 400 711 3 20 6 90 50 300 0 1 0 -1.78 -14.9
LMG0106 2001 08 24 23:00 -65.183 -66.417 10 1 3 70 80 400 701 3 20 7 90 50 300 0 1 0 -1.78 -14.7
LMG0106 2001 08 25 0:00 -65.1 -66.267 10 0 4 70 80 400 701 3 20 6 90 40 300 0 1 0 -1.78 -14.6
LMG0106 2001 08 25 1:00 -65.05 -66.017 10 0 2 70 70 400 701 3 20 6 90 40 300 0 1 0 2 30 20 100 200 3 5 -1.79 -14.7
LMG0106 2001 08 25 2:00 -65.067 -65.783 10 0 4 70 70 400 701 3 30 6 90 35 300 0 1 0 -1.79 -15.1
LMG0106 2001 08 25 3:00 -65.017 -65.5 10 0 4 70 70 400 702 3 25 6 90 35 300 0 1 0 -1.78 -15.2
LMG0106 2001 08 25 4:00 -64.983 -65.217 10 2 4 50 20 500 711 2 5 6 30 5 100 200 1 0 -1.78 -14.7
LMG0106 2001 08 25 5:00 -64.933 -64.95 10 1 4 40 10 500 711 2 5 6 30 5 100 200 1 0 -1.78 -14.2
LMG0106 2001 08 25 6:00 -64.9 -64.7 10 1 2 60 50 400 701 3 15 6 30 20 100 300 1 0 2 40 10 200 100 1 0 -1.79 -14.2
LMG0106 2001 08 25 7:00 -64.883 -64.567 10 1 6 60 50 400 100 1 0 2 30 20 100 300 1 0 2 40 10 200 100 1 0 -1.78 -13.8
LMG0106 2001 08 25 8:00 -64.883 -64.55 10 1 5 60 50 400 701 3 15 4 30 20 100 300 1 0 1 40 10 200 100 1 0 -1.76 -13.8
LMG0106 2001 08 25 10:00 -64.967 -64.567 10 1 4 70 70 400 711 3 20 5 90 40 300 0 1 0 1 10 10 0 0 1 0 -1.78 -14.1
LMG0106 2001 08 25 11:00 -65.05 -64.55 9 2 3 70 70 400 711 3 20 5 90 40 300 0 1 0 1 40 10 200 100 1 0 -1.78 -14.2
LMG0106 2001 08 25 12:00 -65.1 -64.5 9 2 3 60 60 400 611 3 10 5 90 30 300 0 1 0 1 20 5 200 100 1 0 -1.76 -13.4
LMG0106 2001 08 25 13:00 -65.2 -64.15 7 3 4 60 40 400 701 3 15 1 90 20 300 0 1 0 2 20 5 200 100 1 0 -1.78 -12.2
LMG0106 2001 08 25 14:00 -65.267 -64.25 9 1 4 60 50 400 701 3 10 3 90 20 300 0 1 0 2 20 5 200 100 1 0 -1.78 -12.4
LMG0106 2001 08 25 15:00 -65.25 -64.217 9 1 2 60 50 400 701 3 10 1 90 20 300 0 1 0 6 20 5 200 100 1 0 -1.78 -13.4
LMG0106 2001 08 25 16:00 -65.217 -64.167 9 1 2 60 40 400 701 3 10 2 90 15 300 0 1 0 5 20 5 200 100 1 0 -1.79 -11.5
LMG0106 2001 08 25 17:00 -65.2 -64.15 8 2 2 60 40 500 701 3 15 1 90 15 300 0 1 0 5 20 5 200 400 1 0 -1.69 -12.5
LMG0106 2001 08 25 18:00 -65.2 -64.133 9 6 2 60 50 500 761 3 10 7 12 3 0 0 1 0 -1.67 -11.5
LMG0106 2001 08 25 19:00 -65.2 -64.183 7 6 2 60 50 500 761 3 10 5 12 3 0 0 1 0 -1.67 -9.8
LMG0106 2001 08 25 21:00 -65.267 -64.25 10 1 6 60 50 400 701 3 20 2 90 40 300 0 1 0 2 40 10 200 100 2 2 -1.79 -10.7
LMG0106 2001 08 25 22:00 -65.183 -64.217 1 6 1 12 5 0 0 1 0 -1.72 -5.7
LMG0106 2001 08 25 23:00 -65.133 -64.483 10 1 6 60 50 400 781 3 5 4 30 10 100 300 1 0 -1.76 -7.2
LMG0106 2001 08 26 0:00 -65.017 -64.467 10 1 3 60 50 400 731 3 10 7 30 15 100 300 3 5 -1.77 -7.3
LMG0106 2001 08 26 1:00 -64.95 -64.367 5 3 5 30 15 100 300 3 5 -7.9
LMG0106 2001 08 26 2:00 -64.9 -64.267 3 5 1 50 30 400 701 3 10 2 90 20 300 0 1 0 -1.62 -7.2
LMG0106 2001 08 26 3:00 -64.817 -64.017 3 6 1 50 30 400 701 3 5 1 90 20 300 0 1 0 1 30 5 100 200 1 0 -1.59 -4.7
LMG0106 2001 08 26 4:00 -64.833 63.917 1 6 1 90 30 300 0 1 0 -1.61 -4.9
LMG0106 2001 08 26 6:00 -64.867 63.8 1 6 1 90 30 300 0 1 0 -1.58 -6.1
LMG0106 2001 08 26 7:00 -64.833 63.917 1 6 1 90 30 300 0 1 0 -1.6 -5.9
LMG0106 2001 08 26 8:00 -64.817 -64.033 1 6 1 90 30 300 0 1 0 -1.57 -4.2
LMG0106 2001 08 26 12:00 -64.85 63.867 1 6 1 30 3 100 300 1 0 -1.54 -5.0
LMG0205 2002 08 01 7:00 -59.783 -63.417 5 5 0.0 3 30 10 100 100 2 1 2 12 1 0 0 1 0 -1.65 0.8 11 355 93 8 43 First Ice reached aprox. 10 min. before obs, bands of pancakes
LMG0205 2002 08 01 8:00 -59.867 -63.4 4 5 9.3 1 30 20 400 100 2 1 2 30 10 100 100 2 1 1 12 1 0 0 1 0 -1.61 1.5 12 350 93 8 43 Running throught bands of pancakes & cake ice, aprox. 500m wide
LMG0205 2002 08 01 9:00 -59.983 -63.367 6 4 22.4 1 50 30 400 100 3 2 4 30 10 100 100 3 1 1 12 1 0 0 1 0 -1.6 1.8 12 340 93 8 60 Press. 991.5, Passing through bands of pancake ice w/ few pieces of cake ice mixed in
LMG0205 2002 08 01 10:00 -60.067 -63.333 1 8 31.8 1 40 15 400 100 1 0 -1.6 1.9 13 340 93 8 2 press. 990.7, In mostly open water -- Last band of pancakes seen aprox. 1r. before obs.
LMG0205 2002 08 01 11:00 -60.2 -63.3 8 2 46.7 1 50 20 400 100 3 5 5 30 10 100 300 1 0 2 12 1 0 0 1 0 -1.6 1.6 13 310 93 8 2 press. 990.2, Field of pancakes, with grease ice between, swell going through ice.
LMG0205 2002 08 01 12:00 -60.3 -63.25 9 1 58.2 1 50 20 400 100 2 10 6 30 10 100 100 1 0 2 12 5 0 0 1 0 -1.6 0.9 8 280 97 8 2 press. 990.9, twilight, pancake field w/ some cake ice, not cemented, grease ice between pancakes, large swell in ice.
LMG0205 2002 08 01 13:00 -60.367 -63.217 10 1 65.8 3 50 30 400 100 2 10 5 30 10 100 100 2 1 2 12 5 0 0 1 0 -1.6 -0.4 6 215 3 95 8 3 press. 992.6, First Algal obs taken, some brown algai\\e on floes.
LMG0205 2002 08 01 14:00 -60.467 -63.183 9 2 77.1 5 50 30 400 100 2 5 3 30 20 100 100 2 1 1 12 5 0 0 1 0 -1.6 0.4 5 229 93 8 47
LMG0205 2002 08 01 15:00 -60.583 -63.15 9 1 90.1 3 50 30 500 521 2 5 5 30 20 100 300 2 5 1 12 5 0 0 1 0 -1.6 -1.0 6 255 93 8 45
LMG0205 2002 08 01 16:00 -60.667 -63.1 9 1 99.8 3 60 40 400 100 2 5 5 30 20 100 300 2 5 1 12 5 0 0 1 0 -1.6 -1.9 6 264 1 93 8 45
LMG0205 2002 08 01 17:00 -60.75 -63.083 0 9 109.1 -1.6 -1.9 4 291 93 8 45 Ship stopped in open water
LMG0205 2002 08 01 18:00 -60.767 -63.083 4 5 110.9 1 30 5 100 100 1 0 3 12 1 0 0 1 0 -1.6 -2.6 5 318 91 -1 47 In and Out of heavy bands of pancake ice.
LMG0205 2002 08 01 19:00 -60.85 -63.05 6 3 120.4 3 60 40 400 100 2 5 2 30 10 100 100 1 0 1 12 5 0 0 1 0 -1.6 -2.4 -12 4 92 7 42 Algal obs taken, still in swell
LMG0205 2002 08 01 20:00 -60.95 -63.017 8 3 131.6 2 60 50 400 100 2 5 5 30 20 100 100 2 5 1 12 5 0 0 1 0 -1.6 -2.3 3 354 94 7 42 Swells going through ice.
LMG0205 2002 08 01 21:00 -61.05 -62.983 9 2 142.9 2 60 40 400 100 2 8 4 30 20 100 100 2 8 3 12 5 0 0 1 0 -1.7 -1.9 3 353 97 7 28 Dark -- Fog has lifted
LMG0205 2002 08 01 22:00 -61.15 -62.933 10 0 154.3 3 60 40 400 621 3 10 5 30 20 100 300 3 5 2 12 5 0 0 1 0 -1.6 -2.4 6 359 91 8 72 Dark
LMG0205 2002 08 01 23:00 -61.267 -62.9 10 0 167.4 4 60 40 400 621 3 10 4 30 15 100 300 4 5 2 12 5 0 0 1 0 -1.6 -1.1 17 3 91 8 73 Some rafting of floes noticed, still snowing
LMG0205 2002 08 02 0:00 -61.367 -62.867 2 8 178.6 2 12 5 0 0 1 0 -1.6 -1.0 10 17 91 8 86 snowing hard at times
LMG0205 2002 08 02 1:00 -61.467 -62.817 9 1 190.0 4 60 40 400 621 2 5 4 30 20 100 300 2 5 1 12 5 0 0 1 0 -1.6 -0.3 10 354 94 8 85
LMG0205 2002 08 02 2:00 -61.567 -62.767 1 8 201.4 1 30 20 100 100 2 8 -1.64 0.0 8 349 95 8 56 misty/fog, but visibility>1000m
LMG0205 2002 08 02 3:00 -61.717 -62.717 0 9 218.3 -1.6 -0.7 7 343 93 8 56 intermittent bands of ice
LMG0205 2002 08 02 4:00 -61.833 -62.683 2 8 231.4 1 30 10 100 100 1 0 1 12 5 0 0 1 0 -1.63 0.0 7 348 91 8 47
LMG0205 2002 08 02 5:00 -61.983 -62.633 10 1 248.2 7 40 10 400 631 1 0 1 30 10 100 100 1 0 2 12 5 0 0 1 0 -1.66 0.0 7 344 92 8 43 thin bands of open water between large floe patches
LMG0205 2002 08 02 6:00 -62.133 -62.567 10 2 265.3 6 50 15 400 621 1 1 2 30 8 100 300 1 0 2 12 5 0 0 1 0 -1.64 -1.5 6 348 90 8 47 pockets of open water between major ice floes
LMG0205 2002 08 02 7:00 -62.25 -62.517 10 1 278.5 7 50 25 400 611 2 5 1 30 8 100 200 2 3 2 12 5 0 0 1 0 -1.63 -0.1 6 355 92 8 42 new snow was apparent, very large cake ice
LMG0205 2002 08 02 8:00 -62.367 -62.483 9 2 291.5 1 60 50 500 611 3 20 5 50 30 500 100 3 10 3 12 5 0 0 1 0 -1.62 -0.7 5 340 93 8 2 color in 1 deg. cat., less if any in 2 deg., no algal obs - bad lighting.
LMG0205 2002 08 02 9:00 -62.45 -62.45 10 1 300.9 1 60 60 500 622 3 30 7 60 30 500 100 3 10 2 50 20 400 100 2 10 -1.62 -0.3 5 345 93 8 71 45cm ball deployed, still some swell in ice, algal obs taken from 02 deck.
LMG0205 2002 08 02 10:00 -62.517 -62.4 10 1 308.8 3 60 60 500 611 2 20 6 60 40 400 100 2 10 1 90 10 300 0 1 0 -1.6 0.0 4 325 93 8 72 pressure 978.2
LMG0205 2002 08 02 11:00 -62.6 -62.3 8 1 319.4 1 60 50 400 632 2 15 4 60 40 400 100 2 10 3 12 5 0 0 1 0 -1.62 0.0 3 345 92 8 71 perssure 978.0
LMG0205 2002 08 02 12:00 -62.683 -62.2 6 2 329.9 4 60 40 400 100 2 0 2 30 6 100 100 1 0 -1.6 0.0 4 340 1 91 8 71 fog, loose cakes - very small new pancakes. no algal obs, 8 adelie penguins.
LMG0205 2002 08 02 13:00 -62.783 -62.117 10 1 341.8 3 60 50 500 100 2 20 6 60 40 400 100 2 10 1 20 10 200 100 1 0 -1.6 -0.2 4 305 1 93 -1 42 patches of consolidated grease to nilas/ berg bits
LMG0205 2002 08 02 14:00 -62.883 -62.0 10 1 354.4 4 60 50 500 100 2 20 5 60 40 400 100 2 15 1 20 10 200 100 1 0 -1.6 -1.0 3 314 2 93 8 45
LMG0205 2002 08 02 15:00 -62.983 -61.9 5 5 366.6 1 70 70 500 642 2 20 3 60 40 400 100 2 10 1 90 10 300 0 1 0 -1.49 -0.2 2 325 2 94 8 43 stopped for penguin ops, open water @ 63 00.181 S, 61 53.911 W
LMG0205 2002 08 02 16:00 -63.1 -61.783 9 2 380.8 5 60 60 500 601 3 20 4 90 20 300 0 1 0 -1.35 0.4 3 347 1 93 8 47 Ran into Open water at 10 past the hour, just after finishing the obs
LMG0205 2002 08 02 17:00 -63.233 -61.667 0 9 396.7 -1.1 0.3 3 341 95 8 56
LMG0205 2002 08 02 18:00 -63.4 -61.567 0 8 415.9 -1.34 -0.8 5 343 1 93 8 70
LMG0205 2002 08 02 19:00 -63.567 -61.433 1 8 435.6 1 90 20 300 0 1 0 -1.52 -0.5 5 337 1 93 8 70
LMG0205 2002 08 02 20:00 -63.717 -61.35 10 0 452.7 4 50 15 400 601 2 10 6 90 15 300 0 1 0 -1.6 -1.6 3 13 91 8 47 small bergs (berggy bits) in area
LMG0205 2002 08 02 21:00 -63.817 -61.433 10 2 464.6 6 50 15 600 621 2 10 2 90 10 300 0 1 0 2 11 10 0 0 1 0 -1.62 -1.6 4 41 91 8 45
LMG0205 2002 08 02 22:00 -63.9 -61.6 10 1 476.9 6 50 15 600 601 2 10 2 90 10 300 0 1 0 2 11 10 0 0 1 0 -1.14 -2.2 2 211 91 8 71 New snow building up on ice.
LMG0205 2002 08 02 23:00 -64.017 -61.767 0 9 492.2 -1.55 -2.0 1 337 91 0 46
LMG0205 2002 08 03 0:00 -64.167 -61.85 7 3 509.3 1 60 40 500 611 2 20 4 50 20 600 100 2 10 2 11 10 0 0 1 0 -1.63 -3.0 3 22 93 8 0
LMG0205 2002 08 03 1:00 -64.267 -61.917 8 3 520.9 5 50 30 500 601 2 20 1 50 30 400 601 2 20 2 40 15 600 100 2 5 -1.53 -4.1 93 5 1 big floes!!
LMG0205 2002 08 03 2:00 -64.383 -61.983 8 2 534.2 1 60 40 400 100 3 20 5 90 10 300 0 1 0 2 20 5 200 100 1 0 -1.31 -1.0 1 25 93 8 3 Some small bergs
LMG0205 2002 08 03 3:00 -64.45 -62.2 0 9 547.0 -1.02 -1.7 1 15 91 8 47 pressure 982.0
LMG0205 2002 08 03 4:00 -64.533 -62.517 0 8 564.8 -0.87 -1.9 3 180 92 8 71 pressure 982.5
LMG0205 2002 08 03 5:00 -64.617 -62.817 0 8 581.8 -1.08 -0.7 5 217 93 8 85 pressure 983.3
LMG0205 2002 08 03 6:00 -64.717 -63.033 0 8 597.0 -1.01 -1.8 5 248 96 0 77 pressure 983.4, scattered bergs, clear skys
LMG0205 2002 08 03 7:00 -64.85 -63.233 0 8 614.5 -1.17 -3.0 5 29 96 0 2 pressure 983.9, scattered bergs, clear skies
LMG0205 2002 08 03 8:00 -64.967 -63.4 0 8 629.7 -1.21 -5.2 4 33 95 0 72 pressure 984.0, many small bergs
LMG0205 2002 08 03 9:00 -64.933 -63.583 0 8 639.1 -1.46 -3.2 9 283 94 0 72 scatterd floes and bergs
LMG0205 2002 08 03 10:00 -64.867 -63.8 0 8 651.7 -1.52 -2.4 6 290 93 0 72 occasional bergs
LMG0205 2002 08 03 11:00 -64.833 -64.017 0 9 662.5 -1.55 -2.4 4 257 94 0 72 No Polar Bears
LMG0205 2002 08 03 12:00 -64.767 -64.05 5 5 670.1 4 60 40 600 611 2 4 1 90 5 300 0 1 0 -0.3 -3.5 6 103 96 3 46 Arrived at Palmer Station a few minutes after this obs.
LMG0205 2002 08 04 15:00 -64.85 -64.167 0 9 680.9 -1.4 -3.1 4 200 97 8 2 pressure 1010 -- Left Palmer station aprox. 45 minutes before obs.
LMG0205 2002 08 04 16:00 -64.933 -64.45 0 9 697.1 -1.49 -3.3 6 200 97 7 1
LMG0205 2002 08 04 17:00 -65.017 -64.783 0 9 715.3 -1.55 -3.9 7 224 97 7 2 pressure 1011.8
LMG0205 2002 08 04 18:00 -65.1 -65.133 0 9 734.2 -1.53 -5.1 5 210 93 8 47 stopped for CTD -- Ice edge visable
LMG0205 2002 08 04 19:00 -65.1 -65.133 3 4 734.2 1 60 40 400 601 3 20 1 40 10 200 100 1 0 1 12 5 0 0 1 0 -1.54 -6.4 6 230 93 8 47 Just into ice edge with 500m bands of ice -- Just started moving after CTD stop.
LMG0205 2002 08 04 20:00 -65.167 -65.317 10 1 745.5 6 60 50 400 601 3 10 2 30 10 100 200 2 5 2 90 5 300 0 1 0 -1.62 -7.3 6 230 93 8 42
LMG0205 2002 08 04 21:00 -65.2 -65.433 10 1 752.1 3 60 50 400 611 3 15 7 90 20 300 0 1 0 -1.62 -7.1 4 230 96 1 1 Pressure 1014.9
LMG0205 2002 08 04 22:00 -65.283 -65.65 7 2 765.8 5 60 50 400 621 3 20 2 90 10 300 0 1 0 -1.63 -7.7 3 240 95 0 1 Pressure 1015.6
LMG0205 2002 08 04 23:00 -65.333 -65.833 9 1 775.9 3 60 50 400 631 2 15 6 90 20 300 0 1 0 -0.76 -8.5 4 250 96 0 2 Brash ice re-freezing into small floes.
LMG0205 2002 08 05 0:00 -65.4 -66.017 10 1 787.2 7 60 50 400 601 2 15 3 90 30 300 0 1 0 -1.32 -8.4 2 200 93 -1 47 Brash between floes, partially consolidated
LMG0205 2002 08 05 1:00 -65.45 -66.183 10 1 796.7 6 60 50 500 611 2 20 3 60 40 400 601 2 20 1 90 30 300 0 1 0 -1.57 -9.9 2 102 93 -1 46 Giant Icebergs in area
LMG0205 2002 08 05 2:00 -65.5 -66.333 10 1 805.6 5 60 50 500 601 2 20 4 60 40 400 601 2 20 1 90 30 300 0 1 0 -1.57 -10.4 2 11 93 -1 44
LMG0205 2002 08 05 3:00 -65.567 -66.517 10 1 816.8 5 60 40 400 622 3 10 4 60 30 400 100 3 10 1 90 30 300 0 1 0 -1.58 -10.9 3 49 94 0 1
LMG0205 2002 08 05 4:00 -65.65 -66.55 10 1 826.2 9 60 50 500 611 3 20 1 20 5 200 400 1 0 -1.58 -10.5 3 35 94 0 2 Seal in sight
LMG0205 2002 08 05 5:00 -65.767 -66.533 10 1 839.1 7 60 40 500 611 3 15 1 30 15 100 300 3 5 2 90 10 300 0 1 0 -1.57 -8.9 3 71 94 0 2 2 small bergs in sight
LMG0205 2002 08 05 6:00 -65.867 -66.517 10 2 850.3 1 60 40 700 641 4 5 5 60 40 600 652 3 5 4 90 10 300 0 1 0 -1.56 -7.8 3 16 94 0 2
LMG0205 2002 08 05 7:00 -65.95 -66.5 10 1 859.5 4 60 45 500 621 4 10 1 60 30 600 631 4 10 5 90 15 300 0 1 0 -1.56 -8.6 3 3 94 0 2
LMG0205 2002 08 05 8:00 -66.033 -66.433 10 2 869.3 6 60 30 700 611 4 5 1 60 30 500 621 4 5 3 90 20 300 0 1 0 -1.57 -8.6 3 353 94 0 2 1 small berg
LMG0205 2002 08 05 9:00 -66.083 -66.283 10 2 878.0 7 60 30 600 633 4 15 2 60 30 500 622 4 20 1 90 15 300 0 1 0 -1.58 -7.4 2 5 94 0 41
LMG0205 2002 08 05 10:00 -66.133 -66.333 10 1 884.0 5 60 30 600 623 4 20 3 60 30 500 633 4 20 2 90 15 300 0 1 0 -1.49 -9.2 3 30 94 0 43 Ship was stuck for a short time
LMG0205 2002 08 05 11:00 -66.2 -66.467 9 3 893.5 2 60 30 600 100 3 10 6 40 15 500 100 1 0 1 90 15 300 0 1 0 -1.49 -8.6 4 16 94 8 3
LMG0205 2002 08 05 14:00 -66.283 -66.583 8 3 904.2 2 60 40 400 621 4 20 2 90 15 300 0 1 0 4 20 5 200 100 1 0 -1.54 -7.0 4 44 95 8 56 Have been stopped for Penguin and Seal observations
LMG0205 2002 08 05 15:00 -66.283 -66.6 7 4 904.9 2 60 50 600 612 3 20 3 50 20 400 100 2 5 2 40 10 200 100 1 0 -1.48 -7.8 5 45 95 8 56
LMG0205 2002 08 06 4:00 -66.367 -66.733 7 3 915.9 1 70 100 500 722 3 50 2 60 60 700 601 3 30 4 40 10 200 100 1 0 -1.6 -4.6 4 19 94 8 2 Leaving Ice Station
LMG0205 2002 08 06 5:00 -66.433 -66.917 9 3 926.9 1 70 80 500 733 3 50 3 60 40 600 712 3 20 5 40 10 200 100 1 0 -1.62 -4.7 4 18 94 8 2
LMG0205 2002 08 06 9:00 -66.483 -67.033 9 2 934.5 4 70 70 600 722 4 20 4 90 50 300 0 1 0 1 20 10 200 100 1 0 -1.61 -4.7 4 36 97 0 1 Started moving at 0930, after stop for Penguin Sampling, Vast Floes. 600-80 cm, cold old snow on top, slow going
LMG0205 2002 08 06 10:00 -66.533 -67.117 10 2 941.2 4 60 70 600 701 4 20 4 60 50 500 682 2 15 2 20 10 200 400 1 0 -1.6 -5.1 4 48 96 8 3 Brash & busted up floes reconsol. into totally rough floes, ship backng & rammng, ridges = 70-100cm blocks
LMG0205 2002 08 06 11:00 -66.55 -67.117 10 0 943.0 5 70 80 600 701 4 30 5 60 50 500 683 4 30 -1.56 -4.3 0 96 8 70 shp back and ram, Large ridges of blocks 50-100cm thk, w/ lots of snow
LMG0205 2002 08 06 12:00 -66.533 -67.1 0 0 0 0 0 0 0 0 0 0 0 0 0 0 0 0 0 0 0 0 0 -1.57 -3.5 1 240 97 6 1 Stopped for Seal sampling operation
LMG0205 2002 08 06 17:00 -66.5 -67.0 10 1 950.8 7 70 90 800 742 4 10 1 50 20 500 611 4 10 2 20 5 200 100 1 0 -1.58 -7.3 1 271 2 96 7 1 Stopped for Penguins/Seals
LMG0205 2002 08 07 23:00 -66.433 -66.883 10 1 959.8 4 60 55 600 632 3 10 4 60 55 600 632 3 10 2 20 3 200 100 1 0 -1.64 -7.7 6 55 97 0 70
LMG0205 2002 08 08 0:00 -66.483 -67.017 10 1 967.9 4 60 45 700 854 4 20 2 90 20 300 0 1 0 4 20 2 200 100 1 0 -1.63 -6.8 8 66 97 0 70
LMG0205 2002 08 08 1:00 -66.533 -67.133 10 1 975.5 7 60 60 700 844 4 15 2 50 25 600 631 4 5 1 20 5 200 100 1 0 -1.62 -6.2 8 61 96 0 38
LMG0205 2002 08 08 2:00 -66.533 -67.233 10 1 979.9 8 80 175 700 823 4 10 2 40 10 600 611 4 5 -1.62 -7.8 9 69 96 0 38
LMG0205 2002 08 08 3:00 -66.517 -67.233 10 0 981.8 3 60 50 500 532 4 15 4 60 45 600 575 4 20 3 40 15 500 521 1 0 -1.61 -5.9 10 38 97 0 38 Stopped, waiting for the Palmer
LMG0205 2002 08 08 5:00 -66.517 -67.483 10 1 992.8 8 70 80 600 662 2 10 2 60 60 400 100 3 20 -1.62 -5.6 11 55 93 8 38 Following Palmer
LMG0205 2002 08 08 6:00 -66.517 -67.55 10 0 995.8 5 60 50 600 672 3 20 5 60 50 600 100 3 20 -1.61 -5.6 11 62 93 8 72 Following the Palmer
LMG0205 2002 08 08 7:00 -66.517 -67.6 10 1 998.0 4 60 60 500 612 2 20 5 60 60 400 100 2 20 1 90 50 300 0 1 0 -1.62 -4.6 13 65 92 8 73 Following Palmer, small floes surrounded by rubble field made up of cake ice and brash, under heavy pressure
LMG0205 2002 08 08 8:00 -66.5 -67.633 10 0 1000.4 5 60 60 500 612 2 20 4 60 60 400 100 2 20 1 90 50 300 0 1 0 -1.56 -5.3 10 65 92 8 72 Following Palmer, Small floes surrounded by rubble field made up of cake ice and brash under heavy pressure
LMG0205 2002 08 08 9:00 -66.5 -67.667 10 0 1001.8 5 60 60 500 621 2 25 3 60 60 400 621 2 25 2 60 60 500 783 2 30 -1.63 -3.8 12 63 93 8 2 Having trouble getting through rubble field, Palmer backing and ramming
LMG0205 2002 08 08 10:00 -66.5 -67.667 0 0 0 0 0 0 0 0 0 0 0 0 0 0 0 0 0 0 0 0 0 ship is stuck in the ice
LMG0205 2002 08 08 22:00 -66.5 -67.967 10 1 1015.1 8 60 60 500 632 3 20 1 50 30 500 601 3 10 1 90 30 300 0 1 0 -1.6 -2.8 7 65 93 8 70 Moving only 3 knots through the ice
LMG0205 2002 08 08 23:00 -66.517 -68.15 10 1 1023.4 8 60 50 400 100 3 15 1 60 50 400 611 3 15 1 90 30 300 0 1 0 -1.66 -3.5 7 65 93 8 2
LMG0205 2002 08 09 0:00 -66.567 -68.35 10 1 1033.9 7 60 50 400 100 3 15 2 60 50 400 632 3 20 1 90 30 300 0 1 0 -1.66 -3.1 8 50 94 8 2 Following icebreaker Palmer
LMG0205 2002 08 09 1:00 -66.583 -68.517 10 1 1041.5 7 60 50 400 100 2 10 2 60 50 400 622 3 20 1 90 30 300 0 1 0 -1.63 -3.3 8 50 96 8 2 following ice breaker Palmer, simi loose pack separated by thin nilas; occasional lead.
LMG0205 2002 08 09 2:00 -66.617 -68.717 10 1 1051.0 8 60 40 400 601 3 10 1 90 30 300 0 1 0 1 20 10 200 100 1 0 -1.62 -2.8 9 51 96 8 71 Following NBP, no problem proceding through ice
LMG0205 2002 08 09 3:00 -66.667 -68.9 10 1 1060.8 9 60 50 400 601 2 10 1 90 30 300 0 1 0 -1.64 -3.1 9 58 94 8 71 Following NBP, 5 knots
LMG0205 2002 08 09 4:00 -66.733 -69.017 10 1 1069.8 8 60 50 400 100 2 10 1 60 50 500 601 2 10 1 90 30 300 0 1 0 -1.62 -4.5 9 52 94 8 71 Following NBP
LMG0205 2002 08 09 5:00 -66.783 -69.167 10 1 1078.4 7 60 40 500 100 3 10 2 60 40 400 601 3 10 1 90 30 300 0 1 0 -1.58 -4.3 10 60 93 8 71 Following NBP
LMG0205 2002 08 09 6:00 -66.833 -69.317 10 1 1087.0 8 60 30 500 100 3 10 1 60 30 400 100 3 10 1 90 20 300 0 1 0 -1.61 -3.7 9 59 94 8 71 Following NBP
LMG0205 2002 08 09 7:00 -66.867 -69.5 10 0 1095.9 8 60 30 500 100 3 10 1 60 30 400 100 3 10 1 90 20 300 0 1 0 -1.61 -3.9 10 45 94 8 71 Following NBP
LMG0205 2002 08 09 8:00 -66.933 -69.783 10 1 1110.3 8 50 20 500 100 3 5 1 50 15 400 100 3 5 1 90 10 300 0 1 0 -1.63 -3.4 11 45 93 8 71 Following NBP
LMG0205 2002 08 09 9:00 -66.95 -69.833 10 0 1113.1 10 70 100 800 852 3 10 -1.64 -4.0 10 38 95 8 71 Following NBP
LMG0205 2002 08 09 10:00 -67.017 -69.983 10 0 1123.0 10 70 100 800 841 3 10 -1.63 -4.0 1 48 95 8 71 Following NBP
LMG0205 2002 08 09 11:00 -67.05 -70.2 10 0 1133.1 10 70 90 800 852 3 10 -1.63 -5.0 9 38 93 8 47 Following NBP
LMG0205 2002 08 09 12:00 -67.067 -70.3 10 0 1137.8 10 70 100 800 863 3 10 -1.63 -4.2 8 10 95 8 42 Following NBP -- Stopped for Penguins shortly after obs.
LMG0205 2002 08 09 16:00 -67.183 -70.533 10 0 1154.2 10 70 100 800 721 3 20 -1.56 -6.2 96 8 1 still at Penguin stop
LMG0205 2002 08 09 17:00 -67.183 -70.567 10 1 1155.6 7 60 60 500 702 3 30 3 60 60 400 603 3 20 -1.59 -6.0 6 40 96 8 3 Stopped for seal ops
LMG0205 2002 08 09 20:00 -67.217 -70.633 10 1 1160.3 10 70 70 800 702 4 10 -1.61 -6.7 6 85 96 8 2 Brown ice in Palmers trail
LMG0205 2002 08 09 22:00 -67.217 -70.633 10 0 1160.3 8 60 50 600 712 3 10 2 50 30 500 712 3 5 -1.63 -7.8 4 90 96 5 1 Have been stopped for Penguins for most of last hour.
LMG0205 2002 08 09 23:00 -67.283 -70.783 10 1 1170.1 8 60 40 500 701 3 5 2 60 30 400 701 3 5 -1.61 -7.8 4 78 96 0 1 Following NBP
LMG0205 2002 08 10 0:00 -67.333 -70.967 10 0 1179.7 8 60 40 500 712 3 10 2 50 20 400 702 3 5 -1.62 -8.7 4 97 96 0 1 Following NBP
LMG0205 2002 08 10 1:00 -67.383 -71.117 10 0 1188.2 9 70 80 600 711 4 10 1 50 30 500 100 4 5 -1.62 -8.7 3 99 96 0 2 Following NBP
LMG0205 2002 08 10 2:00 -67.433 -71.283 10 0 1197.3 8 70 80 600 711 4 10 1 50 25 500 100 4 5 1 40 10 200 100 4 5 -1.64 -10.9 3 86 96 0 2 Following NBP
LMG0205 2002 08 10 3:00 -67.5 -71.45 10 0 1207.5 10 70 90 700 731 4 10 -1.64 -10.1 2 89 96 0 2 Following NBP
LMG0205 2002 08 10 4:00 -67.533 -71.683 10 0 1218.1 10 70 80 700 721 4 10 -1.64 -10.8 2 80 93 0 46 Following NBP
LMG0205 2002 08 10 5:00 -67.583 -71.867 10 0 1227.6 7 70 80 500 100 4 15 1 70 80 500 552 3 10 2 60 50 500 611 3 35 -1.65 -11.1 1 120 93 4 46 Algal color observed on the bottom of some blocks.
LMG0205 2002 08 10 6:00 -67.617 -72.0 10 1 1234.4 5 60 60 500 671 4 15 5 60 60 500 100 3 20 -1.6 -10.5 2 140 93 4 70
LMG0205 2002 08 10 7:00 -67.667 -72.217 10 1 1245.1 3 60 60 600 652 4 20 7 60 60 600 612 4 15 -1.62 -10.3 2 60 94 2 1
LMG0205 2002 08 10 8:00 -67.733 -72.367 10 0 1254.8 10 60 60 700 642 4 20 -1.61 -8.6 1 60 93 4 46
LMG0205 2002 08 10 9:00 -67.783 -72.55 10 0 1264.3 2 70 100 500 724 4 50 7 60 60 500 642 4 20 1 50 30 200 100 3 10 -1.67 -9.9 1 58 93 8 76 Solid ice pack with ice types frozen back together.  No Leads
LMG0205 2002 08 10 10:00 -67.833 -72.717 10 0 1273.3 3 70 90 500 724 4 50 6 60 70 600 642 4 20 1 60 40 200 100 3 10 -1.62 -9.0 3 0 96 8 76 Vast pack - No Cracks - Much snow on floes and ridged blocks still jagged
LMG0205 2002 08 10 13:00 -68.033 -73.133 10 1 1301.5 2 70 100 500 732 4 20 6 60 60 600 822 3 20 2 60 50 500 583 3 10 -1.63 -5.1 4 350 93 8 46
LMG0205 2002 08 10 14:00 -68.067 -73.167 10 1 1305.5 3 70 100 500 712 4 20 4 60 50 600 813 3 20 3 60 50 500 583 3 20 -1.62 -4.9 3 330 94 8 1 Some Alge
LMG0205 2002 08 10 15:00 -68.083 -73.267 10 0 1310.0 1 80 120 500 723 4 30 5 60 50 600 862 3 20 4 60 40 400 583 3 20 -1.63 -3.1 4 288 93 8 70
LMG0205 2002 08 10 16:00 -68.133 -73.333 10 1 1316.2 1 70 90 500 722 3 30 5 60 50 600 852 3 20 4 50 20 200 562 2 15 -1.63 -5.1 4 260 97 4 1 Following NBP
LMG0205 2002 08 10 18:00 -68.117 -73.417 10 0 1320.1 1 70 100 500 811 4 15 4 60 50 600 832 4 15 5 60 30 400 583 3 10 -1.64 -3.1 4 273 2 95 7 47 4 seals, Started after seal ops.
LMG0205 2002 08 10 19:00 -68.083 -73.6 10 0 1328.5 2 70 100 500 823 4 15 5 60 60 600 852 4 15 3 50 20 200 561 2 10 -1.64 -6.8 7 221 95 3 38 Ice Bergs in area
LMG0205 2002 08 10 20:00 -68.0 -73.767 10 0 1340.1 1 70 100 500 813 4 15 5 60 50 600 853 4 10 4 50 20 500 512 2 15 -1.65 -8.3 8 217 95 0 47 following NBP
LMG0205 2002 08 10 21:00 -67.933 -74.0 9 3 1352.3 3 70 100 500 813 4 30 6 60 60 500 751 3 20 -1.64 -10.6 8 215 94 8 70
LMG0205 2002 08 10 22:00 -67.95 -74.25 10 2 1362.9 1 70 70 500 822 4 50 6 60 60 400 621 3 20 3 60 50 500 622 3 20 -1.62 -8.6 6 246 93 8 2 overafting, ridges
LMG0205 2002 08 10 23:00 -67.967 -74.4 10 0 1369.4 10 60 70 700 642 3 25 -1.65 -10.5 10 230 93 0 1 large floes made of cake ice with ridges bewteen.
LMG0205 2002 08 11 0:00 -68.0 -74.633 10 1 1379.8 9 60 70 700 652 3 25 1 60 60 400 100 3 20 -1.63 -12.1 7 250 93 0 2 Large Floes of cake with ridges between
LMG0205 2002 08 11 1:00 -68.05 -74.8 10 0 1388.7 2 70 100 400 722 4 40 5 60 60 600 643 3 20 3 60 40 400 100 2 20 -1.59 -14.5 8 240 96 0 2 Solid Pack, no cracks. Can either group into massive floes or separate out 3 types. All frozen together, algae seen.
LMG0205 2002 08 11 2:00 -68.05 -75.05 10 0 1399.0 1 70 100 400 874 4 50 9 60 60 700 682 3 20 -1.66 -15.6 3 248 96 0 2 Less large Thick floes, Bergs seen
LMG0205 2002 08 11 3:00 -68.1 -75.2 10 0 1407.4 2 70 100 400 674 3 30 8 60 70 700 672 3 20 -1.67 -15.9 3 310 96 0 2
LMG0205 2002 08 11 4:00 -68.15 -75.467 7 4 1419.7 4 60 70 700 673 3 40 2 20 10 200 100 1 0 1 90 10 300 0 1 0 -1.64 -13.3 3 246 96 0 2 Large Open Water streatches.
LMG0205 2002 08 11 5:00 -68.183 -75.65 10 0 1428.2 1 70 100 600 683 3 50 9 60 50 700 653 3 40 -1.66 -13.7 6 230 96 0 2
LMG0205 2002 08 11 6:00 -68.233 -75.883 10 0 1439.3 10 70 70 700 653 4 30 -1.68 -13.1 4 260 96 0 2
LMG0205 2002 08 11 7:00 -68.283 -76.083 8 6 1449.2 5 60 40 600 721 4 10 2 90 20 300 0 1 0 1 12 5 0 0 1 0 -1.66 -13.1 4 236 96 0 2 following NBP
LMG0205 2002 08 11 8:00 -68.367 -76.267 10 0 1461.1 8 60 40 500 711 4 15 2 90 20 300 0 1 0 -1.68 -17.9 5 254 96 0 2 Following NBP
LMG0205 2002 08 11 9:00 -68.433 -76.4 10 0 1470.3 10 70 100 600 673 4 30 -1.68 5 202 96 0 2 Following NBP
LMG0205 2002 08 11 10:00 -68.5 -76.45 10 0 1478.0 10 70 80 700 842 4 40 -1.69 -18.7 5 232 96 0 2 Following NBP
LMG0205 2002 08 11 11:00 -68.617 -76.5 10 0 1491.1 8 70 100 700 852 4 50 2 60 50 500 831 3 30 -1.68 -19.0 5 228 96 0 2 Following NBP
LMG0205 2002 08 11 12:00 -68.683 -76.367 10 0 1500.3 7 70 80 600 852 4 40 3 60 60 500 842 3 30 -1.68 -17.3 4 243 97 2 3 4 seals following NBP
LMG0205 2002 08 11 13:00 -68.717 -76.133 10 0 1510.4 8 60 50 700 612 3 20 2 50 30 600 612 3 10 -1.6 -16.6 4 259 96 5 3 Some Blocks have brown color, but now many
LMG0205 2002 08 11 14:00 -68.767 -76.033 10 0 1517.3 8 60 60 700 672 3 40 2 50 30 500 601 3 10 -1.65 -16.2 5 251 96 6 3
LMG0205 2002 08 11 16:00 -68.683 -76.183 10 0 1528.3 10 70 80 700 662 4 35 -1.65 -15.0 7 230 4 97 2 1 After Obs stopped for long term ice station \"Sparky\"
LMG0205 2002 08 18 1:00 -68.017 -74.65 10 0 1624.7 1 60 60 600 601 3 10 9 60 35 500 601 3 5 -1.67 -5.4 5 264 93 8 73 After Leaving Ice station Sparky, Captain Robert says \"We are in Junk, ice sucks and boat is sluggish.\"
LMG0205 2002 08 18 2:00 -67.967 -74.6 10 2 1630.7 10 20 5 200 100 1 0 -1.65 -5.4 4 260 97 8 46 Ring around the Moon, Nilas contains frost flowers
LMG0205 2002 08 18 3:00 -67.867 -74.45 9 3 1643.4 8 60 40 500 622 4 15 1 20 5 200 400 1 0 -1.65 -8.3 2 274 94 1 44 Following NBP
LMG0205 2002 08 18 4:00 -67.833 -74.217 7 4 1653.8 7 70 80 600 612 4 15 -1.65 -7.0 2 243 94 1 44 Following NBP
LMG0205 2002 08 18 5:00 -67.783 -73.967 7 3 1665.7 4 60 40 500 611 3 15 3 40 10 500 100 1 0 -1.64 -6.7 2 216 92 1 46 Following NBP
LMG0205 2002 08 18 6:00 -67.783 -73.75 7 3 1674.8 4 60 50 600 621 3 20 3 40 10 500 100 3 5 -1.67 -5.5 3 291 91 0 47
LMG0205 2002 08 18 7:00 -67.75 -73.483 8 2 1686.6 3 60 50 600 612 3 20 5 60 50 600 100 3 10 -1.63 -6.2 2 313 93 1 43 Algae in ice
LMG0205 2002 08 18 8:00 -67.75 -73.267 8 2 1695.7 4 60 60 700 601 3 20 3 60 50 600 100 3 10 1 40 10 200 100 1 0 -1.63 -5.9 2 250 91 1 47 Algae in ice
LMG0205 2002 08 18 9:00 -67.717 -73.1 10 1 1703.6 3 60 60 600 622 3 15 7 60 40 700 621 3 10 -1.61 -6.9 1 310 91 3 43
LMG0205 2002 08 18 10:00 -67.733 -73.017 8 3 1707.6 8 60 70 700 622 3 20 -1.62 -6.9 2 350 93 1 1 Ship stopped at time of Observation
LMG0205 2002 08 18 11:00 -67.7 -73.1 9 3 1712.7 8 60 50 600 633 2 10 1 20 5 200 100 1 0 -1.62 -8.4 2 352 95 4 3 Moon on horizon, NBP back and ram occasionally
LMG0205 2002 08 18 12:00 -67.667 -73.1 10 1 1716.4 1 80 200 400 823 3 100 8 60 50 500 622 3 10 1 20 10 200 400 1 0 -1.63 -6.3 2 12 96 7 3 Ice in thick bands. Lighter in between, We are in between bergs
LMG0205 2002 08 18 13:00 -67.633 -73.15 10 1 1720.6 6 80 150 700 612 3 15 3 30 20 100 300 1 0 1 90 15 300 0 1 0 -1.63 -5.7 2 26 96 7 2 pancake listed as 40 thick, Following NBP
LMG0205 2002 08 18 14:00 -67.6 -73.283 9 2 1727.4 8 60 60 700 634 3 25 1 90 15 300 0 1 0 -1.64 -6.6 2 43 96 7 2
LMG0205 2002 08 18 15:00 -67.533 -73.25 10 2 1734.9 2 70 100 600 833 3 15 7 60 30 600 833 3 20 1 20 10 200 400 1 0 -1.63 -3.9 2 45 93 8 47 In lead full of Nilas
LMG0205 2002 08 18 16:00 -67.5 -73.017 9 3 1745.5 7 60 50 600 853 3 20 2 20 10 200 400 1 0 -1.59 -3.6 3 350 93 8 45
LMG0205 2002 08 18 17:00 -67.533 -72.75 8 4 1757.4 6 60 40 500 853 3 5 1 90 10 300 0 1 0 1 20 5 200 100 1 0 -1.61 -2.5 5 285 97 8 45 5cm snow on brash. in lead with Nilas, Lots of bergs, Nilas contains frost flowers
LMG0205 2002 08 18 18:00 -67.5 -72.533 10 2 1767.3 1 60 30 500 601 3 20 1 90 10 300 0 1 0 8 20 5 200 100 1 0 -1.61 -3.6 5 294 97 8 2 Brash listed having 5cm snow, In Lead with Frost flowers on Nilas, Large Bergs in distance
LMG0205 2002 08 18 20:00 -67.6 -72.083 10 1 1789.4 3 50 25 600 602 3 10 7 20 5 200 400 1 0 -1.61 -3.8 3 278 94 8 44 Lots of bergs
LMG0205 2002 08 18 21:00 -67.583 -71.85 8 2 1799.4 5 60 50 700 801 3 15 3 20 5 200 400 1 0 -1.61 -3.6 4 283 94 0 44 Open water along boat, following NBP
LMG0205 2002 08 18 22:00 -67.567 -71.617 10 1 1809.5 8 60 60 700 833 3 20 2 40 10 200 501 1 0 -1.64 -3.8 3 300 93 0 38 following NBP
LMG0205 2002 08 18 23:00 -67.583 -71.483 10 1 1815.4 5 60 70 700 633 2 20 5 60 30 600 100 2 5 -1.63 -3.7 3 300 93 8 71 NBP back and ram ridges
LMG0205 2002 08 19 2:00 -67.767 -71.867 9 2 1841.5 6 60 60 600 611 2 10 1 40 10 200 100 2 2 2 20 10 200 400 1 0 -1.62 -5.2 5 350 93 8 71 Ships stopped soon after obs for  transfer.
LMG0205 2002 08 19 4:00 -67.733 -71.817 10 1 1845.7 6 40 10 200 100 1 0 4 20 5 200 100 1 0 -1.61 -3.8 7 328 94 8 71 Returning North East along same track. Lead-refrozen w/ thick rubble bands 60-70cm thick, 1-2m ridges back and ram
LMG0205 2002 08 19 8:00 -67.583 -71.667 9 2 1863.5 7 60 50 700 602 4 20 2 50 30 200 100 1 0 -1.62 -3.3 7 320 92 8 74
LMG0205 2002 08 19 10:00 -67.567 -71.633 9 1 1865.8 2 60 60 500 501 2 15 7 20 10 200 400 1 0 -1.62 -3.1 11 0 92 8 73
LMG0205 2002 08 19 14:00 -67.533 -71.55 9 2 1871.0 3 60 60 500 612 2 20 4 40 15 200 100 2 5 2 20 10 200 400 1 0 -1.63 -13.3 15 240 5 95 8 2 Found Ice Station Shortly after obs. ice station \"random\"
LMG0205 2002 08 19 22:00 -67.417 -71.25 10 1 1889.1 10 60 40 700 611 3 10 -1.64 -25.0 22 230 91 6 39 Left Ice station 21:30
LMG0205 2002 08 20 0:00 -67.383 -71.183 10 1 1893.8 10 60 70 600 621 3 15 -1.65 -24.4 17 240 92 0 39 Snow Blowng above Bridge Level, Moon visible; Ship Stopped for (bad)Wx, Ice obs based on ice near ship.\"
LMG0205 2002 08 20 3:00 -67.367 -71.317 9 1 1899.8 6 60 40 600 632 3 15 3 40 10 200 100 3 5 -1.48 -22.4 16 235 93 0 38
LMG0205 2002 08 20 4:00 -67.333 -71.467 10 1 1907.2 6 60 60 600 632 4 15 2 60 30 500 621 4 10 2 40 10 200 100 3 5 -1.65 -22.4 14 240 93 0 36
LMG0205 2002 08 20 5:00 -67.333 -71.7 10 1 1917.1 10 60 30 700 611 4 5 -1.64 -19.8 12 276 93 0 36
LMG0205 2002 08 20 6:00 -67.333 -71.933 9 2 1927.1 5 60 70 500 601 4 15 4 40 15 600 400 4 5 -1.66 -16.9 10 288 93 0 39
LMG0205 2002 08 20 7:00 -67.317 -72.033 9 1 1931.8 3 60 70 600 622 4 10 6 40 15 500 400 4 15 -1.64 -18.0 13 313 94 3 36 Stopped for night soon after obs
LMG0205 2002 08 20 17:00 -67.217 -72.617 9 1 1959.1 6 60 50 600 754 3 15 2 90 20 300 0 1 0 1 50 20 400 701 3 10 -1.68 -13.5 3 200 93 8 85 After Observations. Stopped at ice station Minke
LMG0205 2002 08 28 14:00 -66.167 -70.317 9 3 2112.0 8 60 50 600 853 3 30 1 50 20 500 100 1 0 -1.65 -10.4 3 45 96 2 2
LMG0205 2002 08 29 13:00 -66.1 -70.333 10 2 2119.4 7 70 70 700 753 4 30 3 50 20 700 100 2 3 -1.59 -9.4 3 61 93 0 1 Morning fog lifting, Traveling NNW Leads out of Ice station Rodin
LMG0205 2002 08 29 14:00 -66.067 -70.3 10 1 2123.4 9 60 60 700 822 4 20 1 20 5 200 400 1 0 -1.62 -9.1 7 58 94 2 1
LMG0205 2002 08 29 15:00 -66.017 -70.45 10 2 2132.1 10 70 90 800 842 4 15 -1.62 -7.9 7 32 94 1 1 Stopped soon after ice obs
LMG0205 2002 08 29 21:00 -66.1 -70.3 10 1 2143.6 5 60 40 500 521 4 20 2 40 15 400 100 3 5 3 20 5 200 100 1 0 -1.66 -4.7 8 45 95 8 2 A couple of bergs in area
LMG0205 2002 08 29 22:00 -66.083 -70.467 10 1 2151.3 4 60 40 500 521 4 20 5 20 5 200 400 1 0 1 12 5 0 0 1 0 -1.63 -6.6 8 58 94 8 2 Traveling in wide lead covered in nilas and grease ice
LMG0205 2002 08 30 14:00 -66.3 -70.517 9 2 2175.5 4 60 40 500 100 2 10 4 50 15 500 100 2 5 1 20 5 200 100 1 0 -1.58 -1.8 23 50 93 8 70
LMG0205 2002 08 30 15:00 -66.417 -70.6 6 4 2188.9 2 50 20 500 100 2 10 3 40 15 500 100 2 5 1 20 5 200 100 1 0 -1.61 -3.0 20 50 93 8 73
LMG0205 2002 08 30 16:00 -66.467 -70.767 9 2 2198.2 1 50 20 500 100 2 10 4 40 15 500 100 2 5 4 20 5 200 400 1 0 -1.66 -1.8 20 55 93 8 71
LMG0205 2002 08 31 20:00 -66.617 -70.617 8 3 2216.1 1 60 40 500 100 2 20 5 50 20 500 100 2 10 2 90 20 300 0 1 0 -1.57 -1.1 5 275 96 7 1 Following NBP
LMG0205 2002 08 31 21:00 -66.6 -70.383 6 4 2226.6 5 60 40 500 100 2 20 1 90 20 300 0 1 0 -1.61 -1.9 5 260 96 8 3 Following NBP
LMG0205 2002 08 31 22:00 -66.5 -70.183 7 4 2240.7 6 60 30 500 100 2 15 1 90 20 300 0 1 0 -1.6 -1.1 4 270 96 8 2 following NBP
LMG0205 2002 08 31 23:00 -66.45 -69.983 9 2 2251.2 8 60 40 400 612 4 20 1 90 20 300 0 1 0 -1.59 -3.5 95 1 1 following NBP
LMG0205 2002 09 01 0:00 -66.383 -69.833 9 2 2261.1 6 60 50 500 632 4 20 2 60 50 400 611 4 20 1 90 20 300 0 1 0 -1.61 -3.5 3 280 93 1 46 following NBP
LMG0205 2002 09 01 1:00 -66.317 -69.7 9 2 2270.6 8 60 50 500 642 4 20 1 90 20 300 0 1 0 -1.61 -3.3 1 350 93 8 47
LMG0205 2002 09 01 2:00 -66.283 -69.567 9 2 2277.6 7 60 50 400 662 4 30 2 90 15 300 0 1 0 -1.62 -3.4 2 280 96 8 0 Following NBP, Swell
LMG0205 2002 09 01 3:00 -66.233 -69.383 9 2 2287.5 8 60 50 400 622 4 20 1 90 15 300 0 1 0 -1.57 -1.5 2 200 94 8 45 Swell
LMG0205 2002 09 01 4:00 -66.2 -69.217 9 2 2295.8 8 50 30 500 100 4 10 1 90 15 300 0 1 0 -1.62 -3.1 2 244 94 8 2 Swell, Stopped at 04:30 at Grid Station 4
LMG0205 2002 09 01 5:00 -66.183 -69.133 10 1 2300.0 3 60 50 400 642 4 30 6 50 30 400 100 2 10 1 90 15 300 0 1 0 -1.62 -3.6 1 80 91 8 41 Swell, Stopped at station 4
LMG0205 2002 09 01 6:00 -66.083 -69.067 10 1 2311.5 6 60 60 400 642 4 30 3 60 40 400 100 2 15 1 90 15 300 0 1 0 -1.63 -2.0 1 160 92 8 41 Swell, Searching for ice floe for station
LMG0205 2002 09 01 7:00 -66.217 -68.967 10 1 2327.0 4 60 60 400 622 4 30 5 60 40 400 100 2 15 1 90 15 300 0 1 0 -1.62 -2.1 4 122 92 8 76 Turned headed back to NBP, Stopped soon after Obs till daylight
LMG0205 2002 09 01 13:00 -66.217 -68.95 10 1 2327.7 2 60 60 400 612 4 20 7 60 40 400 100 2 10 1 90 20 300 0 1 0 -1.63 -2.9 5 194 97 8 1 Swell, Looking for floe for ice station
LMG0205 2002 09 01 14:00 -66.267 -68.817 10 1 2335.9 2 60 60 400 622 4 20 5 60 30 400 611 3 10 3 50 30 400 100 3 10 -1.66 -2.2 5 180 97 8 2 Stopped for series of ice stations for the next few days
LMG0205 2002 09 10 11:00 -65.717 -68.483 9 1 2398.7 1 70 90 500 712 3 30 7 60 50 500 711 3 15 1 60 50 400 701 3 15 -1.61 -0.5 2 0 93 8 45 Begin transiting from ice station
LMG0205 2002 09 10 12:00 -65.8 -68.483 9 2 2408.0 2 70 90 500 712 3 30 6 60 50 500 711 3 20 1 60 50 400 701 3 20 -1.61 -0.5 3 0 93 8 45
LMG0205 2002 09 10 13:00 -65.883 -68.5 10 1 2417.3 9 60 60 500 100 3 30 1 40 15 200 100 1 0 -1.61 -0.3 4 0 93 8 45
LMG0205 2002 09 10 14:00 -65.95 -68.517 9 1 2424.7 2 60 70 500 611 3 20 6 60 40 500 611 3 10 1 20 10 200 100 1 0 -1.6 -0.3 6 0 94 8 2 Stopped at 14:10 to meet with Palmer for personell exchange and meetings
LMG0205 2002 09 10 18:00 -65.967 -68.417 9 2 2429.6 1 70 80 500 612 3 30 7 60 50 500 612 3 25 1 60 50 400 601 3 25 -1.6 0.0 8 340 93 8 45
LMG0205 2002 09 10 19:00 -65.9 -68.2 10 1 2441.9 1 70 80 500 612 3 30 8 60 50 500 612 3 25 1 20 10 200 100 1 0 -1.6 1.0 7 330 93 8 45
LMG0205 2002 09 10 20:00 -65.85 -68.017 10 1 2451.9 7 60 40 500 612 3 20 3 20 10 200 100 1 0 -1.64 1.6 5 325 93 8 45 Algae in ice. Top, Middle and Bottom of blocks
LMG0205 2002 09 10 21:00 -65.833 -67.95 9 2 2455.4 7 60 50 500 632 3 20 2 40 10 200 100 2 10 -1.6 0.8 6 302 93 8 50 Penguin Chase underway. approx 100 adelies
LMG0205 2002 09 10 22:00 -65.783 -67.8 9 2 2464.2 1 70 70 500 632 3 20 7 60 50 500 611 3 10 1 90 30 300 0 1 0 -1.59 1.0 5 295 93 8 45
LMG0205 2002 09 10 23:00 -65.733 -67.583 10 1 2475.5 8 60 40 500 611 3 20 2 20 10 200 100 1 0 -1.59 1.2 4 299 91 8 41 following NBP
LMG0205 2002 09 11 0:00 -65.667 -67.35 8 2 2488.5 6 60 50 500 621 3 20 2 90 20 300 0 1 0 -1.59 0.5 4 300 92 8 45 following NBP at 7 kts
LMG0205 2002 09 11 1:00 -65.6 -67.167 9 2 2499.7 8 60 50 700 621 2 30 1 90 20 300 0 1 0 -1.52 1.1 3 275 92 8 45 following NBP
LMG0205 2002 09 11 2:00 -65.583 -66.95 4 4 2509.8 3 20 10 200 400 2 3 1 90 10 300 0 1 0 -1.5 1.5 4 267 92 8 45 following NBP
LMG0205 2002 09 11 3:00 -65.483 -66.85 9 2 2521.8 5 60 50 400 100 3 20 3 20 5 200 100 1 0 1 90 5 300 0 1 0 -1.53 0.2 4 202 95 8 73 following NBP
LMG0205 2002 09 11 4:00 -65.4 -66.667 10 1 2534.3 6 60 50 400 100 4 20 3 90 40 300 0 1 0 1 20 5 200 100 1 0 -1.52 0.4 4 220 93 8 73 following NBP, Brash somewhat refrozen
LMG0205 2002 09 11 5:00 -65.35 -66.517 10 0 2543.2 6 60 50 500 611 2 20 3 60 50 400 100 2 20 1 90 30 300 0 1 0 -1.54 0.0 3 230 93 8 71
LMG0205 2002 09 11 6:00 -65.3 -66.283 10 2 2555.3 4 60 50 500 611 2 20 5 60 50 400 100 2 20 1 20 10 200 100 1 0 -1.51 -0.3 3 235 93 8 71
LMG0205 2002 09 11 7:00 -65.267 -66.067 10 0 2566.0 3 60 60 500 601 2 20 7 60 50 400 100 2 20 -1.53 0.0 3 246 93 8 71
LMG0205 2002 09 11 8:00 -65.233 -65.833 8 2 2577.5 5 60 50 400 621 2 20 3 40 15 200 100 2 5 -1.53 0.0 3 250 93 8 71
LMG0205 2002 09 11 9:00 -65.183 -65.6 8 2 2589.7 4 60 50 500 100 2 20 3 60 50 400 601 2 25 1 40 15 200 100 2 5 -1.52 0.0 3 250 93 8 71 Reached 1st waypoint, waiting for daylight
LMG0205 2002 09 11 11:00 -65.183 -65.617 9 2 2590.5 6 60 30 500 611 2 20 2 50 20 200 100 1 0 1 90 15 300 0 1 0 -1.47 -0.2 10 270 94 8 71 Stopped for ice sample collection
LMG0205 2002 09 11 13:00 -65.2 -65.55 9 2 2594.1 5 60 70 500 612 2 20 4 40 15 200 100 1 0 -1.55 0.8 2 306 94 8 71 Ice Bergs
LMG0205 2002 09 11 14:00 -65.2 -65.4 9 2 2601.1 6 60 70 600 622 2 25 2 40 15 200 100 1 0 1 90 15 300 0 1 0 -1.54 1.0 4 258 94 8 71
LMG0205 2002 09 11 15:00 -65.05 -65.183 8 2 2620.5 5 60 60 600 612 2 15 3 40 15 200 100 1 0 -1.47 2.3 4 259 94 8 48
LMG0205 2002 09 11 16:00 -65.083 -65.0 9 2 2629.9 6 60 70 600 602 2 15 3 40 15 200 100 1 0 -1.49 0.5 2 253 94 8 48
LMG0205 2002 09 12 0:00 -64.867 -63.833 0 0 0 0 0 0 0 0 0 0 0 0 0 0 0 0 0 0 0 0 0 Ice Obs. By Chris Fritsen, Lindsay Cunningham, Megan Blees, Paula Adkins, Shonna Dovel, Bruce Elder, Kerry Claffey
LMG0205 2002 09 12 1:00 -64.867 -63.833 4 5 2689.5 2 50 30 400 100 2 10 1 40 10 400 100 2 5 1 20 5 200 100 1 0 -1.4 0.4 1 340 93 0 42 Last Ice obs of cruise.  approaching Palmer station.
NBP0104 2001 07 26 14:00 -64.317 -69.167 10 1 6 60 40 400 100 2 3 2 30 20 100 100 10 2 2 90 10 300 0 1 0
NBP0104 2001 07 26 15:00 -64.417 -69.217 10 1 7 60 45 400 100 2 3 2 50 20 400 100 1 0 1 90 10 300 0 1 0
NBP0104 2001 07 26 16:00 -64.533 -69.283 10 1 6 60 45 400 100 2 3 3 50 20 400 100 1 0 1 90 10 300 0 1 0
NBP0104 2001 07 26 17:00 -64.633 -69.317 8 1 5 60 40 400 100 2 2 2 30 20 100 200 2 1 1 90 10 300 0 1 0
NBP0104 2001 07 26 18:00 -64.617 -69.3 9 1 6 60 45 400 100 2 3 2 30 20 100 200 2 1 1 90 10 300 0 1 0
NBP0104 2001 07 26 19:00 -64.633 -69.333 10 1 3 60 40 400 100 2 1 6 50 30 200 100 1 0 1 90 10 300 0 1 0
NBP0104 2001 07 26 20:00 -64.65 -69.35 10 0 7 60 45 400 100 2 3 2 30 20 100 200 2 1 1 50 20 400 100 1 0
NBP0104 2001 07 27 13:00 -65.633 -70.633 10 0 3 60 50 500 100 3 10 5 60 45 400 100 3 10 2 40 10 200 100 3 2
NBP0104 2001 07 27 14:00 -65.667 -70.6 9 1 2 60 50 500 100 3 10 6 60 40 400 100 3 10 1 20 5 200 100 3 1
NBP0104 2001 07 27 15:00 -65.733 -70.483 10 0 1 60 50 500 100 3 5 8 40 15 200 100 3 2 1 30 10 100 100 3 1
NBP0104 2001 07 27 16:00 -65.8 -70.383 10 0 8 60 40 400 100 2 1 1 30 20 100 200 2 1 1 20 5 200 100 2 1
NBP0104 2001 07 27 17:00 -65.8 -70.383 10 0 8 60 40 400 100 2 1 1 30 20 100 200 2 1 1 20 5 200 100 2 1
NBP0104 2001 07 27 18:00 -65.817 -70.3 9 1 1 60 50 500 100 2 5 5 60 40 400 100 3 4 3 40 10 200 100 1 0
NBP0104 2001 07 27 19:00 -65.867 -70.117 10 0 2 60 50 500 100 3 15 7 60 40 400 100 2 4 1 40 10 200 100 2 1
NBP0104 2001 07 27 20:00 -65.917 -69.967 10 0 8 60 30 700 100 3 1 2 50 20 200 100 2 1
NBP0104 2001 07 28 13:00 -66.183 -69.017 9 1 7 60 60 400 711 3 5 2 60 40 400 100 3 3
NBP0104 2001 07 28 14:00 -66.233 -68.867 9 1 7 60 60 400 711 3 5 1 60 40 400 100 3 3 1 90 40 300 0 1 0
NBP0104 2001 07 28 15:00 -66.283 -68.683 9 1 8 60 60 400 711 3 5 1 50 30 200 100 3 3
NBP0104 2001 07 28 16:00 -66.333 -68.533 8 2 5 60 60 400 611 3 5 2 30 5 100 200 3 1 1 12 2 0 0 1 0
NBP0104 2001 07 28 17:00 -66.367 -68.367 7 3 5 60 60 400 651 3 5 1 30 5 100 100 1 0 1 12 2 0 0 1 0
NBP0104 2001 07 29 13:00 -66.5 -69.533 10 0 1 60 40 500 611 3 15 5 50 15 200 100 1 0 4 40 10 200 100 1 0
NBP0104 2001 07 29 14:00 -66.467 -69.617 9 6 4 60 45 500 611 3 20 4 60 45 400 611 3 20 1 50 20 200 100 1 0
NBP0104 2001 07 29 17:00 -66.417 -69.767 9 1 5 60 60 500 511 3 20 1 60 60 400 100 3 10 3 20 10 200 400 1 0
NBP0104 2001 07 29 18:00 -66.367 -69.933 10 0 7 60 70 400 611 3 20 2 50 20 200 100 3 5 1 40 10 200 100 3 5
NBP0104 2001 07 29 19:00 -66.317 -70.117 10 0 7 60 70 400 511 3 20 2 50 20 200 100 3 5 1 40 10 200 501 3 5 -12.0
NBP0104 2001 07 29 20:00 -66.267 -70.233 9 1 4 60 70 400 611 3 20 4 60 50 400 611 3 20 1 40 10 200 100 2 1
NBP0104 2001 07 30 13:00 -66.033 -71.217 10 0 4 60 50 500 611 3 5 4 60 40 400 100 3 5 2 50 15 200 100 1 0
NBP0104 2001 07 30 14:00 -66.033 -71.233 10 0 2 60 50 500 611 3 5 2 60 45 400 100 3 5 6 50 15 200 100 2 1
NBP0104 2001 07 30 15:00 -66.017 -71.217 10 0 4 60 70 500 611 3 10 4 60 45 400 601 3 10 2 50 15 200 100 2 1
NBP0104 2001 07 30 18:00 -65.95 -71.117 9 1 2 60 60 500 501 3 5 2 60 50 400 501 3 5 5 50 15 200 100 2 1
NBP0104 2001 07 30 19:00 -65.967 -71.133 9 1 3 60 50 400 100 2 10 1 30 20 100 200 2 10 5 40 15 200 100 2 5
NBP0104 2001 07 30 20:00 -66.017 -71.15 10 0 1 60 60 500 811 3 10 7 60 50 400 100 3 5 2 50 15 200 100 2 1
NBP0104 2001 07 31 13:00 -66.7 -70.283 10 0 10 70 80 800 811 3 20
NBP0104 2001 07 31 14:00 -66.75 -70.15 10 0 8 70 70 800 811 3 20 2 50 20 200 100 2 1
NBP0104 2001 07 31 15:00 -66.717 -70.15 9 3 8 70 80 700 821 3 20 1 40 15 200 100 1 0
NBP0104 2001 07 31 16:00 -66.733 -70.15 9 3 7 70 80 800 821 3 20 1 40 15 200 100 2 1 1 10 1 0 0 1 0
NBP0104 2001 08 01 13:00 -67.483 -69.517 7 3 6 60 45 700 611 3 15 1 90 5 300 0 1 0
NBP0104 2001 08 01 14:00 -67.483 -69.55 7 3 5 60 45 800 611 3 15 1 50 20 200 100 2 2 1 20 2 200 100 1 0
NBP0104 2001 08 01 15:00 -67.4 -69.7 9 6 8 60 60 800 621 3 15 1 90 5 300 0 1 0
NBP0104 2001 08 01 16:00 -67.333 -69.867 9 2 8 60 60 800 621 3 15 1 90 5 300 0 1 0
NBP0104 2001 08 01 17:00 -67.25 -70.033 9 2 8 60 60 800 621 3 15 1 90 5 300 0 1 0
NBP0104 2001 08 01 18:00 -67.217 -70.017 10 0 6 60 50 800 621 3 15 1 50 20 200 100 2 2 3 20 2 200 100 1 0
NBP0104 2001 08 01 19:00 -67.217 -69.983 10 0 6 60 50 800 621 3 15 1 90 5 300 0 1 0 3 20 2 200 100 1 0
NBP0104 2001 08 02 13:00 -66.717 -71.733 9 1 3 60 50 500 611 3 10 5 60 40 400 611 3 10 1 90 5 300 0 1 0
NBP0104 2001 08 02 14:00 -66.667 -71.683 10 0 1 60 60 500 811 3 10 8 60 50 400 100 3 10 1 20 5 200 100 1 0
NBP0104 2001 08 02 15:00 -66.65 -71.983 10 0 1 60 60 500 601 3 10 8 60 50 400 601 3 10 1 20 5 200 100 1 0
NBP0104 2001 08 02 16:00 -66.583 -72.217 8 2 6 60 60 500 601 3 10 1 60 50 400 601 3 10 1 20 5 200 100 1 0
NBP0104 2001 08 02 20:00 -66.6 -72.183 10 1 3 60 50 500 601 3 10 4 60 50 400 601 3 10 3 40 10 200 100 1 0
NBP0104 2001 08 03 13:00 -66.667 -73.333 10 1 3 60 50 600 611 3 15 6 60 50 500 611 3 15 1 60 40 400 611 3 15
NBP0104 2001 08 03 14:00 -66.667 -73.4 10 1 6 60 45 600 601 3 15 2 60 45 500 601 3 15 2 20 2 200 100 1 0
NBP0104 2001 08 03 15:00 -66.683 -73.35 10 1 5 60 40 500 601 3 8 4 60 40 600 601 3 8 1 20 2 200 100 1 0
NBP0104 2001 08 03 16:00 -66.75 -73.133 10 1 6 60 40 500 601 3 10 2 60 40 400 601 3 10 2 20 5 200 100 1 0
NBP0104 2001 08 03 17:00 -66.8 -72.95 10 1 8 60 50 800 601 2 10 2 20 5 200 100 1 0
NBP0104 2001 08 03 18:00 -66.833 -72.833 9 1 7 60 60 700 601 2 20 1 60 40 400 601 2 15 1 90 20 300 0 1 0
NBP0104 2001 08 03 19:00 -66.867 -72.767 10 1 8 60 50 800 601 3 15 1 50 15 200 100 2 1 1 20 5 200 100 1 0
NBP0104 2001 08 03 20:00 -66.883 -72.617 9 2 8 60 50 800 611 3 15 1 90 30 300 0 1 0
NBP0104 2001 08 04 13:00 -67.283 -71.4 9 1 8 60 60 700 601 2 25 1 90 30 300 0 1 0
NBP0104 2001 08 04 19:15 -67.3 -71.283 9 1 7 60 50 400 601 2 20 1 40 15 200 100 2 1 1 90 15 300 0 1 0
NBP0104 2001 08 04 20:00 -67.333 -71.217 9 3 6 60 50 500 601 3 10 2 50 15 200 100 2 1 1 90 15 300 0 1 0
NBP0104 2001 08 05 13:00 -68.05 -70.333 10 0 10 70 70 800 601 3 20
NBP0104 2001 08 05 14:00 -68.05 -70.317 10 0 9 70 70 800 601 3 20 1 50 20 200 100 2 1
NBP0104 2001 08 05 20:00 -68.15 -69.967 10 0 9 70 70 800 611 3 20 1 50 20 200 100 2 1
NBP0104 2001 08 06 13:00 -68.483 -68.733 10 0 10 60 35 800 632 3 25
NBP0104 2001 08 06 14:00 -68.517 -68.567 10 0 9 60 35 800 632 3 20 1 50 15 200 100 2 1
NBP0104 2001 08 06 15:00 -68.567 -68.383 10 0 10 60 45 800 613 3 40
NBP0104 2001 08 06 16:00 -68.6 -68.3 10 0 10 60 45 800 633 3 40
NBP0104 2001 08 07 15:00 -68.367 -67.883 10 0 10 70 80 800 612 3 15
NBP0104 2001 08 07 18:00 -68.233 -68.2 10 0 8 60 45 800 644 3 30 1 90 30 300 0 1 0 1 20 10 200 400 1 0
NBP0104 2001 08 07 19:00 -68.183 -68.217 10 0 8 60 45 800 631 3 15 1 90 30 300 0 1 0 1 50 15 200 100 1 0
NBP0104 2001 08 08 13:00 -67.9 -68.4 10 0 1 60 30 400 100 3 15 6 20 5 200 100 1 0 3 30 5 100 200 1 0
NBP0104 2001 08 08 15:00 -67.9 -68.433 10 0 2 60 30 400 601 2 20 7 40 10 200 100 2 5 1 20 5 200 100 1 0
NBP0104 2001 08 09 13:00 -67.767 -70.633 10 0 10 60 55 800 801 2 20
NBP0104 2001 08 09 14:00 -67.8 -70.817 10 0 9 60 60 800 622 3 20 1 50 15 200 100 2 2
NBP0104 2001 08 09 15:00 -67.817 -71.033 10 0 9 60 60 800 621 3 20 1 50 15 200 100 3 5
NBP0104 2001 08 10 13:00 -67.133 -73.383 10 0 9 60 35 800 601 3 15 1 50 15 200 100 1 0
NBP0104 2001 08 10 19:00 -67.083 -73.617 10 0 10 60 30 800 651 3 15
NBP0104 2001 08 11 16:00 -67.2 -74.567 10 0 10 60 50 800 661 3 15
NBP0104 2001 08 11 17:00 -67.25 -74.467 10 0 10 60 70 800 621 2 25
NBP0104 2001 08 11 18:00 -67.283 -74.3 9 1 7 60 60 800 651 2 20 1 60 50 400 100 2 20 1 20 10 200 100 2 3
NBP0104 2001 08 12 13:00 -67.867 -72.517 10 0 10 60 60 800 641 3 20
NBP0104 2001 08 12 14:00 -67.9 -72.4 10 0 10 60 60 800 651 3 20
NBP0104 2001 08 13 13:00 -68.117 -70.2 10 0 9 60 70 700 644 3 40 1 60 45 500 632 3 30
NBP0104 2001 08 13 14:00 -68.05 -69.983 10 0 9 60 70 700 664 3 40 1 60 45 500 632 3 30
NBP0104 2001 08 13 15:00 -68.033 -69.75 10 0 10 70 90 800 653 3 30
NBP0104 2001 08 13 16:00 -68.083 -69.683 10 0 10 70 70 800 622 3 30
NBP0104 2001 08 13 17:00 -68.2 -69.6 10 0 10 70 70 800 622 3 20
NBP0104 2001 08 13 18:00 -68.167 -69.633 10 0 10 60 60 800 621 3 10
NBP0104 2001 08 14 0:00 -68.1 -70.233 10 0 10 60 60 0 621 3 10 -13.2
NBP0104 2001 08 14 1:00 -68.05 -70.033 10 0 10 60 50 0 601 2 15 -11.3
NBP0104 2001 08 14 3:00 -67.967 -69.817 10 0 10 60 60 0 0 0 0 -13.0
NBP0104 2001 08 14 5:00 -67.933 -69.833 0 0 0 0 0 0 0 0 0 0 0 0 0 0 0 0 0 0 0 0 0 -13.8
NBP0104 2001 08 14 14:30 -67.833 -69.75 10 0 10 60 60 800 622 3 30 -27.1
NBP0104 2001 08 14 15:00 -67.817 -69.75 10 0 10 70 70 800 601 3 30 -27.1
NBP0104 2001 08 14 16:00 -67.75 -69.767 10 1 10 70 70 800 622 4 25 -27.1
NBP0104 2001 08 14 19:00 -67.633 -70.017 10 1 10 70 80 800 622 4 30
NBP0104 2001 08 14 21:00 -67.55 -70.217 9 2 7 60 40 800 611 4 20 1 60 40 500 100 3 10 1 20 5 200 100 1 0 -22.4
NBP0104 2001 08 14 22:00 -67.467 -70.167 9 6 9 60 40 800 611 3 10 -21.9
NBP0104 2001 08 14 23:00 -67.383 -70.117 10 0 10 60 70 800 621 3 10 -1.8 -22.7
NBP0104 2001 08 15 0:00 -67.3 -70.133 10 1 9 60 50 700 611 4 15 1 60 50 400 100 4 15 -1.8 -23.6
NBP0104 2001 08 15 2:30 -67.217 -70.167 10 0 10 60 60 800 521 4 15 -1.8 -21.9
NBP0104 2001 08 15 3:00 -67.267 -70.217 10 0 10 60 50 800 521 4 15 -1.8 -21.9
NBP0104 2001 08 15 4:00 -67.383 -70.3 9 2 8 60 60 700 531 4 15 1 60 50 400 100 4 15 -1.8 -20.4
NBP0104 2001 08 15 5:00 -67.45 -70.383 10 0 10 60 70 700 543 4 25 -1.8 -20.2
NBP0104 2001 08 15 13:00 -68.217 -70.883 10 0 10 60 60 800 511 4 20
NBP0104 2001 08 15 14:00 -68.267 -70.9 10 1 8 70 70 700 601 4 30 2 60 45 500 100 4 15 -1.8 -25.5
NBP0104 2001 08 15 15:00 -68.317 -70.917 10 1 9 70 85 600 100 4 35 1 20 5 200 100 2 1 -1.8 -25.1
NBP0104 2001 08 15 17:30 -68.317 -70.9 10 1 9 60 60 600 100 4 20 1 20 5 200 100 2 1 -1.8 -23.5
NBP0104 2001 08 15 18:00 -68.35 -70.833 10 0 8 70 70 600 100 4 35 1 60 70 500 100 4 20 1 20 5 200 100 1 0 -23.5
NBP0104 2001 08 15 19:00 -68.383 -70.8 10 1 8 70 90 600 100 4 20 1 40 10 200 100 3 1 1 20 5 200 100 1 0 -1.8 -24.6
NBP0104 2001 08 15 20:00 -68.417 -70.7 10 0 10 70 100 800 822 4 40 -1.8 -25.3
NBP0104 2001 08 15 21:00 -68.45 -70.633 10 1 9 70 90 600 732 4 40 1 20 5 200 100 1 0 -1.8 -25.5
NBP0104 2001 08 16 9:00 -68.483 -70.05 10 0 10 70 80 800 722 3 30 -1.8 -23.2
NBP0104 2001 08 16 14:00 -68.55 -70.033 10 1 8 60 50 600 711 3 15 2 20 5 200 400 1 0 -1.9 -25.3
NBP0104 2001 08 16 15:00 -68.583 -70.167 9 2 6 60 50 700 722 3 15 1 60 50 500 732 3 15 2 20 5 200 400 1 0 -1.8 -25.6
NBP0104 2001 08 16 16:00 -68.617 -70.383 10 1 9 70 70 700 732 3 25 1 40 10 200 100 1 0 -1.8 -24.8
NBP0104 2001 08 16 17:00 -68.633 -70.4 10 1 10 70 70 700 711 3 40 -1.8 -25.3
NBP0104 2001 08 16 18:00 -68.7 -70.4 10 1 6 60 50 600 612 2 20 1 40 10 200 100 1 0 3 20 5 200 400 1 0 -1.8 -25.4
NBP0104 2001 08 16 22:00 -68.717 -70.633 9 2 5 60 50 500 611 3 30 2 40 10 200 100 1 0 2 20 5 200 400 1 0 -1.8 -27.1
NBP0104 2001 08 16 23:00 -68.733 -70.85 10 0 10 60 60 700 622 3 40 -1.8 -27.1
NBP0104 2001 08 17 0:00 -68.75 -70.933 10 0 8 60 60 600 622 3 40 2 20 5 200 400 1 0 -1.7 -27.5
NBP0104 2001 08 17 1:00 -68.75 -71.0 10 0 8 60 60 600 611 3 40 2 20 5 200 100 1 0 -1.7 -27.7
NBP0104 2001 08 17 3:15 -68.75 -71.017 10 1 8 60 70 700 622 3 40 1 60 50 500 611 3 40 1 90 30 300 0 1 0 -1.7 -26.8
NBP0104 2001 08 17 4:00 -68.733 -71.05 10 0 10 70 70 700 722 3 40 -1.8 -26.7
NBP0104 2001 08 17 5:00 -68.683 -71.033 10 0 7 60 60 500 642 3 40 2 40 15 400 100 1 0 1 90 15 300 0 1 0 -1.8 -26.0
NBP0104 2001 08 17 15:30 -68.383 -72.3 10 0 9 60 70 700 100 4 25 1 20 5 200 100 1 0 -1.8 -20.2
NBP0104 2001 08 17 16:00 -68.383 -72.4 10 0 10 70 70 700 711 4 25 -1.8 -21.7
NBP0104 2001 08 17 19:00 -68.217 -72.833 10 0 8 70 70 800 722 4 30 2 50 15 400 100 2 2 -1.8 -24.8
NBP0104 2001 08 17 20:00 -68.167 -72.983 10 0 10 70 75 800 722 4 30 -1.8 -25.9
NBP0104 2001 08 18 0:00 -68.183 -73.05 10 0 10 70 75 800 722 3 25 -1.8 -23.9
NBP0104 2001 08 18 3:00 -68.217 -73.083 10 0 10 60 60 800 722 3 25 -1.8 -22.5
NBP0104 2001 08 18 4:00 -68.283 -73.25 10 0 10 60 65 800 711 3 30 -1.8 -21.7
NBP0104 2001 08 18 5:00 -68.367 -73.433 10 0 10 60 60 0 701 2 35 -1.8 -19.9
NBP0104 2001 08 18 14:05 -68.517 -73.683 9 2 4 60 50 0 611 2 35 4 40 15 200 100 2 5 1 90 15 300 0 1 0 -1.8 -11.0
NBP0104 2001 08 18 16:00 -68.533 -73.35 9 2 6 70 70 0 100 2 30 3 20 5 200 100 2 2 -1.8 -10.3
NBP0104 2001 08 18 17:00 -68.583 -73.183 10 1 10 60 70 0 0 2 25 -1.8 -9.7
NBP0104 2001 08 18 18:00 -68.617 -73.067 10 0 10 70 70 0 0 3 25 -1.8 -9.4
NBP0104 2001 08 18 19:00 -68.667 -72.95 9 1 9 70 70 0 0 2 25 -1.8 -9.7
NBP0104 2001 08 19 2:00 -68.633 -72.983 10 0 10 70 70 700 712 3 25 -1.8 -7.9
NBP0104 2001 08 19 3:00 -68.617 -73.0 10 0 10 70 70 700 712 3 35 -1.8 -7.0
NBP0104 2001 08 19 4:00 -68.667 -72.95 10 0 10 70 80 700 722 3 35 -1.8 -7.0
NBP0104 2001 08 19 5:00 -68.717 -72.767 10 0 10 60 60 700 711 3 30 -1.8 -7.6
NBP0104 2001 08 19 14:00 -68.817 -72.417 9 2 9 70 80 600 612 3 35 -1.7 -6.6
NBP0104 2001 08 19 15:00 -68.783 -72.567 9 2 8 60 60 500 601 3 25 1 90 30 300 0 1 0 -1.8 -7.9
NBP0104 2001 08 19 17:00 -68.783 -72.617 10 1 10 70 75 600 612 3 30 -1.8 -8.4
NBP0104 2001 08 19 18:00 -68.833 -72.8 9 2 5 70 70 600 612 3 35 3 70 70 500 612 3 35 1 90 30 300 0 1 0 -1.8 -9.4
NBP0104 2001 08 19 21:00 -68.867 -72.85 8 6 6 60 50 0 100 3 25 1 90 30 300 0 1 0 1 12 3 0 0 1 0 -1.8 -11.8
NBP0104 2001 08 19 22:00 -68.9 -72.983 8 6 6 60 50 0 601 3 30 2 90 20 300 0 1 0 -1.8 -11.8
NBP0104 2001 08 19 23:00 -68.983 -73.0 9 6 6 60 60 500 612 3 30 3 90 20 300 0 1 0 -1.7 -12.4
NBP0104 2001 08 20 0:00 -69.05 -73.1 9 6 3 70 70 500 601 3 30 4 60 50 500 601 3 25 2 90 25 300 0 1 0 -1.8 -12.7
NBP0104 2001 08 20 1:00 -69.083 -73.083 9 6 8 70 70 700 612 3 30 1 90 20 300 0 1 0 -1.7 -13.4
NBP0104 2001 08 20 3:10 -69.05 -73.1 8 6 6 60 60 600 611 3 25 2 90 20 300 0 1 0 -1.7 -15.5
NBP0104 2001 08 20 16:30 -68.767 -74.333 10 0 10 70 70 0 100 3 30 -1.8 -11.0
NBP0104 2001 08 20 17:00 -68.783 -74.4 10 0 10 70 80 0 712 4 35 -1.8 -10.8
NBP0104 2001 08 20 18:00 -68.85 -74.533 10 0 10 70 80 800 701 4 35 -1.8 -9.4
NBP0104 2001 08 20 19:00 -68.917 -74.683 10 0 10 70 70 800 701 4 30 -1.8 -7.9
NBP0104 2001 08 20 20:00 -68.983 -74.883 9 6 9 70 75 800 701 4 30 -1.6 -7.2
NBP0104 2001 08 21 0:00 -68.983 -74.917 10 0 10 70 85 800 701 4 25 -1.7 -11.3
NBP0104 2001 08 21 2:10 -68.983 -74.8 10 0 10 60 70 800 701 3 25 -1.8 -6.9
NBP0104 2001 08 21 18:00 -69.233 -75.567 9 2 7 60 70 800 712 3 25 2 60 65 600 701 3 25 -1.8 -11.1
NBP0104 2001 08 21 21:00 -69.25 -75.683 9 2 9 60 70 800 712 3 25 -1.8 -10.6
NBP0104 2001 08 22 3:30 -69.233 -75.7 10 0 10 70 70 800 702 3 30 -1.7 -11.1
NBP0104 2001 08 22 4:00 -69.217 -75.7 10 1 10 70 70 800 701 3 30 -1.7 -10.4
NBP0104 2001 08 22 17:00 -68.533 -75.617 9 6 8 70 70 700 731 4 25 1 20 5 200 400 1 0 -1.8 -16.5
NBP0104 2001 08 22 18:00 -68.433 -75.65 10 1 9 60 65 800 731 4 25 1 20 5 200 400 1 0 -1.8 -16.6
NBP0104 2001 08 22 19:00 -68.333 -75.633 10 1 8 60 65 700 732 4 25 2 20 5 200 100 1 0 -1.9 -16.7
NBP0104 2001 08 22 21:00 -68.283 -75.633 10 1 9 60 65 700 731 4 25 1 20 5 200 100 1 0 -1.9 -17.4
NBP0104 2001 08 22 22:00 -68.25 -75.367 10 1 10 60 65 700 701 4 25 -1.9 -16.6
NBP0104 2001 08 22 23:00 -68.2 -75.133 10 0 10 70 70 700 711 4 25 -1.8 -15.4
NBP0104 2001 08 23 0:00 -68.133 -74.917 10 1 10 60 60 700 721 4 20 -1.8 -15.0
NBP0104 2001 08 23 18:00 -67.75 -74.117 9 1 6 60 50 600 100 4 15 1 60 50 400 100 4 15 2 20 5 200 400 1 0 -1.8 -16.1
NBP0104 2001 08 23 19:00 -67.667 -74.017 9 1 5 60 50 500 711 4 15 3 50 20 400 100 4 15 1 20 5 200 100 1 0 -1.8 -17.1
NBP0104 2001 08 23 20:00 -67.583 -73.917 10 1 4 60 55 500 100 4 15 5 60 50 400 100 4 15 1 90 20 300 0 1 0 -1.9 -17.2
NBP0104 2001 08 23 21:00 -67.483 -73.817 10 1 6 60 60 500 702 4 20 3 60 60 400 100 4 20 1 20 5 200 100 1 0 -1.8 -16.8
NBP0104 2001 08 23 22:00 -67.4 -73.7 10 1 6 60 60 500 712 4 20 4 60 50 400 100 4 15 -1.8 -16.6
NBP0104 2001 08 23 23:00 -67.317 -73.583 9 1 5 60 50 500 611 4 20 4 60 50 400 100 4 15 -1.8 -16.3
NBP0104 2001 08 24 0:00 -67.233 -73.5 9 1 3 60 50 500 612 3 15 6 60 50 400 601 3 15 -1.8 -15.9
NBP0104 2001 08 24 1:00 -67.15 -73.383 10 1 5 60 60 600 622 3 15 4 60 50 400 601 3 15 1 90 20 300 0 1 0 -1.8 -16.5
NBP0104 2001 08 24 2:00 -67.083 -73.217 10 1 2 60 60 500 611 4 15 7 60 50 400 601 4 10 1 90 20 300 0 1 0 -1.7 -18.4
NBP0104 2001 08 24 3:00 -67.033 -73.017 10 1 2 60 60 500 601 4 15 8 60 50 400 601 4 10 -1.7 -18.4
NBP0104 2001 08 24 4:00 -66.983 -72.817 9 1 7 60 50 400 601 3 10 2 90 20 300 0 1 0 -1.8 -18.2
NBP0104 2001 08 24 5:00 -66.917 -72.6 8 2 7 60 50 400 601 3 10 1 90 20 300 0 1 0 -1.8 -18.1
NBP0104 2001 08 24 7:00 -66.783 -72.233 8 2 7 60 50 400 601 3 10 1 90 20 300 0 1 0 -1.8 -17.1
NBP0104 2001 08 24 17:00 -66.383 -71.317 9 1 6 60 50 400 100 3 10 1 90 20 300 0 1 0 2 20 5 200 100 1 0 -1.8 -18.0
NBP0104 2001 08 24 18:00 -66.45 -71.233 9 2 8 60 50 400 100 3 10 1 90 10 300 0 1 0 -1.8 -17.6
NBP0104 2001 08 24 19:00 -66.5 -71.083 10 1 9 60 50 400 601 4 20 1 20 5 200 100 1 0 -1.8 -17.2
NBP0104 2001 08 24 22:00 -66.533 -71.0 8 2 7 60 50 400 601 4 10 1 20 5 200 100 1 0 -1.7 -18.2
NBP0104 2001 08 24 23:00 -66.583 -70.85 10 1 9 60 50 400 601 4 10 1 20 5 200 100 1 0 -1.7 -18.8
NBP0104 2001 08 25 0:00 -66.617 -70.7 9 2 8 60 50 700 632 4 30 1 20 5 200 100 1 0 -1.8 -19.0
NBP0104 2001 08 25 1:00 -66.667 -70.6 10 0 10 60 55 700 532 4 30 -1.8 -21.0
NBP0104 2001 08 25 2:00 -66.717 -70.45 10 0 10 60 65 700 532 4 30 -1.8 -22.0
NBP0104 2001 08 25 3:00 -66.75 -70.317 10 0 10 60 60 700 532 4 25 -1.8 -21.8
NBP0104 2001 08 25 16:00 -67.017 -69.433 8 2 6 40 15 500 100 2 3 1 12 1 0 0 1 0 1 10 1 0 0 1 0 -1.8 -13.3
NBP0104 2001 08 25 17:00 -67.033 -69.417 7 6 6 40 15 500 100 2 3 1 12 1 0 0 1 0 -1.8 -12.9
NBP0104 2001 08 25 23:00 -67.067 -69.517 10 0 10 60 50 700 632 3 10 -1.6 -11.0
NBP0104 2001 08 26 0:00 -66.95 -69.517 9 1 5 60 50 600 642 3 15 4 40 10 200 100 2 2 -1.7 -10.4
NBP0104 2001 08 26 1:00 -66.833 -69.467 9 2 9 60 55 700 632 3 15 -1.8 -9.8
NBP0104 2001 08 26 2:00 -66.717 -69.383 9 2 9 60 55 700 632 3 20 -1.7 -9.5
NBP0104 2001 08 26 3:00 -66.6 -69.333 10 1 9 60 55 700 642 4 20 1 20 5 200 100 1 0 -1.7 -9.0
NBP0104 2001 08 26 4:00 -66.5 -69.267 9 2 9 60 55 700 632 4 20 -1.8 -8.2
NBP0104 2001 08 26 5:00 -66.383 -69.217 8 3 7 60 50 600 632 4 20 1 60 50 400 100 4 15 -1.7 -8.2
NBP0104 2001 08 26 6:00 -66.283 -69.15 8 3 6 60 50 600 642 4 20 2 60 50 400 100 4 15 -1.8 -7.3
NBP0104 2001 08 26 7:00 -66.183 -69.1 8 3 6 60 50 600 642 4 20 2 60 50 400 100 4 15 -1.6 -6.5
NBP0104 2001 08 26 12:00 -65.8 -69.083 8 3 7 60 40 600 631 3 10 1 20 10 200 100 1 0 -1.7 -2.5
NBP0104 2001 08 26 13:00 -65.683 -69.05 7 4 6 60 40 600 651 3 10 1 20 10 200 100 1 0 -1.7 -2.5
NBP0104 2001 08 26 14:00 -65.6 -68.933 7 4 6 60 40 600 651 3 10 1 20 10 200 100 1 0 -1.7 -2.1
NBP0104 2001 08 26 15:00 -65.483 -68.65 8 2 8 60 40 400 100 3 5 -1.7 -2.0
NBP0104 2001 08 26 16:00 -65.367 -68.367 7 3 3 60 30 400 100 3 5 4 50 20 200 100 3 2 -1.7 -1.9
NBP0104 2001 08 26 17:00 -65.283 -68.117 5 4 5 30 10 100 100 3 1 -1.7 -1.6
NBP0104 2001 08 26 18:00 -65.2 -67.683 3 5 3 30 10 100 100 3 1 -1.7 -1.2
NBP0104 2001 08 26 19:00 -65.167 -67.267 3 5 3 30 5 100 100 1 0 -1.7 -1.3
NBP0104 2001 08 26 20:00 -65.133 -66.817 10 1 4 60 30 400 100 3 5 6 50 20 400 100 3 2 -1.7 -1.5
NBP0104 2001 08 26 21:00 -65.133 -66.5 10 1 7 60 35 400 100 3 10 3 50 20 400 100 3 5 -1.7 -1.2
NBP0104 2001 08 26 22:00 -65.117 -66.117 10 1 7 60 35 400 100 3 15 3 50 25 400 100 3 5 -1.7 -1.0
NBP0104 2001 08 26 23:00 -65.1 -65.833 10 1 7 60 40 400 100 3 15 3 50 30 400 100 3 5 -1.7 -1.2
NBP0104 2001 08 27 0:00 -65.033 -65.517 10 1 10 60 40 700 652 2 20 -1.7 -1.5
NBP0104 2001 08 27 1:00 -64.883 -65.2 10 1 3 50 20 400 100 2 2 7 40 10 400 100 1 0 -1.7 -1.6
NBP0104 2001 08 27 2:00 -64.9 -64.883 10 1 4 60 35 400 100 2 15 6 50 20 400 100 2 5 -1.7 -1.6
NBP0104 2001 08 27 3:00 -64.9 -64.683 10 1 4 60 30 400 100 2 15 6 50 20 400 100 2 5 -1.7 -1.7
NBP0104 2001 08 27 4:00 -64.883 -64.383 2 8 2 90 10 300 0 1 0 -1.7 -1.2
NBP0104 2001 08 27 5:00 -64.883 -64.183 0 9 -1.7 -0.7
NBP0204 2002 08 03 10:00 -61.383 -62.767 5 6 0.0 1 30 20 100 100 3 4 2 90 10 300 0 1 0 2 30 10 100 100 3 3
NBP0204 2002 08 03 11:00 -61.533 -62.717 9 1 16.9 6 30 12 100 100 3 4 3 40 12 200 100 1 0
NBP0204 2002 08 03 12:00 -61.667 -62.717 7 4 31.7 1 60 40 400 100 3 10 5 30 10 100 100 2 3 1 90 7 300 0 1 0
NBP0204 2002 08 03 13:00 -61.783 -62.7 9 1 44.7 1 60 30 400 100 3 10 7 30 10 100 100 3 4 1 90 7 300 0 1 0
NBP0204 2002 08 03 14:00 -61.933 -62.65 6 3 61.5 2 60 40 400 100 3 8 3 30 12 100 100 3 4 1 90 8 300 0 1 0
NBP0204 2002 08 03 15:00 -62.0 -62.617 6 5 69.1 2 60 35 400 100 3 8 2 30 12 100 100 3 4 2 40 10 200 100 1 0
NBP0204 2002 08 03 17:00 -62.3 -62.5 7 3 103.0 4 60 50 400 100 2 3 2 30 15 100 100 3 3 1 40 10 200 100 1 0
NBP0204 2002 08 03 18:00 -62.467 -62.45 6 4 121.7 3 70 80 400 100 2 3 2 30 15 100 100 2 3 1 40 10 200 100 1 0
NBP0204 2002 08 03 19:00 -62.55 -62.35 9 2 132.2 5 70 80 400 100 2 3 3 30 15 100 100 2 3 1 40 10 200 100 1 0
NBP0204 2002 08 03 20:00 -62.633 -62.25 6 5 142.8 4 60 50 400 100 3 8 2 90 10 300 0 1 0
NBP0204 2002 08 03 21:00 -62.783 -62.1 1 8 161.1 1 90 10 300 0 1 0
NBP0204 2002 08 03 22:00 -62.917 -61.967 7 4 177.4 1 60 50 400 100 2 20 2 90 10 300 0 1 0 4 40 10 200 100 1 0
NBP0204 2002 08 03 23:00 -63.017 -61.85 9 1 190.0 1 70 100 400 100 2 50 6 60 40 400 100 2 10 2 30 15 100 100 2 8
NBP0204 2002 08 04 0:00 -63.183 -61.7 0 9 210.0 open water with bergy bits
NBP0204 2002 08 04 1:00 -63.383 -61.567 4 4 233.2 2 60 40 400 100 2 10 1 30 20 100 100 2 5 1 40 15 200 100 1 0
NBP0204 2002 08 04 2:00 -63.533 -61.467 0 9 250.6 open water with bergy bits
NBP0204 2002 08 04 3:00 -63.7 -61.35 0 9 269.9 open water with bergy bits
NBP0204 2002 08 04 4:00 -63.833 -61.5 10 0 286.5 2 70 100 400 100 2 10 6 30 20 100 100 2 10 2 40 10 200 100 1 0
NBP0204 2002 08 04 5:00 -63.983 -61.717 9 1 306.2 1 30 20 100 100 1 0 8 40 15 200 100 1 0
NBP0204 2002 08 04 6:00 -64.117 -61.833 7 2 322.1 4 80 120 500 600 2 7 3 30 10 100 100 2 7 open water with bergy bits; <1% brash/pancake ice
NBP0204 2002 08 04 7:00 -64.25 -61.917 0 9 337.4 open water with bergybits; <1% brash/pancake ice
NBP0204 2002 08 04 8:00 -64.383 -62.017 0 9 353.0 open water with bergy bits; <1% brash/pancake ice
NBP0204 2002 08 04 9:00 -64.517 -62.433 0 9 377.9
NBP0204 2002 08 04 10:00 -64.6 -62.733 0 9 394.9
NBP0204 2002 08 04 11:00 -64.717 -63.05 0 9 414.8
NBP0204 2002 08 04 12:00 -64.883 -63.267 0 9 436.0 open water with bergy bits; <1% brash/pancake ice
NBP0204 2002 08 04 13:00 -64.967 -63.467 0 9 449.2 open water with bergy bits; <1% brash/pancake ice
NBP0204 2002 08 04 14:00 -64.867 -63.833 0 9 469.7 open water with bergy bits; <1% brash/grease ice
NBP0204 2002 08 04 15:00 -64.9 -64.317 0 9 492.8
NBP0204 2002 08 04 16:00 -64.883 -64.633 0 9 507.8
NBP0204 2002 08 04 17:00 -64.9 -64.967 0 9 523.6 open water with <1% brash bits
NBP0204 2002 08 04 18:00 -65.033 -65.267 0 9 544.1
NBP0204 2002 08 04 19:00 -65.117 -65.467 9 1 557.2 6 60 35 400 100 2 5 2 30 10 100 100 2 4 1 30 5 100 100 1 0
NBP0204 2002 08 04 20:00 -65.2 -65.6 9 1 568.4 6 60 35 400 100 2 5 2 30 15 100 100 2 5 1 40 10 200 100 1 0
NBP0204 2002 08 04 22:00 -65.4 -65.983 8 1 596.9 6 60 35 400 100 2 10 1 30 15 100 100 2 5 1 40 10 200 100 1 0
NBP0204 2002 08 04 23:00 -65.483 -66.15 9 1 608.9 8 60 45 400 100 2 20 1 40 10 200 100 1 0
NBP0204 2002 08 05 0:00 -65.55 -66.333 8 2 620.1 6 60 50 400 100 2 20 1 40 10 200 100 1 0 1 90 8 300 0 1 0
NBP0204 2002 08 05 1:00 -65.617 -66.4 8 2 628.1 6 60 50 400 100 2 20 1 40 10 200 100 1 0 1 90 8 300 0 1 0
NBP0204 2002 08 05 2:00 -65.717 -66.683 9 2 645.2 7 60 50 400 100 2 20 1 40 10 200 100 1 0 1 90 8 300 0 1 0
NBP0204 2002 08 05 3:00 -65.817 -66.867 9 2 659.1 7 60 65 400 100 2 20 1 40 10 200 100 1 0 1 90 10 300 0 1 0
NBP0204 2002 08 05 4:00 -65.883 -67.05 9 1 670.3 7 60 60 400 100 2 20 1 40 15 200 100 1 0 1 90 10 300 0 1 0
NBP0204 2002 08 05 5:00 -66.0 -67.25 9 1 686.1 6 60 60 400 100 2 20 2 40 15 200 100 2 10 1 90 15 300 0 1 0
NBP0204 2002 08 05 6:00 -66.1 -67.417 9 2 699.5 7 60 60 400 100 2 20 1 40 15 200 100 2 10 1 90 10 300 0 1 0
NBP0204 2002 08 05 7:00 -66.183 -67.583 9 1 711.4 7 60 60 400 100 2 20 1 40 15 200 100 2 10 1 90 10 300 0 1 0
NBP0204 2002 08 05 8:00 -66.267 -67.7 9 2 722.0 7 60 60 400 100 2 20 1 40 15 200 100 2 10 1 90 10 300 0 1 0
NBP0204 2002 08 05 9:00 -66.35 -67.867 8 1 733.9 3 70 90 600 601 3 15 4 60 50 500 601 3 7 1 40 10 200 100 1 0
NBP0204 2002 08 05 10:00 -66.433 -67.75 9 1 744.5 2 70 90 500 601 3 15 6 60 50 500 601 3 10 1 90 10 300 0 1 0
NBP0204 2002 08 05 11:00 -66.5 -67.633 9 1 753.6 7 70 70 600 601 3 15 1 30 20 100 100 3 7 1 40 10 200 100 2 1 thicker (~1m) FY floes occupying <1/10 coverage
NBP0204 2002 08 05 12:00 -66.517 -67.417 9 1 763.3 8 70 70 600 611 3 20 1 40 10 200 100 2 5 thicker (~1m) FY floes occupying <1/10 coverage
NBP0204 2002 08 05 13:00 -66.533 -67.267 9 1 770.2 7 70 70 600 631 3 20 2 50 15 200 100 1 0
NBP0204 2002 08 06 10:00 -66.5 -67.033 7 2 781.2 3 70 85 700 601 3 25 2 60 60 400 100 3 15 2 40 10 200 100 1 0
NBP0204 2002 08 06 16:00 -66.483 -67.017 9 1 783.2 3 70 105 600 621 3 15 4 60 50 400 601 3 10 2 12 5 0 0 1 0
NBP0204 2002 08 06 17:00 -66.6 -68.067 10 1 831.4 9 60 60 700 621 3 20 1 40 10 200 100 1 0
NBP0204 2002 08 07 1:00 -66.667 -67.133 10 1 873.2 9 60 65 600 621 3 20 1 40 10 200 100 1 0
NBP0204 2002 08 07 2:00 -66.633 -67.2 9 3 878.0 8 60 65 600 621 3 20 1 40 10 200 100 1 0
NBP0204 2002 08 07 4:00 -66.6 -67.4 9 2 887.5 8 60 65 600 621 3 20 1 40 10 200 100 1 0
NBP0204 2002 08 07 11:00 -66.533 -67.5 9 1 896.1 3 70 100 600 631 3 20 4 60 50 500 681 3 20 2 60 50 400 601 2 10
NBP0204 2002 08 07 12:00 -66.533 -67.467 9 1 897.6 3 70 100 400 631 3 20 4 60 50 500 681 3 20 2 60 50 400 601 2 10
NBP0204 2002 08 07 13:00 -66.533 -67.317 9 1 904.2 2 70 100 500 631 3 20 4 60 50 500 631 3 10 3 40 10 200 100 1 0
NBP0204 2002 08 07 14:00 -66.517 -67.3 9 1 906.2 2 70 100 500 631 3 20 4 60 55 500 681 3 15 3 40 10 200 100 1 0
NBP0204 2002 08 07 15:00 -66.517 -67.233 9 1 909.2 5 60 60 600 601 3 17 2 60 60 600 682 3 17 2 40 10 200 100 1 0 dense algal coloration (interior to bottom); FY floes 0.5-0.7m; heavily ridged (682)
NBP0204 2002 08 07 16:00 -66.533 -67.183 10 1 912.1 3 60 70 600 682 3 17 4 60 60 600 611 3 17 3 40 10 200 100 1 0
NBP0204 2002 08 07 17:00 -66.533 -67.083 9 1 916.5 2 60 60 600 641 3 17 3 60 60 600 100 3 17 4 40 10 200 100 1 0
NBP0204 2002 08 07 20:00 -66.567 -67.083 8 2 920.2 8 60 60 600 681 3 20 towing MOC-10
NBP0204 2002 08 07 22:00 -66.617 -66.1 9 1 963.9 8 60 60 600 681 3 20 1 40 10 200 100 1 0 towing MOC-10
NBP0204 2002 08 07 23:00 -66.6 -67.133 9 1 1009.5 7 60 60 600 681 3 25 2 50 15 200 100 1 0 YG and white ice with \"blooms\"
NBP0204 2002 08 08 0:00 -66.6 -67.133 9 1 1009.5 9 60 60 500 100 3 20
NBP0204 2002 08 08 10:00 -66.517 -67.733 10 0 1037.5 10 60 60 500 681 3 20 Traveling w/in same vicinity due to Gould assistance operations.
NBP0204 2002 08 08 11:00 -66.5 -67.733 10 0 1039.4 10 60 60 500 681 3 20 Traveling w/in same vicinity due to Gould assistance operations.
NBP0204 2002 08 08 12:00 -66.5 -67.733 10 0 1039.4 10 60 60 500 681 3 20 Traveling w/in same vicinity due to Gould assistance operations.
NBP0204 2002 08 08 13:00 -66.533 -67.767 10 0 1043.4 10 60 60 500 681 3 20 Traveling w/in same vicinity due to Gould assistance operations.
NBP0204 2002 08 08 14:00 -66.533 -67.767 10 0 1043.4 10 60 60 500 681 3 20 Traveling w/in same vicinity due to Gould assistance operations.
NBP0204 2002 08 08 15:00 -66.533 -67.783 10 0 1044.1 10 60 60 500 681 3 20 Traveling w/in same vicinity due to Gould assistance operations.
NBP0204 2002 08 08 16:00 -66.533 -67.783 10 0 1044.1 10 60 60 500 681 3 20 Traveling w/in same vicinity due to Gould assistance operations.
NBP0204 2002 08 08 17:00 -66.517 -67.833 10 0 1047.0 10 60 60 500 691 3 25 Traveling w/in same vicinity due to Gould assistance operations.
NBP0204 2002 08 08 18:00 -66.517 -67.883 10 0 1049.2 10 60 60 500 691 3 25 Traveling w/in same vicinity due to Gould assistance operations.
NBP0204 2002 08 08 19:00 -66.517 -68.15 10 0 1061.0 10 60 60 500 651 3 20
NBP0204 2002 08 08 20:00 -66.567 -68.35 10 0 1071.4 10 60 60 500 651 3 20
NBP0204 2002 08 08 21:00 -66.6 -68.583 9 1 1082.4 8 60 60 500 621 3 20 1 50 15 200 100 3 2
NBP0204 2002 08 08 22:00 -66.617 -68.717 9 1 1088.5 8 60 60 500 611 3 20 1 50 15 200 100 3 2
NBP0204 2002 08 08 23:00 -66.667 -68.867 9 1 1097.2 8 60 60 500 611 3 20 1 50 15 200 100 3 2
NBP0204 2002 08 09 0:00 -66.733 -69.017 9 1 1107.1 8 60 60 500 611 3 20 1 50 15 200 100 3 2
NBP0204 2002 08 09 1:00 -66.717 -69.0 9 1 1109.1 8 60 60 500 611 3 20 1 50 15 200 100 3 2
NBP0204 2002 08 09 2:00 -66.833 -69.317 9 1 1128.1 8 60 70 500 611 3 20 1 50 15 200 100 3 2
NBP0204 2002 08 09 3:00 -66.867 -69.483 9 1 1136.2 8 60 70 500 611 3 20 1 50 15 200 100 3 3
NBP0204 2002 08 09 4:00 -66.917 -69.667 9 1 1146.0 8 60 70 500 611 3 20 1 50 15 200 100 3 3
NBP0204 2002 08 09 5:00 -66.967 -69.883 9 1 1156.9 8 60 70 500 611 3 20 1 50 15 200 100 3 3
NBP0204 2002 08 09 6:00 -67.017 -69.983 10 0 1164.0 9 60 70 500 611 3 20 1 50 15 200 100 3 3
NBP0204 2002 08 09 7:00 -67.05 -70.183 10 0 1173.4 9 60 70 500 611 3 20 1 50 15 200 100 3 3
NBP0204 2002 08 09 8:00 -67.083 -70.317 9 1 1180.2 8 60 70 500 611 3 20 1 50 15 200 100 3 3
NBP0204 2002 08 09 9:00 -67.133 -70.483 10 0 1189.3 6 70 80 800 611 3 20 4 60 35 800 611 3 20 Vast floes of FY ice of mixed thickness (80cm ice w/ 30-40cm) consolidated together.
NBP0204 2002 08 09 10:00 -67.183 -70.533 10 0 1195.3 7 70 80 600 611 3 20 3 40 15 200 100 2 5
NBP0204 2002 08 09 15:00 -67.2 -70.583 10 0 1198.1 7 70 80 500 601 2 15 3 60 40 400 601 2 15
NBP0204 2002 08 09 18:00 -67.233 -70.65 10 0 1202.8 5 70 80 800 612 3 15 5 60 60 800 612 3 15 Vast floes of FY ice of mixed thickness (80cm ice w/ 30-40cm) consolidated together.
NBP0204 2002 08 09 19:00 -67.283 -70.817 10 0 1211.9 5 70 80 800 612 3 15 5 60 60 800 612 3 15 Vast floes of FY ice of mixed thickness (80cm ice w/ 30-40cm) consolidated together.
NBP0204 2002 08 09 20:00 -67.35 -71.017 10 0 1223.2 5 70 80 800 612 3 15 5 60 60 800 612 3 15 Vast floes of FY ice of mixed thickness (80cm ice w/ 30-40cm) consolidated together.
NBP0204 2002 08 09 21:00 -67.383 -71.117 10 0 1228.8 5 70 85 800 612 3 15 5 60 55 800 612 3 15 Vast floes of FY ice of mixed thickness (80cm ice w/ 30-40cm) consolidated together.
NBP0204 2002 08 09 22:00 -67.45 -71.317 10 0 1240.1 4 70 85 800 611 3 15 6 60 55 800 611 3 15 Intermittent 1-2m wide YGice (~5cm) cracks running perpendicular to ship; 20% FY ice has >50cm snow z than the rest.
NBP0204 2002 08 09 23:00 -67.5 -71.467 10 0 1248.6 5 70 80 800 611 3 15 4 60 55 800 611 3 15 1 40 10 200 100 3 1
NBP0204 2002 08 10 0:00 -67.533 -71.65 10 0 1257.2 5 70 80 800 611 3 15 5 60 60 800 611 3 15
NBP0204 2002 08 10 1:00 -67.583 -71.85 10 0 1267.4 5 70 80 800 611 3 15 5 60 60 800 611 3 15
NBP0204 2002 08 10 2:00 -67.633 -72.033 10 0 1276.9 5 70 80 800 611 3 15 5 60 60 800 611 3 15
NBP0204 2002 08 10 3:00 -67.7 -72.25 10 0 1288.7 5 70 80 800 611 3 15 4 60 60 700 611 3 15 1 40 10 200 100 1 1
NBP0204 2002 08 10 4:00 -67.067 -72.383 10 0 1359.2 5 70 80 700 611 3 15 4 60 60 600 611 3 15 1 40 10 200 100 2 1
NBP0204 2002 08 10 5:00 -67.8 -72.6 10 0 1441.1 5 70 80 700 611 3 15 4 60 60 600 611 3 15 1 40 10 200 100 2 1
NBP0204 2002 08 10 6:00 -67.833 -72.717 10 0 1447.3 5 70 80 700 611 3 15 4 60 60 600 611 3 15 1 40 10 200 100 2 1
NBP0204 2002 08 10 7:00 -67.933 -72.867 10 0 1460.0 4 70 80 700 611 3 15 5 60 60 600 611 3 15 1 40 10 200 100 2 1
NBP0204 2002 08 10 8:00 -67.933 -72.983 10 0 1464.9 4 70 80 700 611 3 15 5 60 60 600 611 3 15 1 40 10 200 100 2 1
NBP0204 2002 08 10 9:00 -68.05 -73.117 10 0 1479.0 10 70 90 700 631 3 17
NBP0204 2002 08 10 10:00 -68.067 -73.183 10 0 1482.3 5 70 90 600 632 3 20 5 60 60 600 621 3 20 10% of the floes have 0.5-1m more snow thickness than the rest (2nd yr floe?)
NBP0204 2002 08 10 12:00 -68.117 -73.333 10 0 1490.6 10 70 90 700 642 3 30
NBP0204 2002 08 10 14:00 -68.117 -73.433 10 0 1494.8 10 70 90 700 642 3 30
NBP0204 2002 08 10 15:00 -68.1 -73.283 10 0 1501.3 10 70 90 700 642 3 30
NBP0204 2002 08 10 16:00 -68.0 -73.783 10 0 1524.7 10 70 90 700 642 3 30
NBP0204 2002 08 10 18:00 -67.95 -74.317 10 0 1547.6 5 70 90 800 672 3 40 5 60 60 800 672 3 40
NBP0204 2002 08 10 19:00 -67.967 -74.433 10 0 1552.8 5 70 85 800 672 3 35 5 60 60 800 672 3 40
NBP0204 2002 08 10 20:00 -67.983 -74.633 8 2 1561.3 4 70 80 800 651 3 35 4 60 60 800 651 3 40
NBP0204 2002 08 10 21:00 -68.05 -74.817 9 1 1572.0 3 70 80 800 651 3 35 5 60 60 800 651 3 40 1 40 10 200 100 1 0
NBP0204 2002 08 10 22:00 -68.05 -75.067 10 0 1582.3 3 70 80 800 651 3 30 7 60 60 800 651 3 30
NBP0204 2002 08 10 23:00 -68.1 -75.233 10 0 1591.2 4 70 80 800 661 3 30 6 60 60 800 661 3 30
NBP0204 2002 08 11 0:00 -68.15 -75.467 10 0 1602.4 2 70 70 800 651 3 30 4 60 60 800 651 3 30 4 50 15 200 100 10 0
NBP0204 2002 08 11 2:00 -68.133 -75.4 10 0 1605.7 6 70 80 800 651 3 30 4 60 60 800 651 3 30
NBP0204 2002 08 11 3:00 -68.283 -76.1 10 0 1639.1 6 70 70 700 681 3 30 4 60 60 700 681 3 30
NBP0204 2002 08 11 4:00 -68.367 -76.217 10 0 1649.5 8 70 70 700 681 3 30 2 60 60 700 681 3 30
NBP0204 2002 08 11 5:00 -68.45 -76.383 10 0 1661.0 8 70 75 700 681 3 30 2 60 60 700 681 3 30
NBP0204 2002 08 11 6:00 -68.55 -76.467 10 0 1672.6 8 70 75 700 681 3 30 2 60 50 700 681 3 30
NBP0204 2002 08 11 7:00 -68.65 -76.45 10 0 1683.7 6 70 70 700 681 3 30 4 60 40 600 681 3 30
NBP0204 2002 08 11 10:00 -68.767 -76.033 10 0 1704.9 10 70 75 700 642 3 20
NBP0204 2002 08 11 11:00 -68.767 -76.033 10 0 1704.9 10 70 105 700 642 3 40
NBP0204 2002 08 11 12:00 -68.7 -76.183 10 0 1714.5 10 70 105 700 642 3 20
NBP0204 2002 08 11 13:00 -68.683 -76.183 10 0 1716.3 10 70 105 700 642 3 20
NBP0204 2002 08 11 22:00 -68.7 -76.033 10 0 1722.7 5 70 70 800 641 3 30 5 60 55 800 641 3 30
NBP0204 2002 08 12 0:00 -68.733 -76.0 10 0 1726.6 5 70 70 800 641 3 30 5 60 55 200 641 3 30
NBP0204 2002 08 12 1:30 -68.733 -75.95 10 0 1728.6 4 70 90 800 641 3 30 6 60 55 700 641 3 30
NBP0204 2002 08 12 3:00 -68.733 -75.8 10 0 1734.6 4 70 80 800 641 3 35 6 60 55 700 641 3 30
NBP0204 2002 08 12 8:00 -68.8 -75.533 10 0 1747.7 5 70 80 700 641 3 40 5 60 55 600 641 3 40
NBP0204 2002 08 12 9:00 -68.833 -75.4 9 1 1754.2 6 70 105 700 631 3 25 3 60 40 600 611 3 30
NBP0204 2002 08 12 10:00 -68.85 -75.4 10 0 1756.0 10 70 95 700 631 3 25
NBP0204 2002 08 12 11:00 -68.867 -75.35 10 0 1758.8 10 70 95 700 631 3 30
NBP0204 2002 08 12 12:00 -68.9 -75.317 9 1 1762.7 9 70 95 700 631 3 30
NBP0204 2002 08 12 13:00 -68.9 -75.15 7 3 1769.4 5 60 60 700 100 3 20 2 40 10 200 100 1 0
NBP0204 2002 08 12 23:00 -68.85 -75.35 10 0 1779.1 10 70 80 800 611 3 20
NBP0204 2002 08 13 0:00 -68.867 -75.45 8 2 1783.5 7 70 75 800 100 3 15 1 40 10 200 100 1 0
NBP0204 2002 08 13 1:00 -68.917 -75.533 10 0 1790.0 7 70 75 800 100 3 20 2 60 40 600 100 3 20 1 40 10 500 100 3 10
NBP0204 2002 08 13 2:00 -68.933 -75.55 10 0 1791.9 6 70 80 700 100 3 25 3 60 50 700 100 3 25 1 40 10 500 100 3 10
NBP0204 2002 08 13 3:00 -68.867 -75.383 10 0 1801.9 5 70 75 700 613 3 15 3 60 40 700 613 3 15 2 40 10 500 613 3 10
NBP0204 2002 08 13 4:00 -68.983 -75.517 10 0 1815.9 6 70 80 600 624 3 15 4 60 40 500 624 3 15
NBP0204 2002 08 13 5:00 -69.017 -75.483 9 1 1819.8 9 70 100 800 100 3 15
NBP0204 2002 08 13 6:00 -69.067 -75.4 10 0 1826.3 7 70 85 700 613 3 15 3 60 70 600 613 3 15
NBP0204 2002 08 13 7:00 -69.067 -75.6 6 4 1834.2 3 70 80 600 642 3 15 2 60 55 600 612 3 15 1 40 10 400 100 1 0
NBP0204 2002 08 13 9:00 -69.05 -75.633 8 2 1836.5 6 70 80 700 631 3 20 2 60 50 500 601 3 15
NBP0204 2002 08 13 13:00 -69.033 -75.767 9 1 1842.1 7 70 85 700 631 3 20 1 60 50 600 601 3 12 1 12 5 0 0 1 0
NBP0204 2002 08 13 14:00 -69.017 -75.967 10 0 1850.3 10 70 85 800 641 3 30
NBP0204 2002 08 13 15:00 -69.0 -75.033 10 0 1887.4 10 70 95 800 651 3 35
NBP0204 2002 08 13 16:00 -69.017 -76.233 9 1 1935.2 9 70 95 800 651 3 25
NBP0204 2002 08 13 20:00 -68.967 -76.3 10 0 1941.3 5 70 75 800 621 3 20 5 60 55 800 621 3 20
NBP0204 2002 08 13 21:00 -68.917 -76.367 10 0 1947.5 5 70 75 800 621 3 20 5 60 55 800 621 3 20
NBP0204 2002 08 13 22:00 -68.883 -76.433 10 0 1952.0 5 70 75 800 621 3 20 5 60 55 800 621 3 20
NBP0204 2002 08 13 23:00 -68.867 -76.633 10 0 1960.2 5 70 75 800 631 3 20 5 60 55 800 631 3 20
NBP0204 2002 08 14 0:00 -68.817 -76.6 10 0 1966.0 5 70 75 800 631 3 20 5 60 60 800 631 3 20
NBP0204 2002 08 14 2:00 -68.817 -76.85 10 0 1976.0 4 70 80 700 621 3 20 3 60 55 700 631 3 20 3 40 10 200 100 2 1
NBP0204 2002 08 14 4:00 -68.817 -76.8 8 2 1978.0 3 70 75 700 611 3 20 2 60 45 500 611 3 20 3 40 10 200 100 2 2
NBP0204 2002 08 14 9:30 -68.7 -76.583 9 1 1993.6 4 70 75 800 631 3 20 5 60 60 800 631 3 20
NBP0204 2002 08 14 10:00 -68.65 -76.517 9 1 1999.7 8 70 75 700 641 3 20 1 12 5 0 0 1 0
NBP0204 2002 08 14 11:00 -68.55 -76.383 9 1 2012.1 8 70 75 700 641 3 20 1 12 5 0 0 1 0
NBP0204 2002 08 14 12:00 -68.533 -76.3 10 0 2015.9 10 70 75 700 641 3 20
NBP0204 2002 08 14 16:00 -68.4 -76.117 9 1 2032.5 8 70 80 700 641 3 25 1 60 60 500 601 3 15
NBP0204 2002 08 14 17:00 -68.35 -75.95 10 0 2041.3 1 70 75 800 631 3 20 9 60 50 800 631 3 20
NBP0204 2002 08 14 18:00 -68.317 -75.817 10 0 2047.9 2 70 75 800 641 3 25 8 60 50 800 641 3 25
NBP0204 2002 08 14 19:00 -68.283 -75.733 10 0 2052.9 4 70 85 800 631 3 25 6 60 60 800 631 3 25
NBP0204 2002 08 14 20:00 -68.283 -75.65 10 0 2056.3 4 70 85 800 631 3 25 6 60 60 800 631 3 25
NBP0204 2002 08 14 23:00 -68.267 -75.55 10 0 2060.9 4 70 80 800 631 3 25 6 60 60 800 631 3 25
NBP0204 2002 08 15 0:00 -68.3 -75.467 10 0 2065.9 4 70 80 800 641 3 25 6 60 55 800 631 3 25
NBP0204 2002 08 15 2:00 -68.367 -75.233 9 1 2078.0 6 70 90 700 631 3 25 3 60 55 700 631 3 25
NBP0204 2002 08 15 3:00 -68.417 -75.133 9 1 2084.9 5 70 80 700 631 3 25 4 60 55 700 631 3 25
NBP0204 2002 08 15 4:15 -68.45 -75.05 10 0 2089.9 6 70 80 700 631 3 25 4 60 55 700 631 3 25
NBP0204 2002 08 15 9:00 -68.5 -74.767 8 2 2102.7 7 70 75 700 621 3 25 1 50 30 500 601 3 15
NBP0204 2002 08 15 11:00 -68.55 -74.35 8 2 2120.6 7 70 80 700 621 3 20 1 50 25 500 601 3 15
NBP0204 2002 08 15 12:00 -68.55 -74.233 10 0 2125.3 10 70 90 700 631 3 30
NBP0204 2002 08 15 13:00 -68.633 -74.267 10 0 2134.7 10 70 110 700 641 3 30
NBP0204 2002 08 15 14:00 -68.567 -74.15 9 1 2143.4 9 70 110 700 641 3 30
NBP0204 2002 08 15 15:00 -68.583 -74.067 6 4 2147.3 2 70 110 700 641 3 30 2 60 30 500 601 3 15 2 20 5 200 100 2 1
NBP0204 2002 08 16 2:00 -68.583 -73.967 9 2 2151.3 5 70 85 800 811 3 15 4 60 55 800 811 3 15
NBP0204 2002 08 16 3:00 -68.567 -73.933 10 0 2153.6 6 70 85 700 731 3 25 4 60 55 700 731 3 25
NBP0204 2002 08 16 4:30 -68.55 -73.767 10 0 2160.6 6 70 85 800 731 3 30 4 60 55 800 731 3 35
NBP0204 2002 08 16 5:00 -68.55 -75.75 10 0 2241.1 6 70 95 800 742 3 35 4 60 55 800 732 3 35
NBP0204 2002 08 16 10:00 -68.533 -74.05 10 0 2310.2 10 70 85 700 641 3 20
NBP0204 2002 08 16 11:00 -68.517 -74.117 8 2 2313.4 7 70 85 700 641 3 20 1 11 10 0 0 1 0
NBP0204 2002 08 16 12:00 -68.5 -74.4 10 0 2325.1 10 70 85 700 641 3 20
NBP0204 2002 08 16 13:00 -68.483 -74.567 9 1 2332.1 7 70 85 700 641 3 20 2 60 50 500 621 3 7
NBP0204 2002 08 16 14:00 -68.467 -74.633 8 2 2335.4 5 70 85 700 641 3 30 2 60 50 500 621 3 7 1 40 10 200 100 2 5
NBP0204 2002 08 16 15:00 -68.433 -74.767 10 0 2342.0 10 70 85 700 641 3 30
NBP0204 2002 08 16 20:00 -68.417 -74.9 9 1 2347.7 5 60 60 800 631 3 20 4 40 10 200 100 1 0
NBP0204 2002 08 16 21:00 -68.4 -74.867 10 0 2350.0 5 70 75 800 631 3 25 5 60 60 800 631 3 25
NBP0204 2002 08 16 22:00 -68.383 -74.867 9 1 2351.9 4 70 80 800 631 3 25 4 60 60 800 631 3 25 1 40 10 200 100 1 0
NBP0204 2002 08 16 23:00 -68.35 -74.983 9 1 2357.9 4 70 75 800 631 3 25 5 60 55 800 631 3 25
NBP0204 2002 08 17 0:00 -68.333 -75.983 9 1 2398.9 3 70 70 800 621 3 20 5 60 45 800 621 3 20 1 50 15 200 100 1 0
NBP0204 2002 08 17 2:00 -68.25 -74.933 10 0 2442.9 7 70 75 600 622 3 20 2 60 45 600 622 3 20 1 40 10 200 100 1 0
NBP0204 2002 08 17 3:00 -68.233 -74.9 10 0 2445.2 5 70 75 600 622 3 20 5 60 45 600 622 3 20
NBP0204 2002 08 17 6:00 -68.167 -74.817 10 0 2453.4 5 70 80 600 622 3 20 5 60 45 600 622 3 20
NBP0204 2002 08 17 7:00 -68.117 -74.767 10 0 2459.3 5 70 85 600 632 3 30 5 60 45 600 622 3 20
NBP0204 2002 08 17 17:00 -68.133 -74.633 8 2 2465.1 2 70 80 600 631 3 30 5 60 50 600 631 3 30 1 40 10 200 100 1 0
NBP0204 2002 08 17 18:00 -68.133 -74.617 8 2 2465.8 2 70 80 600 631 3 30 5 60 50 600 631 3 30 1 40 10 200 100 1 0
NBP0204 2002 08 17 19:00 -68.067 -74.65 9 1 2473.4 3 70 80 600 631 3 30 5 60 50 600 631 3 30 1 90 5 300 0 1 0
NBP0204 2002 08 17 20:00 -68.017 -74.617 10 0 2479.1 4 70 80 600 641 3 30 6 60 50 600 641 3 30
NBP0204 2002 08 17 21:00 -68.017 -74.65 9 1 2480.5 2 70 80 600 651 3 25 7 60 50 600 651 3 25
NBP0204 2002 08 17 22:00 -67.933 -74.6 9 1 2489.9 2 70 80 600 631 3 25 7 60 50 600 631 3 25
NBP0204 2002 08 17 23:00 -67.883 -74.4 10 0 2500.0 2 70 80 600 641 3 25 4 60 50 600 631 3 25 4 40 10 200 100 1 0
NBP0204 2002 08 18 0:00 -67.817 -74.183 5 6 2511.6 2 70 80 600 651 4 20 3 60 50 600 651 3 20
NBP0204 2002 08 18 1:00 -67.783 -74.0 6 4 2520.2 1 70 70 600 611 3 20 4 60 40 600 611 3 20 1 40 15 200 100 1 0
NBP0204 2002 08 18 2:00 -67.783 -73.75 6 4 2530.7 2 70 70 600 621 3 15 2 60 40 600 621 3 15 2 50 15 200 100 1 0
NBP0204 2002 08 18 3:00 -67.75 -73.5 8 2 2541.8 2 60 40 600 621 3 12 4 50 20 200 100 3 15 2 40 15 200 100 1 0
NBP0204 2002 08 18 4:00 -67.75 -73.267 9 1 2551.6 3 70 70 600 621 3 20 3 60 35 500 621 3 20 3 50 20 200 100 2 1
NBP0204 2002 08 18 5:00 -67.733 -73.05 9 1 2560.9 3 70 70 600 621 3 20 4 60 35 500 621 3 20 2 50 15 200 100 2 1
NBP0204 2002 08 18 6:00 -67.717 -73.033 10 0 2562.9 5 70 70 600 621 3 20 3 60 35 500 621 3 20 2 50 15 200 100 1 0
NBP0204 2002 08 18 7:00 -67.7 -73.1 9 1 2566.2 5 70 70 600 631 3 20 4 60 40 500 632 3 20
NBP0204 2002 08 18 10:00 -67.583 -73.283 10 0 2581.3 7 70 80 700 641 2 15 2 60 50 600 631 2 15 1 10 10 0 0 1 0
NBP0204 2002 08 18 11:00 -67.533 -73.25 7 4 2587.0 5 70 80 700 641 3 15 1 60 50 600 631 3 15 1 11 10 0 0 1 0
NBP0204 2002 08 18 12:00 -67.5 -73.0 8 3 2598.3 3 70 80 700 641 3 15 3 40 15 400 631 3 10 2 11 10 0 0 1 0
NBP0204 2002 08 18 13:00 -67.533 -73.75 6 5 2630.3 3 70 80 700 641 3 20 2 90 20 300 0 1 0 1 12 5 0 0 1 0
NBP0204 2002 08 18 14:00 -67.5 -71.517 7 5 2725.2 3 70 80 700 641 3 20 1 40 10 500 100 2 10 3 11 5 0 0 1 0
NBP0204 2002 08 18 15:00 -67.533 -72.333 8 2 2760.0 5 70 100 700 641 3 20 2 40 10 500 100 2 10 1 11 5 0 0 1 0
NBP0204 2002 08 18 16:00 -67.583 -72.067 7 2 2772.6 3 70 100 700 641 2 20 2 40 10 500 100 2 10 2 11 5 0 0 1 0
NBP0204 2002 08 18 17:00 -67.583 -71.783 8 2 2784.6 7 60 55 600 631 3 20 1 90 7 300 0 1 0
NBP0204 2002 08 18 18:00 -67.567 -71.617 8 2 2791.9 7 60 55 600 631 3 20 1 90 7 300 0 1 0
NBP0204 2002 08 18 19:00 -67.583 -71.467 10 0 2798.5 10 60 55 600 631 3 20
NBP0204 2002 08 18 20:00 -67.633 -71.583 10 0 2806.0 10 60 55 600 632 3 25
NBP0204 2002 08 18 21:00 -67.683 -72.633 9 1 2850.7 1 60 50 400 621 3 12 8 50 15 200 100 1 0
NBP0204 2002 08 18 22:00 -67.767 -71.817 10 0 2886.3 8 60 60 500 671 3 25 2 50 15 200 100 1 0
NBP0204 2002 08 18 23:00 -67.767 -71.817 10 0 2886.3 6 60 60 500 671 3 25 4 50 15 200 100 1 0
NBP0204 2002 08 19 0:00 -67.733 -71.8 10 0 2890.1 3 60 50 600 621 3 10 7 50 15 200 100 1 0
NBP0204 2002 08 19 17:00 -67.45 -71.433 9 1 2925.1 9 50 15 200 100 3 5
NBP0204 2002 08 19 19:00 -67.4 -71.233 9 1 2935.3 9 50 20 200 100 3 5
NBP0204 2002 08 19 20:00 -67.367 -71.183 10 0 2939.5 10 60 40 600 661 3 20
NBP0204 2002 08 19 21:00 -67.367 -71.167 10 0 2940.3 10 60 40 600 661 3 20
NBP0204 2002 08 19 22:00 -67.35 -71.15 10 0 2942.2 10 60 40 600 661 3 20
NBP0204 2002 08 19 23:00 -67.367 -71.367 9 1 2951.7 9 50 15 200 100 3 5
NBP0204 2002 08 20 0:00 -67.333 -71.5 8 2 2958.5 7 60 50 600 671 3 20 1 50 15 200 100 3 2
NBP0204 2002 08 20 4:00 -67.267 -72.333 5 3 2994.9 5 30 10 100 100 1 0
NBP0204 2002 08 20 5:00 -67.25 -72.55 7 3 3004.4 7 30 10 100 100 2 2
NBP0204 2002 08 20 15:00 -67.2 -72.683 9 2 3012.3 8 70 80 700 631 3 20 1 10 5 0 0 1 0
NBP0204 2002 08 20 16:00 -67.2 -72.833 9 3 3018.8 9 70 80 700 631 3 20
NBP0204 2002 08 20 17:00 -67.2 -73.0 10 2 3026.0 6 60 50 700 641 3 15 2 50 15 200 100 1 0 2 40 10 200 100 2 5 following leads
NBP0204 2002 08 20 18:00 -67.2 -73.15 10 2 3032.4 6 60 50 700 641 3 15 2 50 15 200 100 1 0 2 40 10 200 100 2 5 following leads
NBP0204 2002 08 20 19:00 -67.15 -73.283 9 1 3040.4 5 60 40 500 641 3 15 2 50 15 200 100 2 5 2 40 10 200 100 2 5
NBP0204 2002 08 20 20:00 -67.117 -73.383 9 2 3046.1 5 60 50 600 642 3 15 4 50 15 200 100 2 5 following earlier leads
NBP0204 2002 08 20 21:00 -67.15 -73.267 9 2 3052.3 5 60 50 600 662 3 20 3 40 15 200 100 1 0 1 12 1 0 0 1 0 following leads
NBP0204 2002 08 21 0:00 -67.1 -73.333 9 1 3058.6 4 60 50 700 681 3 15 2 50 15 200 100 2 5 3 40 10 200 100 1 0
NBP0204 2002 08 21 13:00 -67.067 -73.8 10 2 3079.1 9 70 70 400 641 3 15 1 50 15 500 100 3 15
NBP0204 2002 08 21 14:00 -67.1 -73.983 10 0 3087.8 10 70 70 400 641 3 17 <1% coverage by small to medium 2nd yr floe (~1-2m snow height) thru out consolidated FY pack.
NBP0204 2002 08 21 15:00 -67.05 -74.167 10 0 3097.5 10 70 70 400 641 3 17
NBP0204 2002 08 21 16:00 -67.167 -74.183 9 3 3110.5 7 70 80 700 651 3 20 1 50 20 500 601 3 10 1 11 5 0 0 1 0
NBP0204 2002 08 21 17:00 -67.217 -74.467 10 0 3123.9 9 60 50 800 681 3 20 1 50 15 200 100 3 5 <1% coverage of small to medium 2nd yr floes (~1-2m snow height) thru out consolidated FY pack.
NBP0204 2002 08 21 23:00 -67.2 -74.467 10 2 3125.7 7 60 50 800 671 3 20 3 50 15 200 100 3 5
NBP0204 2002 08 22 0:00 -67.183 -74.483 8 2 3127.7 5 60 50 700 671 3 20 3 50 15 200 100 2 5
NBP0204 2002 08 22 9:00 -67.267 -74.2 10 1 3143.0 10 70 95 800 631 3 25
NBP0204 2002 08 22 10:00 -67.3 -74.15 10 1 3147.3 10 70 95 800 631 3 25
NBP0204 2002 08 22 11:00 -67.333 -74.05 8 3 3152.9 7 70 95 800 631 3 25 1 40 10 500 100 2 5
NBP0204 2002 08 22 12:00 -67.383 -74.017 10 1 3158.7 9 70 80 800 641 3 25 1 40 10 500 100 2 5
NBP0204 2002 08 22 13:00 -67.4 -73.967 10 1 3161.5 9 70 80 800 641 3 25 1 40 10 500 100 2 5
NBP0204 2002 08 22 14:00 -67.417 -73.867 10 1 3166.1 10 70 90 800 651 3 20
NBP0204 2002 08 22 15:00 -67.45 -73.817 10 0 3170.4 10 70 100 800 641 3 20
NBP0204 2002 08 22 18:00 -67.45 -73.8 10 0 3171.1 7 60 60 700 661 3 15 3 50 20 200 100 3 8
NBP0204 2002 08 22 19:00 -67.467 -73.833 9 1 3173.5 6 60 60 700 661 3 15 3 50 20 200 100 3 5
NBP0204 2002 08 22 20:00 -67.483 -73.783 10 0 3176.3 5 60 60 700 661 3 15 4 50 20 200 100 3 5 1 11 5 0 0 1 0
NBP0204 2002 08 22 21:00 -67.483 -73.867 10 0 3179.8 8 60 60 700 661 3 15 2 50 20 200 100 3 5
NBP0204 2002 08 22 22:00 -67.483 -74.017 10 0 3186.2 6 60 50 700 671 3 15 4 50 20 200 100 3 5
NBP0204 2002 08 22 23:00 -67.467 -74.183 10 0 3193.5 7 60 50 700 651 3 20 3 50 20 200 100 3 5
NBP0204 2002 08 23 0:00 -67.5 -74.3 10 0 3199.7 5 60 60 700 651 3 20 5 50 20 200 100 3 5
NBP0204 2002 08 23 2:00 -67.5 -74.467 9 1 3206.8 7 70 80 700 643 3 25 2 60 60 600 643 3 25
NBP0204 2002 08 23 5:00 -67.483 -74.8 10 0 3221.1 7 70 100 700 643 3 25 3 60 65 600 643 3 25
NBP0204 2002 08 23 7:00 -67.517 -74.933 10 0 3227.8 5 70 70 700 643 3 20 5 60 40 600 643 3 20
NBP0204 2002 08 23 17:00 -67.533 -74.883 10 0 3230.7 4 60 60 700 651 3 25 6 50 20 200 100 3 5
NBP0204 2002 08 23 18:00 -67.567 -74.8 10 0 3235.8 7 60 60 700 661 3 25 3 50 20 200 100 3 5
NBP0204 2002 08 23 19:00 -67.617 -74.733 10 0 3242.0 5 60 60 700 661 3 25 5 50 20 200 100 2 5
NBP0204 2002 08 23 20:00 -67.633 -74.583 10 0 3248.6 5 60 60 700 661 3 25 5 50 20 200 100 2 5
NBP0204 2002 08 23 21:00 -67.667 -74.583 10 0 3252.3 5 60 60 700 661 3 25 5 50 25 200 100 2 5
NBP0204 2002 08 24 0:00 -67.733 -74.5 0 0 3260.5 0 0 0 0 0 0 0 0 0 0 0 0 0 0 0 0 0 0 0 0 0
NBP0204 2002 08 24 1:00 -67.667 -74.533 10 0 3268.0 7 70 110 600 643 3 40 3 60 60 600 643 3 40
NBP0204 2002 08 24 2:00 -67.7 -74.467 10 0 3272.7 5 70 75 700 633 3 40 5 40 15 600 633 3 10
NBP0204 2002 08 24 4:00 -67.733 -74.5 10 0 3276.6 3 70 70 700 612 3 10 6 60 40 500 612 3 10 1 50 15 200 100 2 2
NBP0204 2002 08 24 6:00 -67.783 -74.417 10 0 3283.2 7 70 85 700 632 3 20 3 60 55 600 632 3 30
NBP0204 2002 08 24 7:00 -67.8 -74.35 10 0 3286.5 9 60 35 800 601 3 20 1 50 15 200 100 1 0
NBP0204 2002 08 24 8:00 -67.8 -74.3 10 0 3288.6 8 70 80 700 654 3 20 2 60 30 600 654 3 20
NBP0204 2002 08 24 13:00 -67.817 -74.167 10 1 3294.5 10 70 90 700 631 3 20
NBP0204 2002 08 24 14:00 -67.817 -73.983 10 1 3302.2 10 70 90 700 631 3 25
NBP0204 2002 08 24 15:00 -67.8 -73.783 10 1 3310.8 7 70 85 600 631 3 23 3 40 10 200 100 1 0
NBP0204 2002 08 24 16:00 -67.817 -73.583 10 1 3319.4 6 70 85 600 621 3 23 4 40 10 200 100 1 0
NBP0204 2002 08 24 17:30 -67.85 -73.317 10 0 3331.2 3 60 50 700 621 3 20 7 50 20 200 100 1 0
NBP0204 2002 08 24 18:30 -67.867 -73.167 10 0 3337.7 10 50 25 200 100 1 0
NBP0204 2002 08 24 21:00 -67.883 -74.1 10 0 3376.8 10 50 25 200 100 2 1
NBP0204 2002 08 24 22:00 -67.9 -74.067 10 0 3379.1 10 50 25 200 100 1 1
NBP0204 2002 08 24 23:00 -67.917 -73.033 10 0 3422.3 10 50 30 200 100 2 5
NBP0204 2002 08 25 0:00 -67.917 -72.95 10 0 3425.8 10 50 30 200 100 3 5
NBP0204 2002 08 25 2:00 -67.917 -72.633 4 6 3439.0 4 40 10 200 100 1 0
NBP0204 2002 08 25 4:15 -67.9 -72.267 4 6 3454.4 4 40 10 200 100 1 0
NBP0204 2002 08 25 7:00 -67.867 -72.083 7 3 3462.9 4 50 15 200 100 3 10 3 30 10 100 200 3 10
NBP0204 2002 08 25 9:00 -68.0 -72.083 10 1 3477.7 6 70 90 600 631 3 25 2 40 15 200 100 1 0 2 11 10 0 0 1 0
NBP0204 2002 08 25 10:00 -68.017 -72.033 9 2 3480.5 6 70 90 600 631 3 25 2 40 15 200 100 1 0 1 11 10 0 0 1 0
NBP0204 2002 08 25 12:00 -68.033 -71.817 7 3 3489.7 4 70 90 600 621 3 15 2 40 15 200 100 1 0 1 12 10 0 0 1 0
NBP0204 2002 08 25 13:00 -68.05 -71.683 6 3 3495.5 2 70 90 600 621 3 15 3 40 15 200 100 1 0 1 12 10 0 0 1 0
NBP0204 2002 08 25 20:00 -68.05 -71.55 9 1 3501.0 5 60 50 700 641 3 25 4 50 15 200 100 2 1
NBP0204 2002 08 25 21:00 -68.033 -71.55 9 1 3502.9 5 60 50 700 641 3 20 4 50 15 200 100 2 1
NBP0204 2002 08 25 22:00 -67.983 -71.567 6 4 3508.5 1 60 50 400 651 3 25 5 50 30 200 100 2 5
NBP0204 2002 08 25 23:00 -67.95 -71.467 10 0 3514.1 4 60 50 600 631 3 10 6 50 30 200 100 2 5
NBP0204 2002 08 26 0:00 -67.933 -71.267 9 1 3522.6 9 50 30 200 641 3 5
NBP0204 2002 08 26 3:00 -67.95 -70.9 9 1 3538.0 9 50 30 200 100 3 5
NBP0204 2002 08 26 4:00 -67.983 -70.767 9 1 3544.7 6 60 55 600 641 3 20 3 50 30 600 100 3 10
NBP0204 2002 08 26 5:00 -68.017 -70.7 9 1 3549.3 4 70 80 600 652 3 30 4 60 50 500 652 3 30 1 50 20 200 100 3 5
NBP0204 2002 08 26 6:00 -68.083 -70.7 9 1 3556.7 5 50 30 400 100 2 6 4 40 10 400 100 1 0
NBP0204 2002 08 26 7:00 -68.067 -70.483 9 1 3565.9 6 70 80 700 662 3 30 2 60 60 700 662 3 30 1 50 20 200 100 3 5
NBP0204 2002 08 26 9:00 -68.033 -70.4 10 1 3570.9 5 70 95 600 641 3 30 3 11 10 0 0 1 0 2 12 10 0 0 1 0
NBP0204 2002 08 26 17:00 -67.983 -70.55 10 0 3579.3 8 60 40 700 641 3 15 2 50 15 200 100 1 0 Backing/ramming with in the same vicinity due to compact ice.
NBP0204 2002 08 26 18:00 -67.983 -70.55 10 0 3579.3 3 70 70 700 672 3 15 5 60 50 700 641 3 15 2 50 15 200 100 1 0 Backing/ramming within same vicinity due to compact ice.
NBP0204 2002 08 26 19:00 -67.983 -70.55 10 0 3579.3 4 70 70 600 682 3 15 6 60 50 600 651 3 15 Backing/ramming within same vicinity due to compact ice.
NBP0204 2002 08 26 20:00 -67.983 -70.533 10 0 3580.0 4 70 70 600 661 3 20 6 60 50 600 651 3 20 Backing/ramming within same vicinity due to compact ice.
NBP0204 2002 08 26 21:00 -67.983 -70.533 10 0 3580.0 4 70 70 700 661 3 20 6 60 50 600 651 3 20 Backing/ramming within same vicinity due to compact ice.
NBP0204 2002 08 26 22:00 -67.983 -70.517 10 0 3580.7 4 70 70 600 661 3 20 6 60 50 600 651 3 20 Backing/ramming within same vicinity due to compact ice.
NBP0204 2002 08 26 23:00 -67.983 -70.517 10 0 3580.7 4 70 70 600 661 3 20 6 60 50 600 651 3 20 Backing/ramming within same vicinity due to compact ice.
NBP0204 2002 08 27 0:00 -68.0 -70.5 10 0 3582.6 4 70 70 600 661 3 20 6 60 50 600 651 3 20
NBP0204 2002 08 27 2:00 -68.017 -70.517 10 0 3584.6 8 70 75 600 644 3 50 2 60 50 600 644 3 40
NBP0204 2002 08 27 6:30 -67.933 -70.9 9 1 3603.0 9 60 50 600 681 3 30
NBP0204 2002 08 27 9:00 -68.017 -70.567 10 0 3619.7 5 70 100 600 642 3 40 4 60 70 600 641 3 30 1 50 20 200 100 3 5
NBP0204 2002 08 27 10:00 -68.017 -70.55 10 1 3620.4 10 70 100 700 641 3 20
NBP0204 2002 08 27 12:00 -68.017 -70.55 9 2 3620.4 8 70 100 700 631 3 30 1 40 15 200 100 1 0
NBP0204 2002 08 27 14:00 -67.983 -70.717 9 2 3628.3 8 70 100 700 631 3 30 1 40 15 200 100 1 0
NBP0204 2002 08 27 16:00 -67.967 -70.783 10 1 3631.6 8 70 100 600 631 3 20 1 40 15 200 100 1 0 1 90 10 300 0 1 0
NBP0204 2002 08 27 19:00 -67.933 -70.9 10 0 3637.7 4 70 75 600 611 3 30 6 60 50 600 681 3 30
NBP0204 2002 08 27 23:00 -67.933 -70.9 9 1 3637.7 4 60 50 600 641 3 30 5 50 20 200 100 3 5
NBP0204 2002 08 28 0:00 -67.933 -71.05 9 1 3644.0 2 60 50 600 661 3 20 7 50 25 200 100 3 5
NBP0204 2002 08 28 3:00 -67.85 -71.1 9 1 3653.4 5 70 85 600 651 3 20 4 60 50 600 651 3 20
NBP0204 2002 08 28 4:00 -67.85 -71.15 9 1 3655.5 5 70 85 600 651 3 25 4 60 50 600 661 3 25
NBP0204 2002 08 28 9:00 -67.783 -71.333 9 2 3666.2 8 70 100 800 651 3 35 1 60 30 600 615 3 18
NBP0204 2002 08 28 10:00 -67.75 -71.467 9 1 3672.9 8 70 100 800 651 3 35 1 60 30 600 615 3 18
NBP0204 2002 08 28 11:00 -67.717 -71.45 10 2 3676.7 10 70 100 800 641 3 35
NBP0204 2002 08 28 12:00 -67.683 -71.583 10 0 3683.4 10 70 100 800 621 3 30
NBP0204 2002 08 28 13:00 -67.65 -71.617 10 0 3687.4 10 70 100 800 621 3 30
NBP0204 2002 08 28 14:00 -67.633 -71.65 10 0 3689.7 10 70 100 800 621 3 30
NBP0204 2002 08 28 15:00 -67.6 -71.733 10 0 3694.8 10 70 100 800 621 3 30
NBP0204 2002 08 28 16:00 -67.55 -71.667 9 2 3701.0 8 70 100 800 621 3 30 1 60 30 600 615 3 18
NBP0204 2002 08 28 17:00 -67.517 -71.667 9 1 3704.7 9 60 60 700 621 3 40
NBP0204 2002 08 28 18:00 -67.467 -71.567 10 0 3711.7 7 60 60 700 631 3 20 3 50 15 200 100 1 0 Large FY floes with 50% algal coloration (bottom section).
NBP0204 2002 08 28 19:00 -67.433 -71.55 10 0 3715.5 10 60 55 800 611 3 35
NBP0204 2002 08 28 20:00 -67.4 -71.55 10 0 3719.2 10 60 55 800 611 3 17
NBP0204 2002 08 28 21:00 -67.383 -71.617 10 0 3722.6 10 60 55 800 652 3 25
NBP0204 2002 08 28 22:00 -67.35 -71.683 10 0 3727.2 5 70 90 800 641 3 35 4 60 65 800 641 3 25 1 50 15 200 100 1 0
NBP0204 2002 08 28 23:00 -67.283 -71.767 10 0 3735.4 7 50 15 200 100 1 0 3 40 10 200 100 1 0
NBP0204 2002 08 29 0:00 -67.217 -71.917 10 0 3745.2 10 60 55 800 631 3 35
NBP0204 2002 08 29 1:00 -67.183 -71.983 10 0 3749.9 8 60 55 700 631 3 20 2 60 50 600 631 3 20
NBP0204 2002 08 29 2:00 -67.133 -72.017 9 1 3755.7 8 60 45 700 641 3 20 1 50 15 200 100 1 0
NBP0204 2002 08 29 17:00 -67.15 -72.15 9 1 3761.7 5 60 50 600 651 3 20 2 50 30 200 100 3 5 2 40 15 200 100 1 0
NBP0204 2002 08 29 18:00 -67.167 -72.133 10 0 3763.7 5 60 50 600 651 3 20 3 50 30 200 100 3 5 2 40 15 200 100 1 0
NBP0204 2002 08 29 19:00 -67.167 -72.167 9 1 3765.1 3 60 50 600 651 3 20 3 50 30 200 100 3 5 3 40 15 200 100 1 0
NBP0204 2002 08 29 20:00 -67.183 -72.183 9 1 3767.1 4 60 50 600 661 3 20 5 50 30 200 100 3 5
NBP0204 2002 08 29 21:00 -67.183 -72.2 9 1 3767.8 4 60 50 600 661 3 20 5 50 30 200 100 3 5
NBP0204 2002 08 29 22:00 -67.183 -72.217 8 2 3768.5 3 70 80 600 661 3 35 3 60 50 600 661 3 35 2 50 20 200 100 1 0
NBP0204 2002 08 29 23:00 -67.167 -72.283 9 1 3772.0 2 60 50 600 621 3 30 7 50 30 200 100 3 5
NBP0204 2002 08 30 0:00 -67.133 -72.283 10 0 3775.7 10 60 60 700 651 3 30
NBP0204 2002 08 30 2:00 -67.083 -72.383 0 9 3782.7
NBP0204 2002 08 30 4:00 -66.933 -72.367 2 8 3799.3 2 60 30 500 651 3 20
NBP0204 2002 08 31 3:00 -66.75 -71.383 10 0 3846.7 10 60 35 500 662 3 20
NBP0204 2002 08 31 4:00 -66.733 -71.183 10 0 3855.7 7 70 70 600 652 3 20 3 60 40 500 652 3 20
NBP0204 2002 08 31 11:00 -66.767 -71.067 7 4 3862.0 5 70 75 700 631 3 30 1 60 40 500 601 3 20 1 11 10 0 0 1 0
NBP0204 2002 08 31 12:00 -66.75 -70.917 9 3 3868.8 3 70 75 700 631 3 30 4 60 40 500 601 3 20 2 11 10 0 0 1 0
NBP0204 2002 08 31 15:00 -66.667 -70.75 7 4 3880.6 1 70 70 500 621 3 25 3 50 20 500 601 3 10 3 40 10 400 100 2 10
NBP0204 2002 08 31 16:00 -66.6 -70.567 9 2 3891.5 8 60 50 500 611 3 15 1 11 10 0 0 1 0
NBP0204 2002 08 31 17:00 -66.533 -70.367 5 5 3903.0 2 60 70 600 631 3 30 3 50 30 700 100 3 15
NBP0204 2002 08 31 18:00 -66.483 -70.167 9 1 3913.5 2 70 75 500 641 3 30 7 60 50 500 641 3 30
NBP0204 2002 08 31 19:15 -66.417 -69.933 9 1 3926.2 3 70 75 500 651 3 30 6 60 50 500 651 3 30
NBP0204 2002 08 31 20:00 -66.383 -69.867 9 1 3930.9 3 70 75 500 651 3 30 6 60 50 500 651 3 30
NBP0204 2002 08 31 21:00 -66.333 -69.733 9 1 3939.1 3 70 75 500 631 3 30 3 60 55 500 631 3 30 3 50 25 500 100 1 0
NBP0204 2002 08 31 22:00 -66.283 -69.533 9 1 3949.6 2 70 75 500 651 3 30 4 60 55 500 651 3 30 3 50 25 500 100 1 0
NBP0204 2002 08 31 23:00 -66.233 -69.383 9 1 3958.3 2 70 75 500 641 3 30 2 60 55 500 641 3 30 5 50 25 500 100 1 0 <1% 2nd yr ice (w/ snow thickness ~1m) dispersed thru out FY ice pack.
NBP0204 2002 09 01 0:00 -66.183 -69.167 9 1 3969.4 4 50 30 200 100 3 5 3 30 15 100 100 3 3 2 90 10 300 0 1 0
NBP0204 2002 09 01 1:00 -66.167 -69.1 9 1 3972.9 8 60 35 400 100 3 15 1 40 5 300 100 3 3
NBP0204 2002 09 01 7:00 -66.15 -69.1 9 1 3974.8 7 60 40 400 100 3 15 1 30 15 100 100 3 10 1 90 10 300 0 1 0
NBP0204 2002 09 01 10:00 -66.15 -69.183 10 1 3978.5 3 50 30 500 601 3 17 7 30 20 100 200 3 10
NBP0204 2002 09 01 11:00 -66.1 -69.317 10 1 3986.7 4 50 30 500 601 3 17 6 30 20 100 200 3 10
NBP0204 2002 09 01 12:00 -66.067 -69.483 10 1 3995.1 2 60 40 500 621 3 20 5 50 20 700 601 3 15 3 40 10 500 100 2 10
NBP0204 2002 09 01 13:00 -66.017 -69.617 10 1 4003.2 2 60 40 500 621 3 20 5 50 20 700 601 3 15 3 40 10 500 100 2 10
NBP0204 2002 09 01 14:00 -65.967 -69.783 10 2 4012.6 3 50 30 400 611 3 15 6 60 30 400 601 3 15 1 90 5 300 0 1 0
NBP0204 2002 09 01 16:00 -65.95 -69.817 9 3 4015.0 2 50 30 400 611 3 15 6 30 20 100 100 3 10 1 90 5 300 0 1 0
NBP0204 2002 09 01 17:00 -65.9 -70.0 9 1 4024.9 8 30 20 100 100 3 10 1 90 7 300 0 1 0
NBP0204 2002 09 01 18:00 -65.85 -70.15 9 1 4033.7 4 60 50 400 601 3 15 4 30 20 100 100 3 10 1 90 7 300 0 1 0
NBP0204 2002 09 01 19:00 -65.817 -70.35 9 1 4043.5 5 60 30 400 601 3 15 2 50 20 200 100 3 3 2 90 7 300 0 1 0
NBP0204 2002 09 01 23:00 -65.767 -70.283 9 1 4049.9 6 60 40 400 611 3 20 1 50 20 200 100 3 3 2 90 7 300 0 1 0
NBP0204 2002 09 02 0:00 -65.733 -70.317 9 1 4053.9 6 60 45 400 611 3 20 1 50 25 200 100 3 5 2 90 7 300 0 1 0
NBP0204 2002 09 02 1:00 -65.717 -70.433 4 4 4059.5 1 60 45 400 611 3 20 1 50 25 400 100 3 10 2 90 7 300 0 1 0
NBP0204 2002 09 02 2:00 -65.667 -70.6 9 1 4068.9 4 60 50 400 611 3 20 3 30 20 100 100 3 10 2 90 7 300 0 1 0
NBP0204 2002 09 02 9:00 -65.6 -70.567 7 4 4076.5 2 60 50 400 601 2 15 5 30 15 100 100 2 10
NBP0204 2002 09 02 10:00 -66.633 -70.633 8 4 4191.2 2 60 50 400 601 2 15 6 30 15 100 100 2 10
NBP0204 2002 09 02 11:00 -65.7 -70.717 8 3 4294.9 2 60 50 400 601 2 15 5 30 15 100 100 2 10 1 11 10 0 0 1 0
NBP0204 2002 09 02 12:00 -65.767 -70.817 9 2 4303.6 2 60 60 400 601 3 20 5 30 15 100 100 3 10 2 11 10 0 0 1 0
NBP0204 2002 09 02 14:00 -65.917 -71.0 9 2 4322.2 3 60 60 400 601 3 25 4 30 15 100 100 3 10 2 11 10 0 0 1 0
NBP0204 2002 09 02 15:00 -65.967 -70.05 10 1 4365.6 4 60 60 400 601 3 25 4 30 15 100 100 3 10 2 11 10 0 0 1 0
NBP0204 2002 09 02 16:00 -65.983 -71.1 10 1 4413.1 5 60 60 400 611 3 15 3 30 15 100 100 3 10 2 11 10 0 0 1 0
NBP0204 2002 09 02 17:00 -66.0 -71.133 9 3 4415.5 5 60 50 400 611 3 20 2 50 25 200 100 3 3 2 90 10 300 0 1 0
NBP0204 2002 09 02 18:00 -66.033 -71.183 7 3 4419.8 4 60 60 400 611 3 20 1 50 25 200 100 3 3 2 90 10 300 0 1 0
NBP0204 2002 09 02 19:00 -66.067 -71.233 8 2 4424.2 6 60 60 400 611 3 35 2 90 10 300 0 1 0
NBP0204 2002 09 02 20:00 -66.1 -71.283 0 9 4428.5
NBP0204 2002 09 02 21:00 -66.033 -71.167 6 2 4437.6 3 60 50 400 611 3 20 1 50 20 200 100 3 3 2 11 10 0 0 1 0
NBP0204 2002 09 03 4:00 -66.033 -70.967 8 1 4446.6 5 60 50 400 611 3 35 2 30 15 100 100 3 10 1 90 10 300 0 1 0
NBP0204 2002 09 03 9:00 -66.083 -70.867 7 4 4453.7 2 60 50 400 601 3 12 3 40 10 400 100 2 5 2 30 5 100 100 2 5
NBP0204 2002 09 03 11:00 -66.117 -70.817 9 4 4458.1 2 70 90 500 612 3 30 5 60 60 700 621 3 10 2 30 20 100 100 3 2
NBP0204 2002 09 03 12:00 -66.167 -70.667 9 2 4466.8 7 60 55 400 621 3 15 1 40 10 400 100 2 7 1 11 5 0 0 1 0
NBP0204 2002 09 03 13:00 -66.2 -70.5 10 1 4475.1 6 60 70 400 621 3 20 3 50 25 500 100 2 5 1 11 5 0 0 1 0
NBP0204 2002 09 03 16:00 -66.233 -70.383 9 1 4481.5 4 70 80 500 722 3 30 4 60 40 500 100 3 15 1 90 20 300 0 1 0
NBP0204 2002 09 03 19:00 -66.233 -70.35 10 1 4483.0 2 70 120 500 823 3 60 7 70 80 500 712 3 40 1 60 40 700 100 3 10
NBP0204 2002 09 03 20:00 -66.25 -70.333 9 1 4485.0 1 70 100 500 712 3 50 8 60 40 600 601 3 3
NBP0204 2002 09 03 21:00 -66.267 -70.317 7 2 4487.0 1 70 80 600 701 3 20 5 60 50 500 731 3 15 1 90 10 300 0 1 0
NBP0204 2002 09 03 22:00 -66.25 -70.35 8 2 4489.4 1 60 70 600 601 3 20 5 60 50 500 731 4 15 2 30 20 100 300 3 3
NBP0204 2002 09 04 0:00 -66.25 -70.35 9 2 4489.4 6 60 50 600 100 3 20 2 60 50 400 100 3 10 1 90 20 300 0 7 2
NBP0204 2002 09 04 4:00 -66.433 -69.7 9 2 4524.9 7 60 60 600 631 3 30 1 60 50 400 100 3 10 1 90 20 300 0 7 2
NBP0204 2002 09 04 9:15 -66.517 -69.7 10 1 4534.1 7 70 80 600 621 3 20 1 70 80 500 622 3 20 2 40 10 200 100 1 0
NBP0204 2002 09 04 10:00 -66.55 -69.767 10 1 4538.9 5 60 70 600 641 3 20 2 50 20 500 601 3 10 3 20 5 200 100 1 0
NBP0204 2002 09 04 11:00 -66.617 -69.85 8 2 4547.1 3 60 70 600 641 3 20 2 40 10 600 100 2 5 3 10 2 0 0 1 0
NBP0204 2002 09 04 12:00 -66.65 -70.017 8 2 4555.4 5 60 70 600 641 3 20 1 40 10 600 100 2 5 2 10 10 0 0 1 0
NBP0204 2002 09 04 13:00 -66.7 -70.133 8 2 4562.9 4 60 70 600 631 3 20 3 50 15 600 100 2 5 1 10 2 0 0 1 0
NBP0204 2002 09 04 21:00 -66.75 -70.133 9 1 4568.5 9 40 10 200 100 7 0
NBP0204 2002 09 04 22:00 -66.75 -70.1 9 1 4569.9 9 40 10 200 100 7 0
NBP0204 2002 09 04 23:00 -66.733 -70.067 9 1 4572.3 9 40 10 200 100 7 0
NBP0204 2002 09 05 2:00 -66.65 -70.383 9 1 4589.0 6 60 40 500 611 3 15 2 50 20 200 100 3 5 1 40 10 200 100 3 0
NBP0204 2002 09 05 3:00 -66.583 -70.517 10 0 4598.4 8 60 40 600 612 3 20 2 50 15 200 100 3 10
NBP0204 2002 09 05 4:00 -66.533 -70.633 9 1 4606.0 5 60 50 600 633 3 20 3 50 15 200 100 3 5 1 40 10 200 100 3 5
NBP0204 2002 09 05 5:00 -66.517 -70.867 8 2 4616.5 4 60 50 600 622 3 15 3 60 30 500 622 3 15 1 50 20 200 100 3 5
NBP0204 2002 09 05 9:00 -66.5 -71.033 10 1 4624.1 6 60 60 500 622 3 25 3 50 30 500 100 3 15 1 40 10 400 100 7 2
NBP0204 2002 09 05 10:00 -66.467 -71.217 10 1 4633.0 1 70 80 400 631 3 25 7 60 50 400 601 3 15 2 11 5 0 0 1 0
NBP0204 2002 09 05 11:00 -66.4 -71.35 10 1 4642.4 3 60 50 500 631 3 20 5 40 10 200 100 1 0 2 30 10 100 100 7 2
NBP0204 2002 09 05 14:00 -66.383 -71.35 10 1 4644.3 4 60 50 500 631 3 25 4 60 50 400 611 3 20 2 40 15 200 100 1 0
NBP0204 2002 09 05 17:00 -66.433 -71.483 9 1 4652.4 3 60 60 500 621 3 25 5 60 60 400 611 3 20 1 30 20 200 200 1 0
NBP0204 2002 09 05 18:00 -66.45 -71.633 10 1 4659.3 6 60 60 400 611 3 25 2 60 40 400 100 3 20 2 11 10 0 0 1 0
NBP0204 2002 09 05 19:00 -66.5 -71.8 9 1 4668.6 1 70 70 400 601 3 35 6 60 50 400 100 3 20 2 30 20 100 300 7 2
NBP0204 2002 09 05 20:00 -66.533 -71.983 9 1 4677.5 1 70 70 400 601 3 35 5 60 50 400 100 3 20 3 30 20 100 300 7 2
NBP0204 2002 09 05 21:00 -66.567 -72.117 8 1 4684.5 4 60 50 400 601 3 20 4 30 20 100 200 2 2
NBP0204 2002 09 05 22:00 -66.6 -72.15 9 1 4688.4 1 70 70 400 601 3 25 5 60 50 400 100 3 20 3 30 20 100 100 7 2
NBP0204 2002 09 06 2:00 -66.633 -72.1 9 1 4692.7 1 85 200 500 823 3 80 6 60 65 400 621 3 20 2 30 20 100 100 3 5
NBP0204 2002 09 06 9:00 -66.717 -71.8 9 1 4708.9 4 60 60 500 622 3 30 4 60 60 400 100 3 15 1 50 20 400 100 3 5
NBP0204 2002 09 06 10:00 -66.75 -71.683 9 1 4715.2 2 80 150 500 822 3 70 5 70 70 500 642 3 30 2 60 40 400 601 3 10
NBP0204 2002 09 06 11:00 -66.8 -71.517 10 1 4724.4 5 70 70 400 621 3 25 4 60 40 400 601 3 15 1 11 5 0 0 1 0
NBP0204 2002 09 06 12:00 -66.817 -71.433 10 1 4728.4 4 70 70 400 621 3 20 4 50 25 600 100 3 10 2 30 10 100 300 3 7
NBP0204 2002 09 06 15:00 -66.867 -71.417 10 2 4734.0 4 70 70 400 621 3 20 6 40 10 700 100 3 5
NBP0204 2002 09 06 16:00 -66.883 -71.45 9 3 4736.4 3 70 70 400 621 3 20 6 40 10 700 100 3 5
NBP0204 2002 09 06 17:00 -66.883 -71.3 10 1 4742.9 1 85 200 500 823 4 80 5 70 70 500 631 3 30 4 50 20 200 100 1 0 Salt flowers on tertiary ice.
NBP0204 2002 09 06 18:00 -66.917 -71.083 9 1 4753.1 4 60 70 500 642 4 30 4 60 50 600 100 3 15 1 40 15 200 100 1 0 Salt flowers on tertiary ice.
NBP0204 2002 09 06 19:00 -66.967 -70.95 9 1 4761.1 4 70 80 500 662 3 35 5 60 60 600 100 3 15
NBP0204 2002 09 06 20:00 -67.0 -70.833 9 1 4767.4 4 70 80 500 672 3 35 5 60 60 600 100 3 15
NBP0204 2002 09 06 21:00 -67.017 -70.75 10 0 4771.4 4 70 80 500 672 3 35 6 60 60 600 100 3 20
NBP0204 2002 09 07 6:00 -67.083 -70.733 9 1 4778.9 9 20 10 200 100 1 0 in large lead; boundaries obscured by ice fog; difficult to distinguish ice type at 500m away; lead covered by nilas
NBP0204 2002 09 07 7:00 -67.1 -70.667 10 0 4782.3 10 20 10 200 100 1 0 ice flowers on nilas
NBP0204 2002 09 07 8:00 -67.167 -70.467 10 0 4793.7 10 20 9 200 100 1 0 following lead
NBP0204 2002 09 07 9:00 -67.183 -70.367 10 0 4798.4 4 70 90 600 833 3 60 6 20 10 200 100 1 0
NBP0204 2002 09 07 13:00 -67.217 -70.217 9 2 4805.8 4 70 80 700 723 3 40 5 50 20 200 100 1 0 fog limiting visibility to less than 700m.
NBP0204 2002 09 07 15:00 -67.317 -69.917 7 3 4822.8 2 70 80 600 631 3 20 4 40 15 700 100 2 10 1 11 10 0 0 1 0
NBP0204 2002 09 07 16:00 -67.383 -69.783 6 5 4832.2 1 70 80 600 631 3 20 3 20 10 200 100 1 0 2 12 2 0 0 1 0
NBP0204 2002 09 07 17:00 -67.417 -69.65 5 5 4839.0 1 70 80 700 641 3 20 2 11 10 0 0 1 0 2 12 5 0 0 1 0
NBP0204 2002 09 07 18:00 -67.467 -69.517 Limited visibility due to fog; primarily open water and lead of YG ice (~10cm); <1% bergy bits; nila and brash.
NBP0204 2002 09 07 19:00 -67.467 -69.5 0 0 0 0 0 0 0 0 0 0 0 0 0 0 0 0 0 0 0 0 0 Limited visibility due to fog; primarily open water and lead of YG ice (~10cm); <1% bergy bits; nila and brash.
NBP0204 2002 09 07 20:00 -67.45 -69.517 0 0 0 0 0 0 0 0 0 0 0 0 0 0 0 0 0 0 0 0 0 Limited visibility due to fog; primarily open water and lead of YG ice (~10cm); <1% bergy bits; nila and brash.
NBP0204 2002 09 07 21:00 -67.467 -69.533 0 9 4851.6 small patches of brash bits in nila ice
NBP0204 2002 09 07 22:00 -67.45 -69.55 0 9 4853.6 pancake-shaped brash bits covering open water surface
NBP0204 2002 09 07 23:00 -67.417 -69.55 0 9 4857.3 open water with patches of pancake shaped brash bits
NBP0204 2002 09 08 0:00 -67.383 -69.55 0 9 4861.0 open water with patches of brash
NBP0204 2002 09 08 3:00 -67.433 -69.55 0 9 4866.5 ~9nm from Adelaide Island; many icebergs to south;west.
NBP0204 2002 09 08 4:00 -67.383 -69.55 0 9 4872.1 large icebergs ~1nm to north
NBP0204 2002 09 08 6:00 -67.267 -69.467 9 1 4885.5 5 30 20 100 200 1 0 4 50 15 200 100 1 0
NBP0204 2002 09 08 7:00 -67.167 -69.383 10 0 4897.1 10 30 15 100 200 1 0
NBP0204 2002 09 08 8:00 -67.117 -69.267 10 0 4904.6 5 50 20 200 100 1 0 5 40 10 200 100 1 0
NBP0204 2002 09 08 9:00 -67.067 -69.2 6 6 4910.9 1 70 70 400 631 3 20 3 20 10 200 100 1 0 2 11 5 0 0 1 0
NBP0204 2002 09 08 12:00 -67.05 -69.167 8 3 4913.2 5 40 15 200 100 1 0 3 20 10 200 100 1 0
NBP0204 2002 09 08 13:00 -67.017 -69.267 6 5 4918.9 4 70 70 500 773 4 30 1 40 15 200 100 1 0 1 20 10 200 100 1 0
NBP0204 2002 09 08 14:00 -67.05 -69.15 8 3 4925.2 2 70 70 500 773 4 30 4 40 15 200 100 1 0 2 90 10 300 100 1 0
NBP0204 2002 09 09 2:00 -66.967 -69.45 8 2 4941.1 5 70 85 500 832 3 40 2 40 10 400 100 3 7 1 90 9 300 100 1 0
NBP0204 2002 09 09 3:00 -66.9 -69.483 9 1 4948.7 8 70 85 600 842 3 45 1 90 10 300 100 1 0
NBP0204 2002 09 09 4:00 -66.867 -69.4 9 1 4953.9 5 70 90 500 842 3 50 3 40 10 500 100 3 5 1 90 7 300 100 1 0
NBP0204 2002 09 09 5:00 -66.8 -69.267 9 1 4963.3 4 70 85 600 842 3 45 3 40 10 500 100 3 5 2 20 8 200 100 3 1
NBP0204 2002 09 09 6:00 -66.75 -69.133 9 2 4971.3 5 70 75 600 821 3 25 2 40 10 500 100 3 3 2 20 10 200 100 3 1
NBP0204 2002 09 09 10:00 -66.683 -68.9 9 1 4983.9 2 70 70 600 821 3 30 5 50 25 500 100 3 10 2 20 10 200 100 3 3
NBP0204 2002 09 09 12:00 -66.733 -68.833 9 2 4990.2 3 70 70 600 722 3 40 5 50 20 200 100 2 2 1 40 15 500 100 2 1
NBP0204 2002 09 09 13:00 -66.783 -68.617 6 3 5001.2 4 70 80 500 762 3 30 2 40 15 200 100 2 1
NBP0204 2002 09 09 14:00 -66.817 -68.433 3 6 5010.1 1 50 20 400 100 2 5 2 40 15 400 100 2 3
NBP0204 2002 09 09 16:00 -66.783 -68.55 6 3 5016.4 2 60 65 400 631 3 20 3 50 20 500 100 2 8 1 11 8 0 0 1 0
NBP0204 2002 09 09 17:00 -66.7 -68.567 9 2 5025.6 4 60 60 600 701 3 20 5 40 10 200 100 2 1
NBP0204 2002 09 09 18:00 -66.633 -68.55 9 2 5033.1 5 60 60 600 701 3 20 4 40 10 200 100 2 1
NBP0204 2002 09 09 19:00 -66.55 -68.5 9 2 5042.6 1 60 50 400 711 3 2 8 40 15 200 100 2 2
NBP0204 2002 09 09 20:00 -66.483 -68.45 9 2 5050.3 9 40 10 200 100 7 1
NBP0204 2002 09 09 21:00 -66.4 -68.383 10 1 5060.0 10 60 30 700 601 2 15
NBP0204 2002 09 10 7:00 -66.3 -68.55 7 2 5073.4 3 60 60 500 622 3 25 4 40 10 200 100 1 0
NBP0204 2002 09 10 9:00 -66.083 -68.517 9 2 5097.5 7 60 55 400 601 3 20 1 40 15 200 100 3 5 1 11 10 0 0 1 0
NBP0204 2002 09 10 10:00 -65.983 -68.517 9 2 5108.6 7 60 55 400 601 3 20 1 40 15 200 100 3 5 1 11 10 0 0 1 0
NBP0204 2002 09 10 14:00 -65.967 -68.417 10 1 5113.4 2 70 85 400 631 3 25 6 60 45 500 611 3 20 2 11 10 0 0 1 0
NBP0204 2002 09 10 15:00 -65.9 -68.2 10 1 5125.7 2 70 85 400 631 3 25 6 60 45 500 611 3 20 2 11 10 0 0 1 0
NBP0204 2002 09 10 16:00 -65.833 -67.967 8 2 5138.6 5 60 60 600 701 3 20 2 40 15 200 100 7 1 1 90 5 300 0 1 0
NBP0204 2002 09 10 17:00 -65.8 -67.867 9 2 5144.5 6 60 60 600 701 3 20 3 40 15 200 100 7 1
NBP0204 2002 09 10 18:00 -65.767 -67.767 9 2 5150.3 7 60 60 700 701 3 20 2 40 15 200 100 7 1
NBP0204 2002 09 10 19:00 -65.733 -67.6 9 2 5158.8 8 60 60 700 701 3 20 1 40 15 200 100 7 1
NBP0204 2002 09 11 0:00 -65.417 -66.717 9 1 5212.3 1 60 70 600 721 3 1 8 90 15 300 0 1 0
NBP0204 2002 09 11 6:00 -65.183 -65.567 9 1 5271.4 8 60 50 600 721 2 10 1 40 10 200 100 7 1
NBP0204 2002 09 11 7:00 -65.183 -65.567 8 2 5271.4 7 60 50 600 711 2 15 1 40 10 200 100 7 1 towing Moc-1 slowly
NBP0204 2002 09 11 8:00 -65.2 -65.633 9 1 5275.0 8 60 50 600 711 2 20 1 40 15 200 100 7 1 towing Moc-1 slowly
NBP0204 2002 09 11 11:00 -65.167 -65.6 8 2 5279.0 7 60 50 600 711 2 20 1 40 15 200 100 7 1
NBP0204 2002 09 11 20:00 -65.167 -65.533 9 2 5282.1 7 60 40 500 731 3 20 2 40 10 200 100 7 1
NBP0204 2002 09 11 21:00 -65.15 -65.517 9 2 5284.1 7 60 40 500 731 3 20 2 40 10 200 100 7 1
NBP0204 2002 09 12 8:00 -64.9 -64.733 7 2 5330.0 1 70 95 400 631 3 30 5 50 20 700 100 3 10 1 40 10 200 100 1 0
NBP0204 2002 09 12 9:00 -64.883 -64.467 7 2 5342.7 1 70 95 400 631 3 30 4 50 30 700 100 3 10 2 40 10 200 100 1 0
NBP0204 2002 09 13 12:00 -64.8 -64.05 3 6 5364.4 3 90 10 300 0 1 0
NBP0204 2002 09 13 13:00 -64.867 -63.85 4 6 5376.4 2 90 10 300 0 1 0 2 20 5 200 100 1 0
NBP0204 2002 09 13 14:00 -64.8 -63.517 2 6 5393.8 2 90 10 300 0 1 0
NBP0204 2002 09 13 15:00 -64.7 -63.183 1 6 5413.0 1 90 10 300 0 1 0
NBP0204 2002 09 13 16:00 -64.717 -63.017 0 8 5421.2 icebergs and <1% brash ice
NBP0204 2002 09 13 17:00 -64.683 -62.983 0 8 5425.2 icebergs and <1% brash ice
NBP0204 2002 09 14 8:00 -63.967 -61.7 0 9 5525.4 small icebergs only
NBP0204 2002 09 14 9:00 -63.867 -61.55 0 9 5538.7 small icebergs only
NBP0204 2002 09 14 10:00 -63.75 -61.333 0 9 5555.4 small icebergs only
NBP0204 2002 09 14 11:00 -63.633 -61.4 0 9 5568.8 small icebergs only
NBP0204 2002 09 14 12:00 -63.467 -61.517 0 9 5588.2 small icebergs only
NBP0204 2002 09 14 13:00 -63.317 -61.617 3 8 5605.5 2 30 20 100 100 3 10 1 90 10 300 0 1 0
NBP0204 2002 09 14 14:00 -63.15 -61.733 0 9 5624.9
NBP0204 2002 09 14 15:00 -63.067 -61.8 6 6 5634.8 3 30 20 100 100 3 10 3 90 10 300 0 1 0
NBP0204 2002 09 14 16:00 -62.917 -61.983 7 6 5653.8 2 30 20 100 100 3 10 5 90 10 300 0 1 0
NBP0204 2002 09 15 9:00 -60.967 -62.983 1 9 5876.1 1 90 10 300 0 1 0
NBP0204 2002 09 15 10:00 -60.783 -63.15 0 9 5898.4
NBP0204 2002 09 15 11:00 -60.617 -63.133 0 9 5916.9 Last ice observation!

 
ERDDAP, Version 1.82
Disclaimers | Privacy Policy | Contact